ftp/pub/palmer/observations_modified/2016/November/AR161123_BASE.txt

Download

Sample DateTime	Unit Id	WS Avg 2min	WD Avg 2min	WGS 10min	WGD 10min	Air Temp	Rel Humidity	Dew Point	Pyranometer	Quantum	Air Pressure	Snow Level	Rainfall	PW Current	Visibility	CBase 1	CBase 2	CBase 3	Vert Vis
2016/11/23 00:00:00	BASE	2.74	179	4.01	214	1.2	88	-0.5	12	55	990.8	NA	0.0000	-RA BR	2300	2200	0	0	0
2016/11/23 00:01:00	BASE	1.86	172	4.01	214	1.1	88	-0.6	12	55	990.8	NA	0.0000	-RA BR	2500	390	0	0	0
2016/11/23 00:02:00	BASE	0.87	175	4.01	214	1.1	88	-0.6	12	54	990.8	NA	0.0000	-RA BR	2500	390	0	0	0
2016/11/23 00:03:00	BASE	1.03	181	4.01	214	1.1	89	-0.6	12	53	990.8	NA	0.0000	-RA BR	2500	2070	0	0	0
2016/11/23 00:04:00	BASE	0.96	176	4.01	214	1.1	89	-0.5	12	53	990.8	NA	0.0000	-RA BR	2500	2360	0	0	0
2016/11/23 00:05:00	BASE	0.40	102	4.01	214	1.2	89	-0.4	12	53	990.8	NA	0.0000	-RA BR	2500	2230	0	0	0
2016/11/23 00:06:00	BASE	0.72	80	4.01	214	1.3	89	-0.4	12	52	990.7	NA	0.0000	-RA BR	2500	430	0	0	0
2016/11/23 00:07:00	BASE	0.96	99	3.65	166	1.4	88	-0.3	12	51	990.5	NA	0.0000	-RA BR	2500	2590	0	0	0
2016/11/23 00:08:00	BASE	2.40	115	4.58	122	1.4	88	-0.3	11	50	990.4	NA	0.0000	BR	2500	2300	0	0	0
2016/11/23 00:09:00	BASE	4.95	111	7.51	104	1.4	88	-0.3	11	49	990.4	NA	0.0000	BR	2500	2400	0	0	0
2016/11/23 00:10:00	BASE	5.56	101	7.51	104	1.4	88	-0.3	11	48	990.5	NA	0.0000	BR	2400	2130	0	0	0
2016/11/23 00:11:00	BASE	4.75	115	7.51	104	1.4	88	-0.4	11	48	990.4	NA	0.0000	-RA BR	2300	2200	0	0	0
2016/11/23 00:12:00	BASE	4.45	124	7.51	104	1.4	88	-0.4	11	47	990.3	NA	0.0000	-RA BR	1800	2360	0	0	0
2016/11/23 00:13:00	BASE	4.59	122	7.51	104	1.4	88	-0.4	11	46	990.3	NA	0.2540	-RA BR	1900	2400	0	0	0
2016/11/23 00:14:00	BASE	4.59	109	7.51	104	1.5	87	-0.5	10	44	990.4	NA	0.0000	-RA BR	1900	2300	0	0	0
2016/11/23 00:15:00	BASE	4.24	76	7.51	104	1.5	87	-0.5	10	42	990.6	NA	0.0000	-RA BR	1900	2200	0	0	0
2016/11/23 00:16:00	BASE	3.89	58	7.51	104	1.5	86	-0.6	9	41	990.5	NA	0.0000	-RA BR	1900	2260	3180	0	0
2016/11/23 00:17:00	BASE	2.81	108	7.51	104	1.4	86	-0.6	9	43	990.1	NA	0.0000	-RA BR	2400	360	0	0	0
2016/11/23 00:18:00	BASE	2.33	136	7.51	104	1.4	87	-0.6	8	41	990.3	NA	0.0000	-RA BR	2100	390	2400	0	0
2016/11/23 00:19:00	BASE	3.68	79	6.79	81	1.4	87	-0.6	8	40	990.6	NA	0.0000	-RA BR	2000	390	2230	0	0
2016/11/23 00:20:00	BASE	6.79	79	10.44	120	1.3	87	-0.6	8	40	990.3	NA	0.2540	-RA BR	1900	360	3610	0	0
2016/11/23 00:21:00	BASE	11.13	118	17.54	130	1.3	88	-0.5	8	38	989.4	NA	0.0000	-RA BR	0900	360	3840	0	0
2016/11/23 00:22:00	BASE	12.68	147	17.54	130	1.4	88	-0.4	8	40	989.2	NA	0.0000	-RA BR	0750	2430	0	0	0
2016/11/23 00:23:00	BASE	12.43	161	17.54	130	1.6	88	-0.2	9	41	988.9	NA	0.0000	-RA BR	1100	2200	0	0	0
2016/11/23 00:24:00	BASE	13.12	169	17.54	130	1.9	87	-0.0	8	38	988.8	NA	0.0000	-RA BR	1600	2690	0	0	0
2016/11/23 00:25:00	BASE	12.42	169	17.54	130	2.4	85	0.0	8	36	989.0	NA	0.0000	-RA	2100	2430	0	0	0
2016/11/23 00:26:00	BASE	8.91	168	17.54	130	2.9	82	0.0	7	36	989.4	NA	0.0000	-RA	2400	2260	0	0	0
2016/11/23 00:27:00	BASE	6.93	174	17.54	130	3.2	79	-0.1	7	35	989.4	NA	0.0000	-RA	2000	2300	0	0	0
2016/11/23 00:28:00	BASE	6.97	184	17.54	130	3.4	77	-0.3	7	35	989.6	NA	0.0000	-RA	2100	2360	0	0	0
2016/11/23 00:29:00	BASE	4.90	200	17.54	130	3.2	76	-0.6	7	35	989.6	NA	0.2540	-RA	2000	2360	0	0	0
2016/11/23 00:30:00	BASE	2.47	173	17.54	130	2.9	78	-0.7	7	35	989.8	NA	0.0000	-RA	1800	2330	0	0	0
2016/11/23 00:31:00	BASE	2.38	63	17.49	148	2.5	80	-0.7	7	35	989.8	NA	0.0000	-RA	1800	2330	0	0	0
2016/11/23 00:32:00	BASE	3.37	107	17.49	148	2.2	82	-0.5	7	34	989.4	NA	0.0000	-RA	1800	2430	3250	0	0
2016/11/23 00:33:00	BASE	5.25	145	17.49	148	2.1	83	-0.4	7	33	989.3	NA	0.0000	-RA	1800	2260	0	0	0
2016/11/23 00:34:00	BASE	5.48	145	12.66	163	2.2	84	-0.3	7	33	989.6	NA	0.0000	-RA	1800	2260	0	0	0
2016/11/23 00:35:00	BASE	2.74	96	10.60	162	2.3	83	-0.3	7	34	989.6	NA	0.0000	-RA	1800	2230	0	0	0
2016/11/23 00:36:00	BASE	1.18	58	9.05	180	2.3	83	-0.3	7	32	989.5	NA	0.0000	-RA	1800	1970	2920	0	0
2016/11/23 00:37:00	BASE	0.45	59	9.00	205	2.2	82	-0.5	7	32	989.5	NA	0.0000	-RA	1800	2400	0	0	0
2016/11/23 00:38:00	BASE	0.76	9	8.08	160	2.1	83	-0.5	6	31	989.6	NA	0.0000	-RA	1800	2400	0	0	0
2016/11/23 00:39:00	BASE	1.10	357	8.08	160	2.0	84	-0.5	6	31	989.6	NA	0.0000	-RA	1800	2660	0	0	0
2016/11/23 00:40:00	BASE	0.33	15	8.08	160	1.9	84	-0.4	6	31	989.6	NA	0.0000	-RA	1800	2400	0	0	0
2016/11/23 00:41:00	BASE	0.68	53	8.08	160	2.0	85	-0.3	6	31	989.6	NA	0.0000	-RA	1800	2330	0	0	0
2016/11/23 00:42:00	BASE	2.27	100	8.08	160	2.0	85	-0.3	6	31	989.5	NA	0.0000	-RA	1800	2200	3120	0	0
2016/11/23 00:43:00	BASE	3.86	128	6.28	150	2.0	85	-0.3	7	31	989.3	NA	0.0000	-RA	1800	2660	0	0	0
2016/11/23 00:44:00	BASE	4.76	138	6.69	142	1.9	85	-0.3	6	30	989.2	NA	0.0000	-RA	1800	2460	3670	0	0
2016/11/23 00:45:00	BASE	5.98	131	7.67	132	1.8	85	-0.4	6	29	989.2	NA	0.0000	BR	1800	2460	0	0	0
2016/11/23 00:46:00	BASE	7.10	128	8.18	133	1.6	86	-0.5	6	28	989.3	NA	0.0000	BR	1800	2430	0	0	0
2016/11/23 00:47:00	BASE	7.33	123	8.18	133	1.5	87	-0.4	6	29	989.4	NA	0.0000	BR	1800	2230	0	0	0
2016/11/23 00:48:00	BASE	7.55	112	8.75	108	1.5	87	-0.4	6	29	989.2	NA	0.0000	BR	1800	2200	0	0	0
2016/11/23 00:49:00	BASE	8.02	111	9.11	114	1.5	87	-0.5	6	29	989.0	NA	0.0000	BR	1800	2170	3410	0	0
2016/11/23 00:50:00	BASE	9.06	118	10.29	121	1.4	87	-0.5	6	29	988.9	NA	0.0000	BR	1800	2460	3610	0	0
2016/11/23 00:51:00	BASE	9.80	123	11.01	124	1.5	87	-0.5	6	28	988.9	NA	0.0000	BR	1800	2330	0	0	0
2016/11/23 00:52:00	BASE	10.30	123	12.45	115	1.4	87	-0.5	6	27	988.7	NA	0.2540	BR	1800	2460	0	0	0
2016/11/23 00:53:00	BASE	10.70	123	12.76	127	1.4	87	-0.6	5	26	988.7	NA	0.0000	RA BR	1500	2360	0	0	0
2016/11/23 00:54:00	BASE	11.24	128	13.94	129	1.4	87	-0.6	5	25	988.6	NA	0.0000	RA BR	0650	2230	2990	0	0
2016/11/23 00:55:00	BASE	11.14	127	14.15	119	1.4	87	-0.5	5	24	988.7	NA	0.0000	-RA BR	0650	2260	3670	0	0
2016/11/23 00:56:00	BASE	9.50	128	14.15	119	1.4	87	-0.5	5	23	988.8	NA	0.0000	-RA BR	0700	2300	3280	0	0
2016/11/23 00:57:00	BASE	7.48	133	14.15	119	1.6	87	-0.4	5	22	988.9	NA	0.0000	-RA BR	0750	3510	0	0	0
2016/11/23 00:58:00	BASE	6.99	132	14.15	119	1.6	87	-0.4	4	21	988.9	NA	0.0000	-RA BR	0750	3380	0	0	0
2016/11/23 00:59:00	BASE	7.97	134	14.15	119	1.7	86	-0.3	4	20	988.7	NA	0.0000	-RA BR	0750	3380	0	0	0
2016/11/23 01:00:00	BASE	8.64	137	14.15	119	1.7	86	-0.4	4	19	988.7	NA	0.0000	-RA BR	0800	2230	0	0	0
2016/11/23 01:01:00	BASE	8.31	131	14.15	119	1.7	86	-0.4	4	18	988.9	NA	0.0000	-RA FG	0750	390	2720	0	0
2016/11/23 01:02:00	BASE	7.87	130	14.15	119	1.6	86	-0.5	3	17	988.7	NA	0.0000	-RA FG	1300	2100	3670	0	0
2016/11/23 01:03:00	BASE	9.78	134	14.15	119	1.5	86	-0.5	3	17	988.3	NA	0.0000	-RA FG	1500	2460	3610	0	0
2016/11/23 01:04:00	BASE	10.25	137	14.15	119	1.5	87	-0.4	3	16	988.4	NA	0.0000	-SN FG	1700	3480	0	0	0
2016/11/23 01:05:00	BASE	8.86	139	13.79	126	1.7	87	-0.3	3	16	988.5	NA	0.0000	-SN BR	1900	2170	3450	0	0
2016/11/23 01:06:01	BASE	9.57	130	13.79	126	1.8	86	-0.3	3	16	988.5	NA	0.2540	-SN BR	1700	2200	3610	0	0
2016/11/23 01:07:01	BASE	10.07	128	13.79	126	1.9	85	-0.3	3	15	988.4	NA	0.0000	-SN BR	1400	3050	3710	0	0
2016/11/23 01:08:00	BASE	9.09	134	13.79	126	1.9	85	-0.3	3	15	988.5	NA	0.0000	-SN	1300	3050	0	0	0
2016/11/23 01:09:00	BASE	7.80	132	13.79	126	1.9	85	-0.4	3	14	988.5	NA	0.0000	-SN	1300	3640	0	0	0
2016/11/23 01:10:00	BASE	7.54	129	13.79	126	1.8	85	-0.5	3	14	988.5	NA	0.0000	-SN	1500	1410	0	0	0
2016/11/23 01:11:01	BASE	7.98	132	13.79	126	1.6	85	-0.5	2	13	988.4	NA	0.0000	-SN BR	1600	430	0	0	0
2016/11/23 01:12:00	BASE	7.56	131	13.79	126	1.7	86	-0.4	2	13	988.8	NA	0.0000	-SN BR	2300	3540	0	0	0
2016/11/23 01:13:00	BASE	5.22	138	11.99	127	1.8	86	-0.3	2	12	989.1	NA	0.0000	RA BR	2500	3670	0	0	0
2016/11/23 01:14:00	BASE	3.58	139	11.99	127	1.9	86	-0.3	2	12	989.0	NA	0.2540	RA BR	2500	3640	0	0	0
2016/11/23 01:15:00	BASE	3.90	127	11.37	122	2.0	85	-0.3	2	11	989.0	NA	0.0000	-RA	2400	3580	0	0	0
2016/11/23 01:16:00	BASE	4.68	130	10.80	130	2.1	85	-0.2	2	11	988.6	NA	0.0000	-RA	2200	3540	0	0	0
2016/11/23 01:17:00	BASE	5.76	151	10.13	127	2.1	84	-0.3	2	11	988.3	NA	0.0000	-RA	1600	3670	0	0	0
2016/11/23 01:18:01	BASE	6.12	160	10.13	127	2.0	84	-0.4	2	10	988.5	NA	0.0000	-RA	1700	3770	0	0	0
2016/11/23 01:19:01	BASE	4.07	156	10.13	127	1.9	84	-0.4	2	9	989.0	NA	0.0000	-RA	1700	2030	0	0	0
2016/11/23 01:20:01	BASE	3.32	260	10.13	127	1.9	85	-0.4	2	9	988.9	NA	0.0000	-RA	1900	2260	3220	0	0
2016/11/23 01:21:01	BASE	4.13	262	8.80	124	1.8	85	-0.4	1	8	988.8	NA	0.2540	RA	2100	2070	3280	0	0
2016/11/23 01:22:01	BASE	3.46	208	8.54	154	1.7	86	-0.4	1	8	988.9	NA	0.0000	RA BR	2000	2430	3450	0	0
2016/11/23 01:23:01	BASE	2.76	185	8.54	154	1.7	86	-0.4	1	8	988.8	NA	0.0000	RA BR	2200	2400	3410	0	0
2016/11/23 01:24:01	BASE	3.94	176	8.54	154	1.6	87	-0.4	1	8	988.6	NA	0.0000	RA BR	2200	2490	3380	0	0
2016/11/23 01:25:01	BASE	6.52	169	8.54	154	1.6	87	-0.4	1	8	988.4	NA	0.0000	RA BR	2400	2330	3250	0	0
2016/11/23 01:26:01	BASE	7.32	157	8.54	154	1.5	87	-0.5	1	7	988.4	NA	0.0000	RA BR	2600	2260	0	0	0
2016/11/23 01:27:01	BASE	7.15	155	8.54	154	1.4	87	-0.5	1	7	988.4	NA	0.0000	-RA BR	2800	2430	3410	0	0
2016/11/23 01:28:01	BASE	7.05	158	8.23	158	1.3	88	-0.6	1	7	988.4	NA	0.0000	-RA BR	3000	2360	0	0	0
2016/11/23 01:29:01	BASE	6.58	164	8.23	158	1.2	88	-0.6	1	6	988.5	NA	0.0000	-RA BR	3000	2400	0	0	0
2016/11/23 01:30:01	BASE	5.60	155	8.23	158	1.1	89	-0.6	1	6	988.6	NA	0.0000	-RA BR	3000	2460	3250	0	0
2016/11/23 01:31:01	BASE	5.71	132	8.23	158	1.1	89	-0.5	1	6	988.6	NA	0.0000	-RA BR	3000	2490	0	0	0
2016/11/23 01:32:01	BASE	6.69	128	8.23	158	1.2	90	-0.3	1	6	988.4	NA	0.0000	-RA BR	3000	2460	0	0	0
2016/11/23 01:33:01	BASE	7.50	148	9.05	159	1.3	89	-0.2	1	5	988.4	NA	0.0000	-RA BR	3000	2950	0	0	0
2016/11/23 01:34:01	BASE	7.07	165	9.05	159	1.6	89	-0.1	1	5	988.6	NA	0.2540	-RA BR	3000	2590	0	0	0
2016/11/23 01:35:01	BASE	6.70	164	9.05	159	1.8	87	-0.1	1	5	988.5	NA	0.0000	BR	2900	2460	0	0	0
2016/11/23 01:36:01	BASE	7.14	159	9.05	159	1.9	86	-0.2	1	5	988.5	NA	0.0000	BR	2900	2430	0	0	0
2016/11/23 01:37:01	BASE	6.93	160	9.05	159	2.0	85	-0.2	1	5	988.4	NA	0.0000	-RA BR	2800	2460	0	0	0
2016/11/23 01:38:01	BASE	6.91	162	9.05	159	2.0	85	-0.3	1	4	988.4	NA	0.0000	-RA	2900	2400	0	0	0
2016/11/23 01:39:01	BASE	7.24	160	9.05	159	1.8	85	-0.4	1	4	988.3	NA	0.0000	-RA	2200	2230	0	0	0
2016/11/23 01:40:01	BASE	5.98	160	9.05	159	1.7	86	-0.4	1	4	988.4	NA	0.0000	-RA BR	2500	1150	0	0	0
2016/11/23 01:41:01	BASE	4.48	173	9.05	159	1.8	86	-0.3	1	4	988.3	NA	0.0000	-RA BR	2000	460	0	0	0
2016/11/23 01:42:01	BASE	5.35	165	9.05	159	2.0	85	-0.3	1	4	988.4	NA	0.0000	-RA	2000	2260	0	0	0
2016/11/23 01:43:01	BASE	6.04	154	8.49	145	2.2	84	-0.3	1	4	988.4	NA	0.0000	-RA	1700	390	2560	0	0
2016/11/23 01:44:01	BASE	5.37	171	8.49	145	2.4	83	-0.3	1	3	988.3	NA	0.0000	-RA	1500	360	0	0	0
2016/11/23 01:45:01	BASE	5.22	181	8.49	145	2.6	81	-0.3	1	3	988.2	NA	0.0000	-RA	1500	360	3740	0	0
2016/11/23 01:46:01	BASE	5.37	178	8.49	145	2.5	81	-0.4	0	3	988.1	NA	0.0000	-RA	1500	2430	3180	0	0
2016/11/23 01:47:01	BASE	5.79	172	10.55	147	2.4	81	-0.5	0	3	988.0	NA	0.0000	-SN	1900	2530	0	0	0
2016/11/23 01:48:01	BASE	7.70	150	10.80	135	2.3	82	-0.4	0	3	987.8	NA	0.0000	-SN	1900	2430	0	0	0
2016/11/23 01:49:01	BASE	7.59	149	10.80	135	2.4	82	-0.3	0	3	987.7	NA	0.0000	-SN	1400	460	2230	0	0
2016/11/23 01:50:01	BASE	7.67	162	11.32	165	2.6	82	-0.2	0	3	987.4	NA	0.0000	-SN	2000	3450	0	0	0
2016/11/23 01:51:01	BASE	7.10	186	11.32	165	2.9	80	-0.2	0	3	987.6	NA	0.0000	-SN	2800	2360	3380	0	0
2016/11/23 01:52:01	BASE	3.65	199	11.32	165	3.4	78	-0.1	0	3	987.7	NA	0.0000	-SN	3000	2460	0	0	0
2016/11/23 01:53:01	BASE	3.27	141	11.32	165	3.7	76	-0.3	0	2	987.8	NA	0.0000	-SN	3400	2230	0	0	0
2016/11/23 01:54:01	BASE	4.15	92	11.32	165	3.8	74	-0.4	0	2	987.9	NA	0.0000	-SN	3400	2230	0	0	0
2016/11/23 01:55:01	BASE	4.89	85	11.32	165	3.7	74	-0.5	0	2	987.8	NA	0.0000	-SN	3400	2360	0	0	0
2016/11/23 01:56:01	BASE	6.29	103	11.32	165	3.5	75	-0.6	0	2	987.8	NA	0.0000	-RA	3300	2430	0	0	0
2016/11/23 01:57:01	BASE	6.79	90	11.32	165	3.2	76	-0.6	0	2	987.9	NA	0.0000	-RA	3300	2430	0	0	0
2016/11/23 01:58:01	BASE	7.20	80	11.32	165	2.8	78	-0.7	0	2	987.9	NA	0.2540	-RA	3300	2330	0	0	0
2016/11/23 01:59:01	BASE	7.34	72	11.32	165	2.4	81	-0.6	0	2	988.1	NA	0.0000	-RA	3300	2400	3670	0	0
2016/11/23 02:00:01	BASE	4.77	32	9.11	198	2.2	83	-0.4	0	2	987.8	NA	0.0000	HZ	3300	2030	2820	0	0
2016/11/23 02:01:01	BASE	2.55	227	8.49	63	2.3	83	-0.3	0	2	987.1	NA	0.0000	HZ	3300	2360	3640	0	0
2016/11/23 02:02:01	BASE	4.67	145	8.49	63	2.5	82	-0.3	0	2	987.3	NA	0.0000	HZ	3300	2230	0	0	0
2016/11/23 02:03:01	BASE	6.58	119	8.49	63	2.6	81	-0.3	0	2	987.5	NA	0.0000	HZ	3300	2200	0	0	0
2016/11/23 02:04:01	BASE	5.36	106	8.49	63	2.8	80	-0.3	0	2	987.4	NA	0.0000	HZ	3200	2260	0	0	0
2016/11/23 02:05:01	BASE	4.45	120	8.49	63	2.8	79	-0.4	0	1	987.1	NA	0.0000	HZ	3200	3580	0	0	0
2016/11/23 02:06:01	BASE	4.73	125	8.49	63	2.7	80	-0.5	0	1	987.3	NA	0.0000	HZ	3200	2230	0	0	0
2016/11/23 02:07:01	BASE	4.85	117	8.49	63	2.5	81	-0.4	0	1	987.3	NA	0.0000	HZ	3200	2100	0	0	0
2016/11/23 02:08:01	BASE	4.95	132	8.49	63	2.4	82	-0.4	0	1	987.0	NA	0.0000	HZ	3200	2130	0	0	0
2016/11/23 02:09:01	BASE	4.47	144	7.46	122	2.3	83	-0.4	0	1	987.1	NA	0.0000	HZ	3200	2170	3870	0	0
2016/11/23 02:10:01	BASE	2.94	115	7.46	122	2.2	83	-0.3	0	1	987.1	NA	0.0000	HZ	3200	390	0	0	0
2016/11/23 02:11:01	BASE	2.44	106	7.46	122	2.2	84	-0.2	0	1	986.9	NA	0.0000	HZ	3200	2690	3220	0	0
2016/11/23 02:12:01	BASE	4.72	112	7.97	87	2.3	83	-0.2	0	1	986.8	NA	0.0000	HZ	3200	2130	0	0	0
2016/11/23 02:13:01	BASE	7.16	92	9.21	78	2.4	83	-0.2	0	1	986.8	NA	0.0000	HZ	3200	2130	2850	0	0
2016/11/23 02:14:01	BASE	6.99	79	9.21	78	2.4	83	-0.3	0	1	986.9	NA	0.0000	HZ	3200	2200	3640	0	0
2016/11/23 02:15:01	BASE	5.47	78	9.21	78	2.4	82	-0.3	0	1	986.9	NA	0.0000	HZ	3200	2490	0	0	0
2016/11/23 02:16:01	BASE	5.59	92	9.21	78	2.4	82	-0.4	0	1	986.8	NA	0.0000	HZ	3200	2330	3610	0	0
2016/11/23 02:17:01	BASE	6.88	103	9.21	78	2.5	82	-0.4	0	1	986.7	NA	0.0000	HZ	3200	2330	3380	0	0
2016/11/23 02:18:01	BASE	6.29	104	9.21	78	2.5	81	-0.4	0	1	986.6	NA	0.0000	HZ	3000	2620	3580	0	0
2016/11/23 02:19:01	BASE	6.07	104	9.21	78	2.5	81	-0.4	0	1	986.6	NA	0.0000	HZ	3200	2400	0	0	0
2016/11/23 02:20:01	BASE	7.21	105	9.21	78	2.5	81	-0.5	0	1	986.5	NA	0.0000	-RA	3100	2590	0	0	0
2016/11/23 02:21:01	BASE	7.79	119	9.26	133	2.6	80	-0.5	0	1	986.4	NA	0.0000	-RA	2900	2490	3020	0	0
2016/11/23 02:22:01	BASE	8.34	129	9.36	124	2.5	80	-0.5	0	1	986.3	NA	0.0000	-RA	2000	2430	0	0	0
2016/11/23 02:23:01	BASE	7.52	129	9.36	124	2.4	81	-0.5	0	1	986.4	NA	0.0000	-RA	1900	2430	0	0	0
2016/11/23 02:24:01	BASE	6.12	132	9.36	124	2.4	81	-0.5	0	1	986.4	NA	0.0000	-RA	1900	2460	0	0	0
2016/11/23 02:25:01	BASE	6.40	131	9.77	123	2.3	82	-0.5	0	1	986.3	NA	0.0000	-RA	1900	2590	0	0	0
2016/11/23 02:26:01	BASE	7.82	127	10.08	129	2.4	82	-0.5	0	1	986.2	NA	0.0000	-RA	1900	2560	0	0	0
2016/11/23 02:27:01	BASE	9.39	129	11.88	128	2.4	81	-0.5	0	1	986.1	NA	0.0000	-RA	1900	2660	0	0	0
2016/11/23 02:28:01	BASE	10.08	126	11.88	128	2.5	81	-0.4	0	1	986.1	NA	0.0000	-RA	1900	2720	0	0	0
2016/11/23 02:29:01	BASE	9.06	124	11.88	128	2.7	80	-0.4	0	1	986.1	NA	0.0000	-RA	1900	2590	3510	0	0
2016/11/23 02:30:01	BASE	8.49	127	11.88	128	2.9	79	-0.5	0	1	986.0	NA	0.0000	-RA	2000	3380	0	0	0
2016/11/23 02:31:01	BASE	7.17	123	11.88	128	3.0	78	-0.5	0	0	986.2	NA	0.0000	-RA	1900	2720	3510	0	0
2016/11/23 02:32:01	BASE	5.75	117	11.88	128	3.0	77	-0.6	0	0	986.4	NA	0.0000	-RA	2000	2820	0	0	0
2016/11/23 02:33:01	BASE	6.21	117	11.88	128	3.0	77	-0.7	0	0	986.4	NA	0.0000	-RA	2100	2760	0	0	0
2016/11/23 02:34:01	BASE	6.40	119	11.88	128	2.9	77	-0.7	0	0	986.3	NA	0.0000	-RA	2100	2660	0	0	0
2016/11/23 02:35:01	BASE	6.20	121	11.88	128	2.9	77	-0.8	0	0	986.2	NA	0.0000	-RA	2100	2620	0	0	0
2016/11/23 02:36:01	BASE	5.69	129	11.88	128	2.7	77	-0.8	0	0	986.1	NA	0.0000	-RA	2100	2530	3410	0	0
2016/11/23 02:37:01	BASE	5.80	135	11.47	105	2.6	78	-0.9	0	0	985.9	NA	0.0000	-RA	2100	2720	3450	0	0
2016/11/23 02:38:01	BASE	7.04	133	11.27	133	2.4	79	-0.9	0	0	985.6	NA	0.0000	-RA	2100	2660	3480	0	0
2016/11/23 02:39:01	BASE	7.93	134	11.27	133	2.3	80	-0.8	0	0	985.5	NA	0.0000	-RA	2000	2460	0	0	0
2016/11/23 02:40:01	BASE	7.54	134	8.90	127	2.2	81	-0.8	0	0	985.4	NA	0.0000	-RA	2100	2790	0	0	0
2016/11/23 02:41:01	BASE	6.96	131	8.90	127	2.1	81	-0.8	0	0	985.4	NA	0.0000	-RA	2200	2460	0	0	0
2016/11/23 02:42:01	BASE	6.88	127	8.90	127	2.0	82	-0.7	0	0	985.6	NA	0.0000	-RA	2100	2430	0	0	0
2016/11/23 02:43:01	BASE	6.06	125	8.90	127	2.0	82	-0.7	0	0	985.7	NA	0.0000	-RA	2200	2460	3220	0	0
2016/11/23 02:44:01	BASE	4.32	122	8.90	127	2.0	82	-0.7	0	0	986.0	NA	0.0000	-RA	2200	2660	0	0	0
2016/11/23 02:45:01	BASE	3.27	119	8.90	127	2.0	82	-0.8	0	0	986.0	NA	0.0000	-RA	2200	2720	3480	0	0
2016/11/23 02:46:01	BASE	3.99	123	8.90	127	2.0	82	-0.7	0	0	985.9	NA	0.0000	-RA	2200	2820	0	0	0
2016/11/23 02:47:01	BASE	5.14	134	8.90	127	2.0	82	-0.7	0	0	985.6	NA	0.0000	-RA	2200	3020	0	0	0
2016/11/23 02:48:01	BASE	5.85	155	8.54	137	2.0	82	-0.7	0	0	985.2	NA	0.0000	-RA	2200	3280	0	0	0
2016/11/23 02:49:01	BASE	5.96	179	8.08	133	2.0	82	-0.8	0	0	985.2	NA	0.0000	-RA	2200	2920	0	0	0
2016/11/23 02:50:01	BASE	5.27	180	7.77	116	1.9	82	-0.8	0	0	985.2	NA	0.0000	-RA	2600	430	0	0	0
2016/11/23 02:51:01	BASE	4.50	152	7.46	123	2.0	82	-0.7	0	0	985.4	NA	0.0000	-RA	2200	390	0	0	0
2016/11/23 02:52:01	BASE	3.33	132	6.94	161	2.1	82	-0.7	0	0	985.4	NA	0.0000	-RA	1800	2760	0	0	0
2016/11/23 02:53:01	BASE	2.57	125	6.94	161	2.1	82	-0.7	0	0	985.3	NA	0.0000	-RA	1800	2920	0	0	0
2016/11/23 02:54:01	BASE	3.37	116	6.94	161	2.2	81	-0.7	0	0	985.2	NA	0.0000	-RA	1800	2460	0	0	0
2016/11/23 02:55:01	BASE	4.11	114	6.94	161	2.3	81	-0.7	0	0	985.2	NA	0.0000	-RA	1800	2660	3350	0	0
2016/11/23 02:56:01	BASE	3.40	120	6.94	161	2.3	81	-0.7	0	0	985.3	NA	0.0000	-RA	1800	2720	0	0	0
2016/11/23 02:57:01	BASE	2.50	122	6.94	161	2.1	81	-0.8	0	0	985.4	NA	0.0000	-RA	1800	2460	0	0	0
2016/11/23 02:58:01	BASE	2.90	116	6.17	188	2.1	82	-0.7	0	0	985.2	NA	0.0000	-RA	1800	1250	0	0	0
2016/11/23 02:59:01	BASE	3.63	117	5.56	179	2.2	81	-0.7	0	0	985.1	NA	0.0000	-RA	1800	390	3350	0	0
2016/11/23 03:00:01	BASE	3.33	130	5.14	131	2.4	80	-0.7	0	0	984.9	NA	0.0000	-RA	1800	3080	0	0	0
2016/11/23 03:01:01	BASE	2.66	141	4.53	119	2.5	80	-0.6	0	0	984.9	NA	0.0000	-RA	1800	460	0	0	0
2016/11/23 03:02:01	BASE	2.36	97	4.53	38	2.6	80	-0.6	0	0	985.0	NA	0.0000	-RA	1800	2820	0	0	0
2016/11/23 03:03:01	BASE	3.44	34	4.94	35	2.7	79	-0.6	0	0	985.1	NA	0.0000	-RA	1800	2790	0	0	0
2016/11/23 03:04:01	BASE	3.99	28	4.94	35	2.6	80	-0.6	0	0	985.0	NA	0.0000	-RA	1800	2200	0	0	0
2016/11/23 03:05:01	BASE	2.57	57	4.94	35	2.5	80	-0.5	0	0	984.8	NA	0.0000	-RA	1800	3310	0	0	0
2016/11/23 03:06:01	BASE	1.53	109	4.94	35	2.7	80	-0.4	0	0	984.8	NA	0.0000	-RA	1800	2620	3150	0	0
2016/11/23 03:07:01	BASE	2.54	72	5.14	30	2.7	79	-0.5	0	0	984.9	NA	0.0000	-RA	1800	430	0	0	0
2016/11/23 03:08:01	BASE	3.47	26	5.14	30	2.8	79	-0.6	0	0	985.0	NA	0.0000	-RA	1800	2690	0	0	0
2016/11/23 03:09:01	BASE	3.41	6	5.14	30	2.8	78	-0.6	0	0	985.0	NA	0.0000	HZ	1800	2990	0	0	0
2016/11/23 03:10:01	BASE	2.96	358	5.14	30	2.8	78	-0.6	0	0	984.8	NA	0.0000	HZ	1800	2170	0	0	0
2016/11/23 03:11:01	BASE	2.43	353	5.14	30	2.6	79	-0.8	0	0	984.7	NA	0.0000	HZ	1800	430	0	0	0
2016/11/23 03:12:01	BASE	3.43	349	5.14	30	2.4	80	-0.8	0	0	984.7	NA	0.0000	-RA	1900	430	3150	0	0
2016/11/23 03:13:01	BASE	4.87	345	6.02	349	2.3	80	-0.7	0	0	984.7	NA	0.0000	-RA	5000	430	0	0	0
2016/11/23 03:14:01	BASE	5.13	345	6.02	349	2.4	80	-0.7	0	0	984.8	NA	0.0000	-RA	6000	390	0	0	0
2016/11/23 03:15:01	BASE	4.60	354	6.02	349	2.4	80	-0.6	0	0	984.9	NA	0.0000	-RA	6000	390	1440	0	0
2016/11/23 03:16:01	BASE	4.07	10	6.02	349	2.5	80	-0.5	0	0	984.9	NA	0.0000	-RA	6000	360	3250	0	0
2016/11/23 03:17:01	BASE	3.97	17	6.02	349	2.6	81	-0.4	0	0	984.9	NA	0.0000	-RA	6000	360	0	0	0
2016/11/23 03:18:01	BASE	4.51	5	6.02	349	2.7	80	-0.4	0	0	985.0	NA	0.0000	-RA	7000	360	0	0	0
2016/11/23 03:19:01	BASE	4.31	345	6.02	349	2.7	80	-0.3	0	0	985.1	NA	0.0000	-RA	8000	360	0	0	0
2016/11/23 03:20:01	BASE	3.70	312	6.02	349	2.7	80	-0.4	0	0	985.0	NA	0.0000	-RA	8000	360	3310	0	0
2016/11/23 03:21:01	BASE	3.77	284	6.02	349	2.8	80	-0.3	0	0	984.7	NA	0.2540	-RA	8000	390	3080	0	0
2016/11/23 03:22:01	BASE	4.11	291	6.02	349	2.9	79	-0.3	0	0	984.6	NA	0.0000	-RA	9000	390	0	0	0
2016/11/23 03:23:01	BASE	4.12	339	5.97	276	3.1	79	-0.3	0	0	984.7	NA	0.0000	-RA	9000	430	0	0	0
2016/11/23 03:24:01	BASE	3.06	38	5.97	276	3.2	78	-0.3	0	0	984.7	NA	0.0000	-RA	9000	2260	0	0	0
2016/11/23 03:25:01	BASE	2.17	87	5.97	276	3.2	78	-0.3	0	0	984.7	NA	0.0000	-RA	8000	430	0	0	0
2016/11/23 03:26:01	BASE	1.04	130	5.97	276	3.3	77	-0.3	0	0	984.7	NA	0.0000	-RA	5000	360	0	0	0
2016/11/23 03:27:00	BASE	0.04	202	5.97	276	3.3	77	-0.4	0	0	984.7	NA	0.0000	-RA	5000	360	0	0	0
2016/11/23 03:28:00	BASE	0.04	311	5.97	276	3.3	77	-0.3	0	0	984.7	NA	0.0000	-RA	5000	360	0	0	0
2016/11/23 03:29:00	BASE	0.00	23	5.97	276	3.3	77	-0.3	0	0	984.7	NA	0.0000	-RA	5000	390	2430	0	0
2016/11/23 03:30:00	BASE	0.92	118	5.97	276	3.3	77	-0.3	0	0	984.7	NA	0.0000	-RA	7000	390	0	0	0
2016/11/23 03:31:00	BASE	1.93	145	5.97	276	3.2	78	-0.3	0	0	984.6	NA	0.0000	-RA	6000	360	2460	0	0
2016/11/23 03:32:00	BASE	2.09	143	4.99	29	3.1	79	-0.3	0	0	984.5	NA	0.0000	-RA	4600	390	0	0	0
2016/11/23 03:33:00	BASE	1.99	134	3.04	24	2.8	80	-0.2	0	0	984.5	NA	0.2540	-RA	3700	390	0	0	0
2016/11/23 03:34:00	BASE	1.69	112	2.68	107	2.6	82	-0.2	0	0	984.5	NA	0.0000	-RA	3700	390	0	0	0
2016/11/23 03:35:00	BASE	1.82	95	2.52	110	2.5	83	-0.1	0	0	984.6	NA	0.0000	-RA	3700	390	0	0	0
2016/11/23 03:36:00	BASE	2.18	86	2.52	110	2.5	84	0.1	0	0	984.6	NA	0.0000	-RA	3700	430	0	0	0
2016/11/23 03:37:00	BASE	2.31	89	2.62	115	2.6	84	0.2	0	0	984.5	NA	0.0000	-RA	3700	430	0	0	0
2016/11/23 03:38:00	BASE	2.49	113	3.04	121	2.7	84	0.3	0	0	984.4	NA	0.0000	-RA	3700	390	2590	0	0
2016/11/23 03:39:00	BASE	2.59	139	3.04	163	2.9	83	0.3	0	0	984.3	NA	0.0000	-RA	3700	360	0	0	0
2016/11/23 03:40:00	BASE	2.84	145	3.81	135	3.0	83	0.3	0	0	984.3	NA	0.0000	-RA	3700	390	0	0	0
2016/11/23 03:41:00	BASE	2.84	150	3.81	135	3.1	82	0.3	0	0	984.4	NA	0.0000	-RA	3600	390	0	0	0
2016/11/23 03:42:00	BASE	2.29	179	3.81	135	3.0	82	0.2	0	0	984.5	NA	0.0000	-RA	3600	390	0	0	0
2016/11/23 03:43:00	BASE	1.88	173	3.81	135	2.9	82	0.2	0	0	984.5	NA	0.0000	-RA	3600	460	0	0	0
2016/11/23 03:44:00	BASE	2.15	140	3.81	135	2.8	83	0.2	0	0	984.5	NA	0.0000	-RA	3600	430	0	0	0
2016/11/23 03:45:00	BASE	2.33	136	3.81	135	2.6	85	0.3	0	0	984.3	NA	0.0000	-RA	3600	430	0	0	0
2016/11/23 03:46:00	BASE	2.69	139	4.12	151	2.5	86	0.3	0	0	984.2	NA	0.0000	-RA BR	3600	390	0	0	0
2016/11/23 03:47:00	BASE	3.31	134	4.17	145	2.4	86	0.4	0	0	984.1	NA	0.2540	-RA BR	3600	390	0	0	0
2016/11/23 03:48:00	BASE	2.79	107	4.17	145	2.4	87	0.5	0	0	984.1	NA	0.0000	-RA BR	3600	430	0	0	0
2016/11/23 03:49:00	BASE	1.57	72	4.17	145	2.5	87	0.6	0	0	984.1	NA	0.0000	-RA BR	3600	430	0	0	0
2016/11/23 03:50:00	BASE	1.54	53	4.17	145	2.6	87	0.6	0	0	984.1	NA	0.0000	BR	3600	390	0	0	0
2016/11/23 03:51:00	BASE	2.98	60	4.22	65	2.7	86	0.6	0	0	984.1	NA	0.0000	BR	3600	390	0	0	0
2016/11/23 03:52:00	BASE	4.05	83	6.02	86	2.8	85	0.6	0	0	983.9	NA	0.0000	-RA	3600	390	0	0	0
2016/11/23 03:53:00	BASE	5.01	95	6.48	93	2.9	84	0.5	0	0	983.7	NA	0.0000	-RA	3400	430	0	0	0
2016/11/23 03:54:00	BASE	4.93	107	6.48	93	2.9	83	0.3	0	0	983.7	NA	0.0000	-RA	2500	430	0	0	0
2016/11/23 03:55:00	BASE	3.95	115	6.48	93	2.9	82	0.2	0	0	983.6	NA	0.0000	-RA	2100	430	3250	0	0
2016/11/23 03:56:00	BASE	5.39	107	7.72	100	2.9	82	0.1	0	0	983.5	NA	0.0000	-RA	2100	430	0	0	0
2016/11/23 03:57:00	BASE	7.55	101	9.00	96	2.9	82	0.1	0	0	983.4	NA	0.0000	-RA	1800	430	0	0	0
2016/11/23 03:58:00	BASE	7.53	107	9.00	96	2.9	82	0.1	0	0	983.3	NA	0.0000	-RA	1600	430	0	0	0
2016/11/23 03:59:00	BASE	6.51	114	9.00	96	3.0	82	0.1	0	0	983.2	NA	0.0000	-RA	1500	430	3410	0	0
2016/11/23 04:00:00	BASE	5.94	114	9.00	96	3.0	82	0.2	0	0	983.3	NA	0.0000	-RA	1500	430	0	0	0
2016/11/23 04:01:00	BASE	6.33	106	9.00	96	3.0	82	0.2	0	0	983.3	NA	0.0000	-RA	1400	430	0	0	0
2016/11/23 04:02:00	BASE	6.42	99	9.00	96	3.0	82	0.2	0	0	983.4	NA	0.0000	-RA	1400	390	2400	0	0
2016/11/23 04:03:00	BASE	5.40	90	9.00	96	3.0	82	0.1	0	0	983.5	NA	0.0000	-RA	1500	430	0	0	0
2016/11/23 04:04:00	BASE	4.39	82	9.00	96	2.9	82	0.1	0	0	983.5	NA	0.2540	-RA	1500	390	0	0	0
2016/11/23 04:05:00	BASE	4.22	93	9.00	96	2.7	83	0.1	0	0	983.3	NA	0.0000	-RA	1500	390	0	0	0
2016/11/23 04:06:00	BASE	6.16	107	9.88	117	2.6	83	0.1	0	0	983.1	NA	0.0000	-RA	1500	430	0	0	0
2016/11/23 04:07:00	BASE	8.47	120	9.93	136	2.5	84	0.0	0	0	982.8	NA	0.0000	-RA	1500	3020	0	0	0
2016/11/23 04:08:00	BASE	8.13	127	9.93	136	2.5	84	0.0	0	0	982.8	NA	0.0000	-RA	1600	3120	0	0	0
2016/11/23 04:09:00	BASE	7.46	116	9.93	136	2.5	84	0.1	0	0	983.0	NA	0.0000	-RA	1500	460	0	0	0
2016/11/23 04:10:00	BASE	7.79	110	9.93	136	2.5	84	0.1	0	0	983.1	NA	0.0000	-RA	1500	2260	0	0	0
2016/11/23 04:11:00	BASE	7.61	112	9.93	136	2.5	84	0.1	0	0	983.1	NA	0.0000	-RA	1500	2590	3250	0	0
2016/11/23 04:12:00	BASE	7.22	112	9.93	136	2.6	84	0.1	0	0	983.0	NA	0.0000	-RA	1500	2990	0	0	0
2016/11/23 04:13:00	BASE	7.74	109	10.24	99	2.6	84	0.1	0	0	983.0	NA	0.0000	-RA	1500	2260	3220	0	0
2016/11/23 04:14:00	BASE	9.03	105	10.29	98	2.6	83	0.1	0	0	982.9	NA	0.0000	-RA	1500	430	0	0	0
2016/11/23 04:15:00	BASE	9.53	108	10.29	98	2.6	83	0.0	0	0	982.8	NA	0.0000	-RA	1500	3080	0	0	0
2016/11/23 04:16:00	BASE	9.56	113	10.34	112	2.6	83	-0.0	0	0	982.9	NA	0.0000	-RA	1500	2490	3080	0	0
2016/11/23 04:17:00	BASE	9.45	115	10.34	112	2.6	83	-0.0	0	0	982.9	NA	0.0000	-RA	1400	430	0	0	0
2016/11/23 04:18:00	BASE	8.39	120	10.34	112	2.6	83	-0.0	0	0	982.9	NA	0.0000	-RA	1400	2920	0	0	0
2016/11/23 04:19:00	BASE	8.02	120	10.34	112	2.6	83	-0.0	0	0	982.9	NA	0.0000	RA	1400	3150	0	0	0
2016/11/23 04:20:00	BASE	8.40	117	10.34	112	2.6	83	-0.0	0	0	982.9	NA	0.0000	RA	1300	3120	0	0	0
2016/11/23 04:21:00	BASE	8.47	120	10.34	112	2.6	83	-0.0	0	0	982.7	NA	0.0000	RA	1400	3150	0	0	0
2016/11/23 04:22:00	BASE	9.00	128	10.34	112	2.5	83	-0.1	0	0	982.4	NA	0.0000	RA	1500	3150	0	0	0
2016/11/23 04:23:00	BASE	9.14	131	10.34	112	2.4	84	-0.1	0	0	982.4	NA	0.0000	-RA	1500	3180	0	0	0
2016/11/23 04:24:00	BASE	8.57	127	10.34	112	2.3	84	-0.1	0	0	982.5	NA	0.2540	-RA	1500	3220	0	0	0
2016/11/23 04:25:00	BASE	8.15	126	10.34	112	2.3	85	-0.1	0	0	982.4	NA	0.0000	-RA	1500	3150	0	0	0
2016/11/23 04:26:00	BASE	7.61	124	10.19	131	2.2	85	-0.0	0	0	982.6	NA	0.0000	-RA	1500	3080	0	0	0
2016/11/23 04:27:00	BASE	6.42	114	10.19	131	2.2	85	0.0	0	0	982.7	NA	0.0000	-RA	1500	3050	0	0	0
2016/11/23 04:28:00	BASE	6.20	104	10.19	131	2.3	85	0.1	0	0	982.8	NA	0.0000	-RA	1500	3080	0	0	0
2016/11/23 04:29:00	BASE	6.97	101	10.19	131	2.4	84	0.1	0	0	982.8	NA	0.0000	-RA	1500	2990	0	0	0
2016/11/23 04:30:00	BASE	7.18	101	10.19	131	2.5	84	0.1	0	0	982.6	NA	0.0000	-RA	1500	430	0	0	0
2016/11/23 04:31:00	BASE	7.86	108	10.19	131	2.6	83	0.0	0	0	982.4	NA	0.0000	-RA	1500	430	0	0	0
2016/11/23 04:32:00	BASE	8.29	115	9.93	120	2.7	83	0.1	0	0	982.3	NA	0.0000	-RA	1500	3450	0	0	0
2016/11/23 04:33:00	BASE	8.05	120	9.93	120	2.8	82	0.0	0	0	982.1	NA	0.0000	-RA	1500	3380	0	0	0
2016/11/23 04:34:00	BASE	8.51	129	10.19	134	2.8	82	-0.0	0	0	981.9	NA	0.0000	-RA	1500	3310	0	0	0
2016/11/23 04:35:00	BASE	8.53	126	10.19	134	2.7	82	-0.1	0	0	982.1	NA	0.0000	-RA	1500	2400	3350	0	0
2016/11/23 04:36:00	BASE	7.95	119	10.19	134	2.7	82	-0.0	0	0	982.3	NA	0.0000	-RA	1500	2590	0	0	0
2016/11/23 04:37:00	BASE	7.79	123	10.19	134	2.6	82	-0.1	0	0	982.1	NA	0.0000	HZ	1500	3150	0	0	0
2016/11/23 04:38:00	BASE	8.27	133	10.19	134	2.6	83	-0.1	0	0	981.7	NA	0.0000	HZ	1500	3410	0	0	0
2016/11/23 04:39:00	BASE	9.69	140	11.16	146	2.5	83	-0.0	0	0	981.2	NA	0.0000	HZ	1500	3220	0	0	0
2016/11/23 04:40:00	BASE	9.72	142	11.16	146	2.5	84	-0.0	0	0	981.6	NA	0.0000	HZ	1500	2490	3050	0	0
2016/11/23 04:41:00	BASE	7.64	130	11.16	146	2.5	84	-0.0	0	0	982.1	NA	0.0000	HZ	1500	2430	0	0	0
2016/11/23 04:42:00	BASE	7.14	113	11.16	146	2.5	84	0.0	0	0	982.2	NA	0.0000	HZ	1500	2590	3280	0	0
2016/11/23 04:43:00	BASE	7.60	107	11.16	146	2.5	84	0.1	0	0	982.2	NA	0.0000	HZ	1500	2530	3150	0	0
2016/11/23 04:44:00	BASE	7.81	116	11.16	146	2.6	84	0.1	0	0	982.1	NA	0.0000	HZ	1500	2300	0	0	0
2016/11/23 04:45:00	BASE	8.03	128	11.16	146	2.6	84	0.2	0	0	982.5	NA	0.0000	HZ	1500	2300	0	0	0
2016/11/23 04:46:00	BASE	7.32	129	11.16	146	2.7	84	0.2	0	0	982.8	NA	0.0000	HZ	1500	2130	0	0	0
2016/11/23 04:47:00	BASE	6.67	130	11.16	146	2.7	84	0.2	0	0	982.9	NA	0.0000	HZ	1500	2100	0	0	0
2016/11/23 04:48:00	BASE	6.39	113	11.16	146	2.8	84	0.3	0	0	982.8	NA	0.0000	HZ	1500	2130	0	0	0
2016/11/23 04:49:00	BASE	6.53	77	10.91	137	3.1	83	0.5	0	0	982.9	NA	0.0000	HZ	1500	2230	0	0	0
2016/11/23 04:50:00	BASE	6.44	73	9.98	75	3.5	82	0.7	0	0	983.1	NA	0.0000	HZ	1500	2170	0	0	0
2016/11/23 04:51:00	BASE	4.75	83	9.98	75	4.0	81	1.0	0	0	983.4	NA	0.0000	HZ	1500	2200	0	0	0
2016/11/23 04:52:00	BASE	3.50	130	9.98	75	4.6	79	1.1	0	0	983.2	NA	0.0000	HZ	1500	2230	3050	0	0
2016/11/23 04:53:00	BASE	4.11	185	9.98	75	5.0	76	1.2	0	0	982.9	NA	0.0000	-RA	1500	2070	0	0	0
2016/11/23 04:54:00	BASE	5.00	182	9.98	75	5.3	75	1.1	0	0	982.8	NA	0.0000	-RA	1500	2330	0	0	0
2016/11/23 04:55:00	BASE	5.02	188	9.98	75	5.4	74	1.1	0	0	982.9	NA	0.0000	-RA	4300	2360	0	0	0
2016/11/23 04:56:00	BASE	3.47	221	9.98	75	5.4	73	1.0	0	0	982.9	NA	0.0000	-RA	5000	2230	0	0	0
2016/11/23 04:57:00	BASE	2.44	288	9.98	75	5.4	73	1.0	0	0	982.9	NA	0.0000	-RA	7000	2300	2950	0	0
2016/11/23 04:58:00	BASE	3.12	267	9.98	75	5.3	73	0.9	0	0	982.8	NA	0.0000	-RA	9000	2300	0	0	0
2016/11/23 04:59:00	BASE	3.69	213	9.21	92	5.2	73	0.9	0	0	982.7	NA	0.0000	-RA	9999	1020	0	0	0
2016/11/23 05:00:00	BASE	2.37	223	6.58	186	5.0	74	0.8	0	0	983.0	NA	0.0000	-RA	9999	2330	0	0	0
2016/11/23 05:01:00	BASE	2.54	317	6.58	186	4.8	75	0.7	0	0	983.1	NA	0.0000	-RA	9999	1250	0	0	0
2016/11/23 05:02:00	BASE	3.82	7	6.58	186	4.5	76	0.6	0	0	983.0	NA	0.0000	-RA	9999	2200	0	0	0
2016/11/23 05:03:00	BASE	2.84	27	6.53	189	4.2	77	0.6	0	0	983.0	NA	0.0000	HZ	9999	2200	2820	0	0
2016/11/23 05:04:00	BASE	2.66	61	6.28	203	4.0	78	0.6	0	0	983.0	NA	0.0000	HZ	9999	2330	0	0	0
2016/11/23 05:05:00	BASE	3.83	93	6.38	97	3.9	79	0.5	0	0	982.9	NA	0.0000		9999	2260	0	0	0
2016/11/23 05:06:00	BASE	5.92	110	8.39	120	3.8	79	0.6	0	0	982.8	NA	0.0000		9999	2300	0	0	0
2016/11/23 05:07:00	BASE	6.76	118	8.39	120	3.8	79	0.6	0	0	982.9	NA	0.0000		9999	2330	0	0	0
2016/11/23 05:08:00	BASE	5.56	84	8.39	120	3.9	79	0.6	0	0	983.2	NA	0.0000		9999	2300	0	0	0
2016/11/23 05:09:00	BASE	4.24	76	8.39	120	4.0	79	0.7	0	0	983.3	NA	0.0000		9999	3380	0	0	0
2016/11/23 05:10:00	BASE	4.47	112	8.39	120	4.1	79	0.7	0	0	983.0	NA	0.0000		9999	2260	3150	0	0
2016/11/23 05:11:00	BASE	4.93	117	8.39	120	4.2	78	0.7	0	0	983.2	NA	0.0000	-RA	9999	2300	0	0	0
2016/11/23 05:12:00	BASE	2.88	97	8.39	120	4.4	78	0.8	0	0	983.3	NA	0.0000	-RA	4700	3480	0	0	0
2016/11/23 05:13:00	BASE	2.74	88	8.39	120	4.5	77	0.8	0	0	983.2	NA	0.0000	-RA	4700	3450	0	0	0
2016/11/23 05:14:00	BASE	3.64	101	8.39	120	4.6	76	0.7	0	0	983.1	NA	0.0000	-RA	4700	3120	3840	0	0
2016/11/23 05:15:00	BASE	3.07	134	8.39	120	4.7	76	0.7	0	0	982.9	NA	0.0000	-RA	4800	3410	0	0	0
2016/11/23 05:16:00	BASE	3.27	185	7.72	125	4.8	75	0.7	0	0	982.8	NA	0.0000	-RA	3600	2620	3580	0	0
2016/11/23 05:17:00	BASE	4.38	191	7.31	177	4.8	74	0.6	0	0	982.6	NA	0.0000	-RA	3500	2460	3480	0	0
2016/11/23 05:18:00	BASE	5.58	177	7.31	177	4.9	74	0.6	0	0	982.6	NA	0.0000	-RA	3000	2620	3510	0	0
2016/11/23 05:19:00	BASE	5.25	168	7.31	177	4.8	74	0.6	0	0	982.8	NA	0.0000	-RA	2500	2400	0	0	0
2016/11/23 05:20:00	BASE	3.60	169	7.31	177	4.8	74	0.5	0	0	983.0	NA	0.0000	-RA	2800	2330	3710	0	0
2016/11/23 05:21:00	BASE	2.39	184	7.31	177	4.8	74	0.5	0	0	983.1	NA	0.0000	-RA	3000	3480	0	0	0
2016/11/23 05:22:00	BASE	1.92	225	7.31	177	4.8	74	0.5	0	0	983.1	NA	0.0000	-RA	3300	3670	0	0	0
2016/11/23 05:23:00	BASE	2.36	246	7.31	177	4.7	74	0.5	0	0	983.1	NA	0.0000	-RA	3300	3580	0	0	0
2016/11/23 05:24:00	BASE	3.80	226	7.31	177	4.7	74	0.5	0	0	982.9	NA	0.0000	-RA	3400	3540	0	0	0
2016/11/23 05:25:00	BASE	3.49	183	7.31	177	4.6	75	0.5	0	0	983.3	NA	0.0000	-RA	5000	3540	0	0	0
2016/11/23 05:26:00	BASE	3.24	85	7.31	177	4.5	75	0.5	0	0	983.3	NA	0.0000	-RA	5000	3710	0	0	0
2016/11/23 05:27:00	BASE	4.32	36	6.69	173	4.4	76	0.5	0	0	983.2	NA	0.0000	-RA	6000	3540	0	0	0
2016/11/23 05:28:00	BASE	3.96	329	6.48	18	4.3	77	0.6	0	0	983.0	NA	0.0000	-RA	7000	3410	0	0	0
2016/11/23 05:29:00	BASE	3.68	250	6.48	18	4.4	76	0.6	0	1	983.1	NA	0.0000	-RA	8000	2790	3670	0	0
2016/11/23 05:30:00	BASE	5.20	142	7.41	107	4.5	76	0.6	0	1	983.3	NA	0.0000	HZ	8000	2300	3540	0	0
2016/11/23 05:31:00	BASE	6.70	111	7.61	109	4.4	76	0.4	0	1	983.3	NA	0.0000	HZ	8000	3480	0	0	0
2016/11/23 05:32:00	BASE	6.37	113	7.61	109	4.3	76	0.4	0	0	983.3	NA	0.0000	HZ	8000	3480	0	0	0
2016/11/23 05:33:00	BASE	6.01	108	7.61	109	4.1	76	0.3	0	1	983.4	NA	0.0000	HZ	9000	3350	0	0	0
2016/11/23 05:34:00	BASE	6.53	108	8.54	117	3.8	77	0.2	0	1	983.3	NA	0.0000	HZ	9999	3180	0	0	0
2016/11/23 05:35:00	BASE	7.19	110	9.05	119	3.6	78	0.1	0	1	983.2	NA	0.0000	HZ	9999	3220	0	0	0
2016/11/23 05:36:00	BASE	6.58	104	9.05	119	3.5	79	0.1	0	1	983.3	NA	0.0000	HZ	9999	3250	0	0	0
2016/11/23 05:37:00	BASE	6.83	105	9.11	104	3.5	78	0.1	0	1	983.2	NA	0.0000	HZ	9999	3480	0	0	0
2016/11/23 05:38:00	BASE	7.97	111	9.11	104	3.4	78	-0.0	0	1	983.3	NA	0.0000	HZ	9999	3410	0	0	0
2016/11/23 05:39:00	BASE	8.40	115	9.57	120	3.3	78	-0.1	0	1	983.2	NA	0.0000		9999	3450	0	0	0
2016/11/23 05:40:00	BASE	9.11	121	10.19	124	3.2	78	-0.2	0	1	983.0	NA	0.0000		9999	3280	0	0	0
2016/11/23 05:41:00	BASE	9.19	121	10.85	119	3.0	79	-0.3	0	1	983.1	NA	0.0000		9999	3480	0	0	0
2016/11/23 05:42:00	BASE	8.59	110	10.85	119	2.8	80	-0.3	0	1	983.3	NA	0.0000		9999	3380	0	0	0
2016/11/23 05:43:00	BASE	7.53	105	10.85	119	2.7	80	-0.3	0	1	983.3	NA	0.0000		9999	3450	0	0	0
2016/11/23 05:44:00	BASE	8.33	109	10.91	104	2.7	81	-0.3	0	1	983.0	NA	0.0000		9999	3380	0	0	0
2016/11/23 05:45:00	BASE	9.45	110	10.91	104	2.7	81	-0.2	0	1	982.9	NA	0.0000		9999	3280	0	0	0
2016/11/23 05:46:00	BASE	9.36	105	10.91	104	2.7	81	-0.3	0	1	983.1	NA	0.0000		9999	3280	0	0	0
2016/11/23 05:47:00	BASE	9.75	99	11.42	90	2.7	81	-0.2	0	1	983.0	NA	0.0000		9999	3180	0	0	0
2016/11/23 05:48:00	BASE	9.02	101	11.42	90	2.9	81	-0.1	0	1	983.0	NA	0.0000		9999	3180	0	0	0
2016/11/23 05:49:00	BASE	6.30	107	11.42	90	3.1	80	-0.0	0	1	982.9	NA	0.0000		9999	3250	0	0	0
2016/11/23 05:50:02	BASE	M	M	11.42	90	3.2	80	-0.0	0	1	M	NA	0.0000		M	3250	0	0	0
2016/11/23 05:51:00	BASE	M	M	11.42	90	3.5	78	0.0	0	1	982.8	NA	0.0000		9999	3280	0	0	0
2016/11/23 05:52:00	BASE	7.88	117	11.42	90	3.7	77	-0.0	0	1	982.6	NA	0.0000		9999	3310	0	0	0
2016/11/23 05:53:00	BASE	8.23	114	11.42	90	3.7	76	-0.2	0	1	982.9	NA	0.0000		9999	3380	0	0	0
2016/11/23 05:54:00	BASE	6.88	103	11.42	90	3.5	76	-0.4	0	1	983.1	NA	0.0000		9999	3250	0	0	0
2016/11/23 05:55:00	BASE	5.57	105	11.42	90	3.4	77	-0.4	0	1	982.9	NA	0.0000		9999	3280	3810	0	0
2016/11/23 05:57:01	BASE	M	M	11.42	90	3.2	77	-0.4	0	1	M	NA	0.0000		M	3280	3810	0	0
2016/11/23 05:58:00	BASE	M	M	M	M	3.2	77	-0.4	M	M	M	NA	0.0000		M	M	M	M	M
2016/11/23 05:59:00	BASE	M	M	M	M	3.2	77	-0.4	0	1	982.5	NA	0.0000		9999	3280	0	0	0
2016/11/23 06:00:00	BASE	7.14	101	M	M	3.2	77	-0.4	0	1	982.5	NA	0.0000		9999	3250	0	0	0
2016/11/23 06:01:00	BASE	7.45	80	9.52	121	3.2	77	-0.4	0	1	982.6	NA	0.0000		9999	3410	0	0	0
2016/11/23 06:02:00	BASE	6.50	64	9.52	121	3.7	77	0.0	0	1	982.6	NA	0.0000		9999	3280	0	0	0
2016/11/23 06:03:00	BASE	6.27	67	9.36	88	3.8	76	0.1	0	1	982.6	NA	0.0000		9999	3250	0	0	0
2016/11/23 06:04:00	BASE	7.38	91	9.36	88	4.0	75	0.1	0	1	982.4	NA	0.0000		9999	3280	0	0	0
2016/11/23 06:05:00	BASE	8.31	110	9.47	108	4.2	74	0.1	0	2	982.5	NA	0.0000		9999	3220	0	0	0
2016/11/23 06:06:00	BASE	6.80	105	9.47	108	4.2	74	-0.1	0	2	982.8	NA	0.0000		9999	3350	0	0	0
2016/11/23 06:07:00	BASE	4.22	97	9.47	108	4.2	73	-0.2	0	2	982.9	NA	0.0000		9999	3250	0	0	0
2016/11/23 06:08:00	BASE	4.40	67	9.47	108	4.1	74	-0.2	0	2	982.9	NA	0.0000		9999	3180	0	0	0
2016/11/23 06:09:00	BASE	5.47	31	9.47	108	4.0	74	-0.1	0	2	982.9	NA	0.0000		9999	3020	0	0	0
2016/11/23 06:10:00	BASE	5.05	18	9.47	108	4.1	75	-0.0	0	2	982.7	NA	0.0000		9999	3120	0	0	0
2016/11/23 06:11:00	BASE	4.08	45	9.47	108	4.2	74	-0.0	0	2	982.7	NA	0.0000		9999	3080	0	0	0
2016/11/23 06:12:00	BASE	4.79	82	9.47	108	4.3	73	-0.0	0	2	982.7	NA	0.0000		9999	3380	0	0	0
2016/11/23 06:13:00	BASE	5.95	69	9.52	49	4.4	73	-0.1	0	2	982.8	NA	0.0000		9999	2990	0	0	0
2016/11/23 06:14:00	BASE	8.02	23	12.50	354	4.5	72	-0.1	0	3	982.6	NA	0.0000		9999	3020	0	0	0
2016/11/23 06:15:00	BASE	10.07	7	12.50	354	4.5	72	-0.1	0	3	982.5	NA	0.0000		9999	3220	0	0	0
2016/11/23 06:16:00	BASE	9.62	16	12.50	354	4.5	73	0.0	0	3	982.5	NA	0.0000		9999	3540	0	0	0
2016/11/23 06:17:00	BASE	7.20	19	12.50	354	4.6	73	0.1	1	3	982.5	NA	0.0000		9999	3640	0	0	0
2016/11/23 06:18:00	BASE	4.82	357	12.50	354	4.7	72	0.2	1	4	982.4	NA	0.0000		9999	3310	3770	0	0
2016/11/23 06:19:00	BASE	4.16	354	12.50	354	4.8	72	0.2	1	4	982.5	NA	0.0000		9999	3410	0	0	0
2016/11/23 06:20:00	BASE	6.39	14	12.50	354	4.8	72	0.2	1	4	982.4	NA	0.0000		9999	3540	0	0	0
2016/11/23 06:21:00	BASE	9.26	23	12.50	354	4.8	72	0.2	1	4	982.3	NA	0.0000		9999	3640	0	0	0
2016/11/23 06:22:00	BASE	9.47	29	12.50	354	4.7	72	0.2	1	5	982.3	NA	0.0000	-RA	9999	3870	0	0	0
2016/11/23 06:23:00	BASE	10.18	26	13.02	20	4.6	73	0.2	1	5	982.3	NA	0.0000	-RA	9999	3710	0	0	0
2016/11/23 06:24:00	BASE	10.61	25	13.02	20	4.5	74	0.2	1	6	982.3	NA	0.0000	-RA	9999	3710	0	0	0
2016/11/23 06:25:00	BASE	8.29	27	13.02	20	4.4	74	0.3	1	6	982.2	NA	0.0000	-RA	9999	3900	0	0	0
2016/11/23 06:26:00	BASE	6.91	24	13.02	20	4.3	75	0.3	1	7	982.2	NA	0.0000	-RA	9999	3870	0	0	0
2016/11/23 06:27:00	BASE	9.65	22	14.82	24	4.2	76	0.3	1	7	981.9	NA	0.0000	-RA	9999	3970	0	0	0
2016/11/23 06:28:00	BASE	14.04	22	17.54	22	4.1	76	0.4	1	7	981.5	NA	0.0000	-RA	9999	3770	0	0	0
2016/11/23 06:29:00	BASE	16.02	19	19.34	20	4.1	76	0.3	1	7	981.6	NA	0.0000	-RA SQ	9999	3670	0	0	0
2016/11/23 06:30:00	BASE	15.60	19	19.34	20	4.1	76	0.3	1	7	981.6	NA	0.0000	-RA	9999	3640	0	0	0
2016/11/23 06:31:00	BASE	15.08	17	19.34	20	4.0	76	0.2	1	8	981.5	NA	0.0000	-RA	9999	3940	0	0	0
2016/11/23 06:32:00	BASE	16.17	16	19.96	18	3.9	76	0.1	1	8	981.3	NA	0.0000		9999	3970	0	0	0
2016/11/23 06:33:00	BASE	16.87	16	19.96	18	3.8	76	-0.0	1	8	981.2	NA	0.0000		9999	3710	0	0	0
2016/11/23 06:34:00	BASE	16.80	13	19.96	18	3.7	76	-0.1	1	8	981.2	NA	0.0000		9999	3610	0	0	0
2016/11/23 06:35:00	BASE	15.03	7	19.96	18	3.7	76	-0.2	1	8	981.4	NA	0.0000		9999	3740	0	0	0
2016/11/23 06:36:00	BASE	13.53	10	19.96	18	3.6	76	-0.2	1	9	981.2	NA	0.0000		9999	3610	0	0	0
2016/11/23 06:37:00	BASE	17.17	16	21.97	18	3.6	76	-0.2	2	9	980.8	NA	0.0000		9999	3510	0	0	0
2016/11/23 06:38:00	BASE	18.79	16	21.97	18	3.6	76	-0.3	2	9	981.1	NA	0.0000		9999	3480	0	0	0
2016/11/23 06:39:00	BASE	15.65	14	21.97	18	3.6	76	-0.3	2	10	981.3	NA	0.0000		9999	3350	0	0	0
2016/11/23 06:40:00	BASE	14.59	14	21.97	18	3.6	76	-0.3	2	10	981.0	NA	0.0000		9999	3350	0	0	0
2016/11/23 06:41:00	BASE	16.79	19	21.97	18	3.6	75	-0.4	2	10	980.7	NA	0.0000		9999	3450	0	0	0
2016/11/23 06:42:00	BASE	17.45	22	21.97	18	3.6	75	-0.4	2	10	980.8	NA	0.0000		9999	3810	0	0	0
2016/11/23 06:43:00	BASE	17.59	22	21.97	18	3.6	75	-0.4	2	10	980.6	NA	0.0000		9999	3840	0	0	0
2016/11/23 06:44:00	BASE	18.06	20	21.97	18	3.7	75	-0.4	2	10	980.8	NA	0.0000		9999	3380	3900	0	0
2016/11/23 06:45:00	BASE	15.40	20	21.97	18	3.7	74	-0.4	2	11	981.2	NA	0.0000		9999	3900	0	0	0
2016/11/23 06:46:00	BASE	13.67	22	21.97	18	3.8	74	-0.4	2	12	980.9	NA	0.0000		9999	3670	0	0	0
2016/11/23 06:47:00	BASE	15.81	23	21.14	20	3.8	74	-0.4	2	12	980.7	NA	0.0000		9999	3640	0	0	0
2016/11/23 06:48:00	BASE	17.65	25	21.14	20	3.8	74	-0.4	2	12	980.7	NA	0.0000		9999	3510	0	0	0
2016/11/23 06:49:00	BASE	17.97	29	21.14	20	3.8	74	-0.4	2	12	980.7	NA	0.0000		9999	3670	0	0	0
2016/11/23 06:50:00	BASE	18.03	27	20.89	27	3.9	73	-0.5	2	12	980.7	NA	0.0000		9999	3480	4000	0	0
2016/11/23 06:51:00	BASE	16.45	25	20.89	27	3.9	73	-0.5	2	13	981.1	NA	0.0000		9999	3610	0	0	0
2016/11/23 06:52:00	BASE	14.06	22	20.89	27	3.9	73	-0.5	2	13	981.2	NA	0.0000		9999	3770	0	0	0
2016/11/23 06:53:00	BASE	14.81	20	20.89	27	4.0	73	-0.5	3	13	981.1	NA	0.0000		9999	3410	0	0	0
2016/11/23 06:54:00	BASE	16.31	21	20.89	27	4.0	73	-0.4	3	14	981.1	NA	0.0000		9999	3410	0	0	0
2016/11/23 06:55:00	BASE	15.47	20	20.89	27	4.1	72	-0.4	3	14	981.2	NA	0.0000		9999	3580	0	0	0
2016/11/23 06:56:00	BASE	15.27	21	20.89	27	4.1	72	-0.4	3	15	981.2	NA	0.0000		9999	3510	0	0	0
2016/11/23 06:57:00	BASE	15.26	22	20.89	27	4.1	72	-0.5	3	15	981.2	NA	0.0000		9999	3410	0	0	0
2016/11/23 06:58:00	BASE	14.32	22	20.89	27	4.1	72	-0.5	3	15	981.3	NA	0.0000		9999	3380	0	0	0
2016/11/23 06:59:00	BASE	13.58	23	19.91	15	4.1	72	-0.4	3	15	981.3	NA	0.0000		9999	3120	0	0	0
2016/11/23 07:00:00	BASE	13.42	25	19.91	15	4.1	73	-0.4	3	16	981.2	NA	0.0000		9999	3540	0	0	0
2016/11/23 07:01:00	BASE	14.24	29	19.91	15	4.1	73	-0.4	3	17	981.0	NA	0.0000		9999	3310	0	0	0
2016/11/23 07:02:00	BASE	15.87	32	19.91	15	4.1	73	-0.3	4	18	980.9	NA	0.0000		9999	3310	0	0	0
2016/11/23 07:03:00	BASE	17.11	28	21.09	24	4.1	73	-0.3	4	19	980.9	NA	0.0000		9999	3310	0	0	0
2016/11/23 07:04:00	BASE	16.20	27	21.09	24	4.0	73	-0.3	4	20	981.0	NA	0.0000		9999	3410	0	0	0
2016/11/23 07:05:00	BASE	14.27	27	21.09	24	4.0	73	-0.3	4	20	981.0	NA	0.0000		9999	3350	0	0	0
2016/11/23 07:06:00	BASE	13.42	25	21.09	24	3.9	74	-0.4	4	20	981.0	NA	0.0000		9999	3640	0	0	0
2016/11/23 07:07:00	BASE	11.69	23	21.09	24	3.9	74	-0.3	4	20	981.0	NA	0.0000		9999	3480	0	0	0
2016/11/23 07:08:00	BASE	11.28	24	21.09	24	3.9	74	-0.3	4	20	980.8	NA	0.0000		9999	3350	0	0	0
2016/11/23 07:09:00	BASE	14.19	27	21.09	24	3.9	74	-0.2	4	21	980.5	NA	0.0000		9999	3410	0	0	0
2016/11/23 07:10:00	BASE	15.99	29	21.09	24	4.0	74	-0.2	5	22	980.4	NA	0.0000		9999	3280	0	0	0
2016/11/23 07:11:00	BASE	16.82	29	21.09	24	4.0	74	-0.2	5	23	980.2	NA	0.0000		9999	3050	0	0	0
2016/11/23 07:12:00	BASE	17.75	27	21.09	24	4.0	74	-0.2	5	24	979.9	NA	0.0000		9999	3020	0	0	0
2016/11/23 07:13:00	BASE	18.97	26	21.81	26	4.1	73	-0.3	5	25	979.8	NA	0.0000		9999	3120	0	0	0
2016/11/23 07:14:00	BASE	20.12	30	22.69	29	4.1	73	-0.3	5	23	979.8	NA	0.0000		9999	3410	4100	0	0
2016/11/23 07:15:00	BASE	20.81	29	22.69	29	4.1	73	-0.3	4	21	979.8	NA	0.0000		9999	3220	3840	0	0
2016/11/23 07:16:00	BASE	19.64	24	22.69	29	4.2	73	-0.3	4	19	980.1	NA	0.0000		9999	2990	0	0	0
2016/11/23 07:17:00	BASE	17.34	22	22.69	29	4.2	72	-0.3	4	18	980.2	NA	0.0000		9999	2850	0	0	0
2016/11/23 07:18:00	BASE	16.40	21	22.69	29	4.3	72	-0.4	3	18	980.2	NA	0.0000		9999	2850	0	0	0
2016/11/23 07:19:00	BASE	16.14	22	22.69	29	4.3	72	-0.4	3	17	979.9	NA	0.0000		9999	2850	0	0	0
2016/11/23 07:20:00	BASE	16.77	25	22.69	29	4.3	72	-0.4	3	17	979.8	NA	0.0000		9999	2990	0	0	0
2016/11/23 07:21:00	BASE	18.66	25	22.69	29	4.2	72	-0.4	3	18	979.6	NA	0.0000		9999	2890	0	0	0
2016/11/23 07:22:00	BASE	19.30	23	22.69	29	4.2	72	-0.4	4	18	979.7	NA	0.0000		9999	2850	0	0	0
2016/11/23 07:23:00	BASE	17.61	22	22.69	29	4.2	72	-0.4	4	20	979.9	NA	0.0000		9999	2990	0	0	0
2016/11/23 07:24:00	BASE	16.33	18	22.64	26	4.2	72	-0.5	4	21	979.9	NA	0.0000		9999	3080	0	0	0
2016/11/23 07:25:00	BASE	15.58	16	21.40	23	4.2	71	-0.5	5	23	980.0	NA	0.0000		9999	3080	0	0	0
2016/11/23 07:26:00	BASE	13.52	14	21.40	23	4.2	71	-0.5	6	26	980.0	NA	0.0000		9999	3020	0	0	0
2016/11/23 07:27:00	BASE	13.39	14	21.40	23	4.2	71	-0.5	6	29	979.7	NA	0.0000		9999	2950	0	0	0
2016/11/23 07:28:00	BASE	16.16	20	21.40	23	4.3	71	-0.5	7	32	979.5	NA	0.0000		9999	2890	0	0	0
2016/11/23 07:29:00	BASE	17.01	25	21.40	23	4.3	71	-0.4	7	34	979.6	NA	0.0000		9999	2890	0	0	0
2016/11/23 07:30:00	BASE	16.31	25	21.40	23	4.4	71	-0.4	8	35	979.7	NA	0.0000		9999	3020	0	0	0
2016/11/23 07:31:00	BASE	15.12	22	20.99	21	4.4	71	-0.3	8	35	979.8	NA	0.0000		9999	3050	0	0	0
2016/11/23 07:32:00	BASE	13.52	21	20.68	26	4.5	71	-0.3	8	36	979.9	NA	0.0000		9999	3020	0	0	0
2016/11/23 07:33:00	BASE	12.76	23	20.68	26	4.5	71	-0.3	8	38	979.9	NA	0.0000		9999	3350	0	0	0
2016/11/23 07:34:00	BASE	13.96	25	20.68	26	4.5	71	-0.2	8	39	979.7	NA	0.0000		9999	3580	0	0	0
2016/11/23 07:35:00	BASE	15.57	24	20.68	26	4.5	72	-0.1	9	39	979.5	NA	0.0000		9999	3540	0	0	0
2016/11/23 07:36:00	BASE	15.75	24	20.68	26	4.5	72	-0.2	8	38	979.5	NA	0.0000		9999	3450	0	0	0
2016/11/23 07:37:00	BASE	16.14	25	20.68	26	4.5	72	-0.2	8	37	979.4	NA	0.0000		9999	3380	0	0	0
2016/11/23 07:38:00	BASE	15.71	25	19.14	15	4.5	72	-0.2	8	39	979.4	NA	0.0000		9999	3250	0	0	0
2016/11/23 07:39:00	BASE	15.44	26	19.14	15	4.4	72	-0.2	9	42	979.3	NA	0.0000		9999	3310	4560	0	0
2016/11/23 07:40:01	BASE	15.10	26	19.14	15	4.4	72	-0.2	10	45	979.4	NA	0.0000		9999	3280	0	0	0
2016/11/23 07:41:00	BASE	14.27	24	19.14	15	4.4	73	-0.1	10	47	979.4	NA	0.0000		9999	3280	4690	0	0
2016/11/23 07:42:00	BASE	15.29	23	19.14	15	4.4	73	-0.1	11	49	979.3	NA	0.0000		9999	4590	0	0	0
2016/11/23 07:43:00	BASE	16.05	24	19.14	15	4.4	73	-0.1	11	51	979.2	NA	0.0000		9999	4720	0	0	0
2016/11/23 07:44:00	BASE	16.97	25	19.60	20	4.3	73	-0.0	12	52	979.0	NA	0.0000		9999	3840	4490	0	0
2016/11/23 07:45:00	BASE	17.57	26	19.70	26	4.3	73	-0.0	12	53	979.0	NA	0.0000		9999	3250	3810	4430	0
2016/11/23 07:46:00	BASE	17.18	28	19.70	26	4.3	74	-0.0	12	53	978.9	NA	0.0000		9999	3280	0	0	0
2016/11/23 07:47:00	BASE	17.01	26	19.70	26	4.3	74	0.0	12	53	978.9	NA	0.0000		9999	3150	4400	0	0
2016/11/23 07:48:00	BASE	17.05	24	19.70	26	4.3	74	0.1	11	52	978.8	NA	0.0000		9999	4920	0	0	0
2016/11/23 07:49:00	BASE	16.79	23	19.70	26	4.3	74	0.1	11	50	978.8	NA	0.0000		9999	4660	0	0	0
2016/11/23 07:50:00	BASE	16.63	22	19.70	26	4.3	74	0.1	11	51	978.8	NA	0.0000		9999	4560	0	0	0
2016/11/23 07:51:00	BASE	16.95	21	19.70	26	4.3	74	0.1	11	51	978.6	NA	0.0000		9999	0	0	0	5150
2016/11/23 07:52:00	BASE	17.43	21	19.86	27	4.4	74	0.1	11	51	978.6	NA	0.0000	-RA	9999	4100	0	0	0
2016/11/23 07:53:00	BASE	16.85	24	19.86	27	4.4	74	0.2	11	50	978.7	NA	0.0000	-RA	9999	4200	0	0	0
2016/11/23 07:54:00	BASE	16.85	24	20.27	20	4.4	74	0.3	11	49	978.6	NA	0.0000	-RA	9999	3970	0	0	0
2016/11/23 07:55:00	BASE	17.36	23	20.27	20	4.5	75	0.3	11	49	978.6	NA	0.0000	-RA	9999	430	0	0	0
2016/11/23 07:56:00	BASE	16.98	22	20.27	20	4.5	75	0.4	11	49	978.6	NA	0.0000	-RA	9999	430	0	0	0
2016/11/23 07:57:00	BASE	16.88	21	20.27	20	4.5	75	0.5	10	48	978.6	NA	0.0000	-RA	9999	430	0	0	0
2016/11/23 07:58:00	BASE	16.29	20	20.27	20	4.5	75	0.5	10	48	978.7	NA	0.0000	-RA	9999	460	0	0	0
2016/11/23 07:59:00	BASE	16.16	22	20.27	20	4.5	76	0.6	10	48	978.6	NA	0.0000	-RA	9999	4040	0	0	0
2016/11/23 08:00:00	BASE	16.50	23	20.27	20	4.5	76	0.6	10	48	978.6	NA	0.0000	-RA	9999	4070	0	0	0
2016/11/23 08:01:00	BASE	16.80	24	20.27	20	4.5	76	0.6	10	48	978.6	NA	0.0000	-RA	9999	4130	0	0	0
2016/11/23 08:02:00	BASE	16.61	22	20.27	20	4.5	76	0.6	10	48	978.6	NA	0.0000	-RA	8000	0	0	0	4460
2016/11/23 08:03:00	BASE	16.64	22	20.27	20	4.5	76	0.6	10	47	978.6	NA	0.0000	-RA	9000	0	0	0	4590
2016/11/23 08:04:00	BASE	17.06	22	19.86	24	4.5	76	0.6	10	46	978.6	NA	0.0000	-RA	9000	0	0	0	4760
2016/11/23 08:05:00	BASE	16.13	20	19.55	20	4.5	76	0.6	9	44	978.6	NA	0.0000	-RA	8000	0	0	0	4820
2016/11/23 08:06:00	BASE	15.72	20	19.55	20	4.6	76	0.7	9	43	978.6	NA	0.2540	-RA	8000	0	0	0	4400
2016/11/23 08:07:00	BASE	16.30	19	19.24	14	4.6	76	0.8	9	43	978.6	NA	0.0000	-RA	4700	0	0	0	4760
2016/11/23 08:08:00	BASE	16.47	19	19.24	14	4.6	76	0.8	9	44	978.6	NA	0.0000	-RA	3500	0	0	0	4720
2016/11/23 08:09:00	BASE	15.58	19	19.24	14	4.6	76	0.8	9	45	978.7	NA	0.0000	-RA	2900	330	0	0	0
2016/11/23 08:10:00	BASE	15.12	18	19.24	14	4.6	76	0.8	10	46	978.7	NA	0.0000	-RA	2600	0	0	0	4820
2016/11/23 08:11:00	BASE	15.74	16	19.24	14	4.6	77	0.8	10	46	978.7	NA	0.2540	-RA	2400	0	0	0	4790
2016/11/23 08:12:00	BASE	15.65	16	19.24	14	4.5	77	0.8	10	46	978.7	NA	0.0000	-RA	2700	0	0	0	4360
2016/11/23 08:13:00	BASE	15.66	15	19.24	14	4.5	77	0.8	10	47	978.7	NA	0.0000	-RA	4200	0	0	0	4270
2016/11/23 08:14:00	BASE	15.79	12	18.88	20	4.5	77	0.8	10	47	978.7	NA	0.0000	HZ	2600	0	0	0	4430
2016/11/23 08:15:01	BASE	16.48	14	18.88	20	4.4	77	0.8	10	48	978.6	NA	0.0000	HZ	2600	0	0	0	4330
2016/11/23 08:16:00	BASE	16.98	13	18.67	17	4.4	78	0.8	10	49	978.6	NA	0.0000	HZ	2300	0	0	0	3940
2016/11/23 08:17:00	BASE	16.50	13	18.67	16	4.4	78	0.9	10	49	978.7	NA	0.2540	HZ	2500	0	0	0	3840
2016/11/23 08:18:00	BASE	16.40	13	18.67	16	4.4	78	0.9	11	50	978.7	NA	0.0000	HZ	2700	0	0	0	4200
2016/11/23 08:19:00	BASE	16.75	13	19.03	19	4.4	78	1.0	11	52	978.7	NA	0.0000	HZ	2300	0	0	0	4230
2016/11/23 08:20:00	BASE	16.67	12	19.03	19	4.4	79	1.0	11	54	978.7	NA	0.0000	HZ	2300	0	0	0	4300
2016/11/23 08:21:00	BASE	16.23	11	19.03	19	4.4	79	1.0	12	56	978.7	NA	0.0000	HZ	3000	0	0	0	4330
2016/11/23 08:22:00	BASE	16.12	12	19.03	19	4.3	79	1.0	12	58	978.7	NA	0.0000	HZ	2500	0	0	0	4490
2016/11/23 08:23:00	BASE	16.43	12	19.03	19	4.3	79	1.0	13	60	978.7	NA	0.2540	HZ	3400	0	0	0	5480
2016/11/23 08:24:00	BASE	16.69	12	19.03	19	4.3	79	1.0	13	61	978.6	NA	0.0000	HZ	3100	0	0	0	4720
2016/11/23 08:25:00	BASE	16.59	13	19.03	19	4.3	79	1.0	13	62	978.7	NA	0.0000	HZ	2300	0	0	0	5410
2016/11/23 08:26:00	BASE	16.49	14	19.03	19	4.3	79	1.0	13	62	978.7	NA	0.0000	HZ	6000	0	0	0	5350
2016/11/23 08:27:00	BASE	16.62	14	19.03	19	4.3	79	1.0	13	62	978.7	NA	0.0000	HZ	3300	0	0	0	4720
2016/11/23 08:28:00	BASE	16.31	14	19.03	19	4.2	79	1.0	13	62	978.7	NA	0.0000	HZ	5000	0	0	0	4460
2016/11/23 08:29:00	BASE	16.03	12	18.98	15	4.2	80	1.0	13	63	978.7	NA	0.0000	HZ	2900	0	0	0	4400
2016/11/23 08:30:00	BASE	16.18	10	18.98	15	4.1	80	1.0	14	64	978.7	NA	0.0000	HZ	7000	390	0	0	0
2016/11/23 08:31:00	BASE	16.49	10	18.98	15	4.0	81	1.0	14	66	978.7	NA	0.0000	HZ	4600	390	0	0	0
2016/11/23 08:32:00	BASE	17.02	11	18.98	15	4.0	81	1.0	15	68	978.6	NA	0.0000	HZ	3300	360	0	0	0
2016/11/23 08:33:00	BASE	17.19	14	18.57	16	4.0	81	1.0	15	71	978.6	NA	0.2540	HZ	2400	360	0	0	0
2016/11/23 08:34:00	BASE	17.45	15	19.19	12	4.0	81	1.0	16	73	978.5	NA	0.0000	HZ	3000	360	0	0	0
2016/11/23 08:35:00	BASE	17.64	15	19.19	12	4.0	81	1.0	16	75	978.6	NA	0.0000	HZ	4500	0	0	0	6100
2016/11/23 08:36:00	BASE	17.29	16	20.58	24	4.0	81	1.0	17	75	978.5	NA	0.0000	HZ	4200	0	0	0	6230
2016/11/23 08:37:00	BASE	17.23	15	20.58	24	4.0	81	1.0	17	76	978.6	NA	0.0000	HZ	6000	0	0	0	6270
2016/11/23 08:38:00	BASE	17.39	13	20.58	24	4.0	81	1.0	17	76	978.6	NA	0.0000	HZ	6000	0	0	0	6300
2016/11/23 08:39:00	BASE	17.79	13	20.78	8	4.0	81	1.0	17	77	978.5	NA	0.0000	HZ	4000	0	0	0	6560
2016/11/23 08:40:00	BASE	17.87	14	20.78	8	3.9	81	1.0	17	77	978.5	NA	0.0000	HZ	4400	0	0	0	6890
2016/11/23 08:41:00	BASE	17.26	15	20.78	8	3.9	82	1.0	17	77	978.6	NA	0.0000	HZ	6000	0	0	0	4490
2016/11/23 08:42:00	BASE	16.68	14	20.78	8	3.9	82	1.1	17	77	978.5	NA	0.0000	HZ	5000	0	0	0	4460
2016/11/23 08:43:00	BASE	16.63	14	20.78	8	3.9	82	1.1	17	78	978.5	NA	0.0000	HZ	7000	0	0	0	5410
2016/11/23 08:44:00	BASE	17.54	16	20.78	8	3.9	82	1.1	17	79	978.4	NA	0.0000	HZ	7000	0	0	0	5910
2016/11/23 08:45:00	BASE	17.20	19	20.78	8	4.0	82	1.1	18	81	978.4	NA	0.0000	HZ	3800	0	0	0	6000
2016/11/23 08:46:00	BASE	17.09	20	20.78	8	4.0	81	1.1	18	82	978.3	NA	0.0000	HZ	5000	0	0	0	6430
2016/11/23 08:47:00	BASE	17.16	20	20.78	8	4.0	81	1.1	18	83	978.4	NA	0.0000	HZ	5000	0	0	0	6270
2016/11/23 08:48:00	BASE	16.97	18	20.78	8	4.1	81	1.1	18	84	978.3	NA	0.0000	HZ	6000	0	0	0	6370
2016/11/23 08:49:00	BASE	17.80	16	21.35	9	4.1	81	1.1	18	84	978.2	NA	0.2540	HZ	2500	330	0	0	0
2016/11/23 08:50:00	BASE	18.58	15	21.35	9	4.1	81	1.1	18	84	978.2	NA	0.0000	HZ	2400	330	0	0	0
2016/11/23 08:51:00	BASE	18.53	14	21.35	9	4.1	81	1.1	19	85	978.3	NA	0.0000	HZ	2700	360	0	0	0
2016/11/23 08:52:00	BASE	16.07	14	21.35	9	4.1	81	1.1	19	86	978.4	NA	0.0000	HZ	3200	0	0	0	5640
2016/11/23 08:53:00	BASE	15.75	15	21.35	9	4.1	81	1.1	19	87	978.2	NA	0.0000	HZ	3700	0	0	0	5540
2016/11/23 08:54:00	BASE	17.91	18	21.35	9	4.0	81	1.1	20	89	978.1	NA	0.0000	HZ	3100	360	0	0	0
2016/11/23 08:55:00	BASE	17.82	17	21.35	9	4.0	81	1.1	20	92	978.2	NA	0.0000	HZ	2500	390	0	0	0
2016/11/23 08:56:00	BASE	16.71	19	21.35	9	4.0	81	1.1	21	93	978.2	NA	0.0000	HZ	2800	360	0	0	0
2016/11/23 08:57:00	BASE	16.76	20	21.35	9	4.0	81	1.1	21	95	978.1	NA	0.0000	HZ	3100	330	0	0	0
2016/11/23 08:58:00	BASE	16.97	18	21.35	9	4.0	81	1.1	21	95	978.1	NA	0.2540	HZ	1600	360	0	0	0
2016/11/23 08:59:00	BASE	16.66	16	21.04	19	4.0	81	1.0	21	95	978.1	NA	0.0000	HZ	2100	330	0	0	0
2016/11/23 09:00:00	BASE	16.29	16	21.04	19	4.0	81	1.1	21	95	978.2	NA	0.0000	HZ	2100	0	0	0	5090
2016/11/23 09:01:00	BASE	16.63	19	21.04	19	4.0	81	1.1	21	96	978.0	NA	0.0000	HZ	3000	0	0	0	4950
2016/11/23 09:02:00	BASE	18.07	21	21.04	19	4.0	82	1.1	21	96	977.9	NA	0.0000	HZ	2300	0	0	0	4920
2016/11/23 09:03:00	BASE	19.01	21	21.97	21	4.0	82	1.1	21	96	977.9	NA	0.0000	HZ	2200	0	0	0	4920
2016/11/23 09:04:00	BASE	18.62	19	21.97	21	4.0	82	1.2	20	95	978.0	NA	0.0000	HZ	2300	0	0	0	4890
2016/11/23 09:05:00	BASE	18.12	15	21.97	21	4.0	82	1.2	20	95	978.1	NA	0.0000	HZ	3200	0	0	0	4820
2016/11/23 09:06:00	BASE	16.91	11	21.97	21	4.0	82	1.2	20	95	978.2	NA	0.2540	HZ	2500	360	0	0	0
2016/11/23 09:07:00	BASE	15.10	7	21.97	21	3.9	82	1.2	21	96	978.3	NA	0.0000	HZ	3900	430	0	0	0
2016/11/23 09:08:00	BASE	15.08	9	21.97	21	3.9	82	1.1	21	98	978.1	NA	0.0000	HZ	9999	390	0	0	0
2016/11/23 09:09:00	BASE	16.88	15	21.97	21	3.8	82	1.1	22	100	977.9	NA	0.0000	HZ	7000	0	0	0	4860
2016/11/23 09:10:00	BASE	18.53	20	21.97	21	3.8	82	1.1	23	104	977.9	NA	0.0000	HZ	3300	890	0	0	0
2016/11/23 09:11:00	BASE	18.27	22	21.97	21	3.8	82	1.1	23	107	978.0	NA	0.0000	HZ	6000	390	0	0	0
2016/11/23 09:12:00	BASE	17.14	19	21.97	21	3.8	82	1.1	24	111	978.1	NA	0.0000	HZ	4400	0	0	0	4760
2016/11/23 09:13:00	BASE	16.71	18	21.81	12	3.9	82	1.1	25	115	978.1	NA	0.0000	HZ	5000	390	0	0	0
2016/11/23 09:14:00	BASE	18.58	21	23.41	19	3.9	82	1.1	26	119	977.7	NA	0.0000	HZ	2800	360	0	0	0
2016/11/23 09:15:00	BASE	20.06	22	23.41	19	3.9	82	1.0	27	124	977.9	NA	0.0000	HZ	2600	330	4630	0	0
2016/11/23 09:16:00	BASE	18.73	15	23.41	19	3.9	81	1.0	29	131	978.0	NA	0.0000	HZ	2800	360	4660	0	0
2016/11/23 09:17:00	BASE	16.15	5	23.41	19	3.9	81	1.0	32	142	978.1	NA	0.0000	HZ	3500	620	0	0	0
2016/11/23 09:18:00	BASE	16.65	11	23.41	19	3.9	81	1.0	35	154	977.8	NA	0.0000	HZ	9999	980	2890	0	0
2016/11/23 09:19:00	BASE	19.61	20	23.41	19	3.9	81	1.0	38	164	977.8	NA	0.0000	HZ	9999	4360	0	0	0
2016/11/23 09:20:00	BASE	19.24	15	23.41	19	3.9	81	1.0	38	165	978.0	NA	0.0000	HZ	6000	0	0	0	1900
2016/11/23 09:21:00	BASE	17.35	13	23.41	19	3.9	81	1.0	37	160	977.9	NA	0.2540	HZ	5000	360	0	0	0
2016/11/23 09:22:00	BASE	17.42	10	23.41	19	3.9	81	1.0	34	152	978.0	NA	0.0000	HZ	3400	0	0	0	4630
2016/11/23 09:23:00	BASE	17.73	5	23.41	19	4.0	81	1.0	32	145	978.0	NA	0.0000	HZ	2800	390	0	0	0
2016/11/23 09:24:00	BASE	17.84	7	22.64	14	4.0	81	1.0	31	141	977.9	NA	0.0000	HZ	4300	0	0	0	4690
2016/11/23 09:25:00	BASE	18.38	10	22.64	14	3.9	81	1.0	30	138	978.0	NA	0.0000	HZ	3800	0	0	0	4630
2016/11/23 09:26:00	BASE	17.63	7	21.71	20	3.9	81	1.0	30	140	978.1	NA	0.0000	HZ	3400	330	0	0	0
2016/11/23 09:27:00	BASE	16.53	358	21.71	20	3.9	81	0.9	31	144	978.0	NA	0.0000	HZ	4600	460	4460	0	0
2016/11/23 09:28:00	BASE	15.91	356	21.71	20	3.9	81	0.9	32	148	978.1	NA	0.0000	HZ	4200	430	2990	0	0
2016/11/23 09:29:00	BASE	16.85	5	20.58	12	3.9	81	0.9	33	151	977.9	NA	0.0000	HZ	9999	0	0	0	5050
2016/11/23 09:30:00	BASE	17.85	11	20.58	12	3.9	81	0.9	33	153	978.0	NA	0.0000	HZ	8000	390	2430	0	0
2016/11/23 09:31:00	BASE	16.70	6	20.58	12	3.9	81	0.9	34	154	978.0	NA	0.0000	HZ	9000	390	0	0	0
2016/11/23 09:32:00	BASE	17.97	7	21.97	14	3.8	81	0.8	33	153	977.7	NA	0.0000	HZ	9999	0	0	0	6400
2016/11/23 09:33:00	BASE	19.74	13	21.97	14	3.9	81	0.9	33	153	977.7	NA	0.0000	HZ	7000	0	0	0	6270
2016/11/23 09:34:00	BASE	18.80	14	21.97	14	3.9	81	0.9	33	152	977.9	NA	0.0000	HZ	9999	2030	0	0	0
2016/11/23 09:35:00	BASE	18.50	13	21.97	14	4.0	80	0.9	32	149	977.8	NA	0.0000	HZ	9999	460	0	0	0
2016/11/23 09:36:00	BASE	18.46	10	21.97	14	4.0	80	0.9	31	145	977.8	NA	0.0000	HZ	9000	460	0	0	0
2016/11/23 09:37:00	BASE	18.05	12	21.97	14	4.0	80	0.8	30	140	977.7	NA	0.0000	HZ	9000	430	0	0	0
2016/11/23 09:38:00	BASE	18.45	12	21.97	14	4.1	79	0.8	29	135	977.8	NA	0.0000	HZ	4500	430	4920	0	0
2016/11/23 09:39:00	BASE	17.74	11	21.97	14	4.1	79	0.8	28	132	977.9	NA	0.0000	HZ	8000	390	2950	0	0
2016/11/23 09:40:00	BASE	16.84	12	21.97	14	4.1	79	0.8	27	131	977.8	NA	0.0000	HZ	3800	430	4660	0	0
2016/11/23 09:41:00	BASE	18.24	15	21.97	14	4.0	79	0.8	28	133	977.7	NA	0.0000	HZ	9000	390	0	0	0
2016/11/23 09:42:00	BASE	18.98	15	21.09	15	4.0	80	0.8	29	136	977.9	NA	0.0000	HZ	5000	0	0	0	5090
2016/11/23 09:43:00	BASE	17.61	13	21.09	15	4.0	80	0.9	29	138	978.0	NA	0.0000	HZ	3400	390	0	0	0
2016/11/23 09:44:00	BASE	16.15	10	21.09	15	4.0	80	0.9	29	138	978.1	NA	0.0000	HZ	3200	390	3050	0	0
2016/11/23 09:45:01	BASE	16.03	7	21.09	15	4.0	80	0.9	29	139	977.9	NA	0.2540	HZ	7000	2560	4660	0	0
2016/11/23 09:46:00	BASE	16.59	10	21.09	15	4.0	80	0.9	30	140	977.8	NA	0.0000	HZ	6000	3280	0	0	0
2016/11/23 09:47:00	BASE	17.11	14	21.09	15	4.0	80	0.9	30	140	977.8	NA	0.0000	HZ	6000	4660	0	0	0
2016/11/23 09:48:00	BASE	17.32	15	21.09	15	4.1	80	0.9	29	140	977.8	NA	0.0000	HZ	9000	4690	0	0	0
2016/11/23 09:49:00	BASE	17.41	14	21.09	15	4.1	80	0.9	29	137	977.8	NA	0.0000	HZ	8000	4660	0	0	0
2016/11/23 09:50:00	BASE	16.94	11	21.09	15	4.1	79	0.9	29	137	978.0	NA	0.0000	HZ	3500	4630	0	0	0
2016/11/23 09:51:00	BASE	16.19	8	19.91	14	4.2	79	0.9	29	139	977.9	NA	0.0000	HZ	9999	3150	0	0	0
2016/11/23 09:52:00	BASE	16.08	11	19.86	11	4.2	79	0.8	30	140	977.8	NA	0.0000	HZ	9999	3120	0	0	0
2016/11/23 09:53:00	BASE	15.98	12	19.86	11	4.2	79	0.8	30	140	977.9	NA	0.0000	HZ	9999	3120	0	0	0
2016/11/23 09:54:00	BASE	16.37	9	19.86	11	4.2	78	0.8	30	141	977.8	NA	0.0000	HZ	9999	3080	0	0	0
2016/11/23 09:55:00	BASE	16.90	6	19.86	11	4.2	78	0.8	30	140	977.9	NA	0.0000	HZ	9999	3080	0	0	0
2016/11/23 09:56:00	BASE	15.87	4	19.86	11	4.2	78	0.7	30	140	978.0	NA	0.0000	HZ	9999	460	0	0	0
2016/11/23 09:57:00	BASE	16.70	11	21.45	9	4.3	78	0.8	30	142	977.6	NA	0.0000	HZ	9999	430	0	0	0
2016/11/23 09:58:00	BASE	18.86	21	22.58	20	4.4	78	0.9	31	146	977.5	NA	0.0000	HZ	4700	4330	0	0	0
2016/11/23 09:59:00	BASE	19.46	21	22.58	20	4.5	78	0.9	31	148	977.6	NA	0.0000	HZ	9999	4690	0	0	0
2016/11/23 10:00:00	BASE	18.26	13	22.58	20	4.6	77	1.0	31	147	977.9	NA	0.0000		8000	430	0	0	0
2016/11/23 10:01:00	BASE	17.15	12	22.58	20	4.6	77	1.0	30	144	977.7	NA	0.0000		9999	0	0	0	5410
2016/11/23 10:02:00	BASE	18.15	19	22.58	20	4.6	77	1.0	30	146	977.6	NA	0.0000		9999	1440	2760	0	0
2016/11/23 10:03:00	BASE	19.00	19	22.58	20	4.6	77	1.0	31	148	977.7	NA	0.0000		9999	3350	0	0	0
2016/11/23 10:04:00	BASE	18.17	16	22.58	20	4.7	77	0.9	31	150	977.9	NA	0.0000		9999	0	0	0	5380
2016/11/23 10:05:00	BASE	17.65	17	22.58	20	4.6	77	0.9	31	149	977.7	NA	0.0000		9999	0	0	0	5450
2016/11/23 10:06:00	BASE	18.71	19	22.58	20	4.7	76	0.9	30	148	977.7	NA	0.0000		9999	0	0	0	5350
2016/11/23 10:07:00	BASE	18.56	20	22.58	20	4.6	76	0.8	30	147	977.7	NA	0.0000		9999	0	0	0	5540
2016/11/23 10:08:00	BASE	18.37	20	21.92	21	4.6	77	0.8	30	145	977.6	NA	0.0000		9999	0	0	0	5610
2016/11/23 10:09:00	BASE	19.46	18	22.58	20	4.5	77	0.8	29	145	977.5	NA	0.0000		9999	3770	0	0	0
2016/11/23 10:10:00	BASE	19.12	16	22.58	20	4.4	77	0.8	29	145	977.8	NA	0.0000		9000	4630	0	0	0
2016/11/23 10:11:00	BASE	17.75	13	22.58	20	4.4	78	0.9	29	143	977.8	NA	0.0000		9999	0	0	0	5450
2016/11/23 10:12:00	BASE	17.43	12	22.58	20	4.4	78	0.9	28	141	977.8	NA	0.0000		9999	4040	0	0	0
2016/11/23 10:13:00	BASE	16.96	10	22.58	20	4.3	78	0.8	28	141	977.9	NA	0.0000		9999	3870	0	0	0
2016/11/23 10:14:00	BASE	16.29	9	22.58	20	4.3	78	0.8	28	142	978.0	NA	0.0000		9999	0	0	0	1610
2016/11/23 10:15:00	BASE	16.53	12	22.58	20	4.3	78	0.8	28	141	977.9	NA	0.0000		9999	0	0	0	4890
2016/11/23 10:16:00	BASE	16.98	14	22.58	20	4.3	78	0.8	28	138	977.7	NA	0.0000		9000	0	0	0	4820
2016/11/23 10:17:00	BASE	17.14	15	22.58	20	4.3	78	0.8	28	140	977.8	NA	0.0000		7000	0	0	0	4920
2016/11/23 10:18:00	BASE	17.38	13	22.58	20	4.2	78	0.7	30	146	977.8	NA	0.0000		8000	0	0	0	5180
2016/11/23 10:19:00	BASE	16.68	9	19.91	12	4.2	78	0.8	31	152	977.9	NA	0.0000	HZ	3600	360	0	0	0
2016/11/23 10:20:00	BASE	15.07	7	19.65	7	4.2	78	0.8	31	153	978.0	NA	0.0000	HZ	3100	430	0	0	0
2016/11/23 10:21:00	BASE	14.45	8	19.65	7	4.2	79	0.8	31	150	978.0	NA	0.0000	HZ	9999	4070	0	0	0
2016/11/23 10:22:00	BASE	16.20	11	19.65	7	4.1	79	0.8	30	146	977.7	NA	0.0000	HZ	9999	3900	0	0	0
2016/11/23 10:23:00	BASE	17.85	13	19.65	7	4.1	80	0.9	29	145	977.7	NA	0.0000	HZ	8000	3770	0	0	0
2016/11/23 10:24:00	BASE	18.48	16	20.83	16	4.1	80	0.9	29	144	977.7	NA	0.0000	HZ	5000	0	0	0	4690
2016/11/23 10:25:00	BASE	17.99	16	20.83	16	4.1	80	0.9	29	142	977.8	NA	0.0000	HZ	3800	0	0	0	4820
2016/11/23 10:26:00	BASE	16.81	15	20.83	16	4.1	80	0.9	29	142	977.9	NA	0.0000	HZ	5000	0	0	0	4690
2016/11/23 10:27:00	BASE	16.89	13	20.83	16	4.1	79	0.8	30	146	977.8	NA	0.2540	HZ	4800	0	0	0	4360
2016/11/23 10:28:00	BASE	17.68	11	21.14	9	4.1	79	0.8	31	150	977.8	NA	0.0000	HZ	3000	0	0	0	3970
2016/11/23 10:29:00	BASE	18.30	12	21.14	9	4.0	79	0.8	32	153	977.7	NA	0.0000	HZ	2600	0	0	0	4170
2016/11/23 10:30:01	BASE	18.07	11	21.14	9	4.0	80	0.8	32	154	977.8	NA	0.0000	HZ	2500	0	0	0	4330
2016/11/23 10:31:00	BASE	18.24	12	21.14	9	4.0	80	0.8	32	155	977.7	NA	0.0000	HZ	2600	0	0	0	4200
2016/11/23 10:32:00	BASE	18.30	11	21.14	9	3.9	80	0.8	32	155	977.8	NA	0.0000	HZ	3800	0	0	0	4130
2016/11/23 10:33:00	BASE	17.36	9	21.14	9	3.9	80	0.8	33	156	977.8	NA	0.0000	HZ	2500	0	0	0	4330
2016/11/23 10:34:00	BASE	16.69	11	21.14	9	3.9	80	0.8	33	157	977.9	NA	0.0000	HZ	4000	0	0	0	4330
2016/11/23 10:35:00	BASE	16.96	12	21.14	9	3.9	80	0.8	33	157	977.8	NA	0.2540	HZ	4000	0	0	0	4530
2016/11/23 10:36:00	BASE	17.44	10	21.14	9	3.9	80	0.8	33	157	977.9	NA	0.0000	HZ	4000	390	0	0	0
2016/11/23 10:37:00	BASE	17.37	10	21.14	9	3.9	80	0.8	34	162	977.9	NA	0.0000	HZ	3100	0	0	0	4360
2016/11/23 10:38:00	BASE	18.22	12	21.45	18	3.9	81	0.9	36	170	977.7	NA	0.0000	HZ	6000	0	0	0	4300
2016/11/23 10:39:00	BASE	18.87	13	21.45	18	3.9	81	0.9	38	178	977.7	NA	0.0000	HZ	3600	0	0	0	4460
2016/11/23 10:40:00	BASE	18.30	13	21.45	18	3.9	81	0.9	39	181	977.7	NA	0.0000	HZ	5000	0	0	0	4820
2016/11/23 10:41:00	BASE	18.26	14	21.45	18	3.8	81	0.8	39	182	977.7	NA	0.0000	HZ	7000	0	0	0	4490
2016/11/23 10:42:00	BASE	18.79	11	21.45	18	3.8	81	0.9	40	184	977.7	NA	0.0000	HZ	4900	0	0	0	4560
2016/11/23 10:43:00	BASE	17.70	8	21.45	18	3.8	81	0.9	40	186	977.9	NA	0.0000	HZ	5000	0	0	0	4400
2016/11/23 10:44:00	BASE	16.13	5	21.45	18	3.7	82	0.9	40	184	977.9	NA	0.0000	HZ	3100	0	0	0	4490
2016/11/23 10:45:00	BASE	15.96	2	21.45	18	3.7	82	0.9	39	181	977.9	NA	0.0000	HZ	9999	0	0	0	4760
2016/11/23 10:46:00	BASE	15.83	360	21.45	18	3.7	82	0.9	38	178	977.9	NA	0.0000	HZ	9000	0	0	0	4300
2016/11/23 10:47:00	BASE	15.70	1	21.45	18	3.7	82	0.9	39	179	977.8	NA	0.0000	HZ	7000	0	0	0	4170
2016/11/23 10:48:00	BASE	15.03	5	21.35	6	3.7	82	0.9	39	183	977.8	NA	0.0000	HZ	5000	0	0	0	4100
2016/11/23 10:49:00	BASE	15.76	7	21.35	6	3.7	82	0.8	41	191	977.6	NA	0.2540	HZ	6000	0	0	0	3940
2016/11/23 10:50:00	BASE	17.43	8	21.35	6	3.6	82	0.8	43	198	977.6	NA	0.0000	HZ	2600	0	0	0	4170
2016/11/23 10:51:00	BASE	18.33	10	21.35	6	3.6	82	0.8	45	204	977.4	NA	0.0000	HZ	2400	0	0	0	4130
2016/11/23 10:52:00	BASE	19.59	12	22.07	10	3.6	82	0.7	47	214	977.4	NA	0.0000	HZ	2400	0	0	0	4070
2016/11/23 10:53:00	BASE	20.24	14	22.28	15	3.6	82	0.8	51	225	977.4	NA	0.0000	HZ	2100	0	0	0	3540
2016/11/23 10:54:00	BASE	18.73	12	22.28	15	3.6	82	0.8	53	236	977.6	NA	0.2540	HZ	2100	0	0	0	3510
2016/11/23 10:55:00	BASE	17.67	10	22.28	15	3.6	82	0.9	56	244	977.5	NA	0.0000	HZ	2500	0	0	0	3510
2016/11/23 10:56:00	BASE	18.30	11	22.28	15	3.6	82	0.9	58	252	977.5	NA	0.0000	HZ	2000	0	0	0	3580
2016/11/23 10:57:00	BASE	18.20	12	22.28	15	3.6	83	0.9	59	258	977.5	NA	0.0000	HZ	2000	0	0	0	3540
2016/11/23 10:58:01	BASE	18.23	13	22.28	15	3.6	83	0.9	60	261	977.5	NA	0.2540	HZ	2200	0	0	0	3610
2016/11/23 10:59:00	BASE	18.48	12	22.28	15	3.6	83	1.0	62	265	977.5	NA	0.0000	HZ	1900	0	0	0	3580
2016/11/23 11:00:01	BASE	18.48	12	22.28	15	3.5	83	1.0	64	278	977.4	NA	0.0000	HZ	1800	0	0	0	3510
2016/11/23 11:01:00	BASE	18.42	10	22.28	15	3.5	84	1.0	67	287	977.4	NA	0.0000	HZ	2300	0	0	0	3670
2016/11/23 11:02:00	BASE	18.39	9	22.28	15	3.5	84	1.0	68	292	977.4	NA	0.2540	HZ	2200	0	0	0	3770
2016/11/23 11:03:00	BASE	18.16	8	21.09	5	3.4	85	1.1	70	294	977.4	NA	0.0000	HZ	2200	0	0	0	3870
2016/11/23 11:04:00	BASE	17.91	9	21.81	10	3.3	85	1.1	70	299	977.4	NA	0.0000	HZ	2100	0	0	0	3970
2016/11/23 11:05:01	BASE	18.00	9	21.81	10	3.3	86	1.1	71	299	977.3	NA	0.0000	BR	1900	0	0	0	3900
2016/11/23 11:06:01	BASE	17.60	7	21.81	10	3.2	86	1.2	71	298	977.4	NA	0.2540	-SN BR	2100	0	0	0	3770
2016/11/23 11:07:01	BASE	16.64	7	21.81	10	3.2	87	1.2	71	299	977.4	NA	0.0000	-SN BR	2500	0	0	0	3710
2016/11/23 11:08:01	BASE	16.62	8	21.81	10	3.2	87	1.2	72	304	977.3	NA	0.0000	-SN BR	3600	0	0	0	3480
2016/11/23 11:09:01	BASE	18.26	11	21.81	10	3.2	87	1.2	74	311	977.1	NA	0.0000	-SN BR	2100	360	0	0	0
2016/11/23 11:10:01	BASE	19.37	12	21.92	6	3.2	87	1.3	76	320	977.2	NA	0.0000	-SN BR	2000	360	0	0	0
2016/11/23 11:11:01	BASE	18.56	9	21.92	6	3.2	87	1.2	79	328	977.3	NA	0.2540	-SN BR	1800	360	0	0	0
2016/11/23 11:12:01	BASE	17.79	9	21.92	6	3.2	87	1.2	82	338	977.2	NA	0.0000	-SN BR	2000	0	0	0	3450
2016/11/23 11:13:01	BASE	18.31	9	22.48	4	3.3	86	1.2	84	346	977.1	NA	0.0000	-SN BR	2300	360	0	0	0
2016/11/23 11:14:01	BASE	19.56	10	22.48	4	3.3	86	1.2	85	353	977.1	NA	0.0000	-SN BR	1900	0	0	0	3120
2016/11/23 11:15:01	BASE	19.97	13	22.48	4	3.2	86	1.1	88	359	977.0	NA	0.2540	-SN BR	2400	0	0	0	3020
2016/11/23 11:16:01	BASE	20.06	12	22.48	4	3.2	86	1.1	90	366	977.0	NA	0.0000	-SN BR	2300	0	0	0	3020
2016/11/23 11:17:01	BASE	20.41	10	22.48	4	3.2	86	1.1	93	377	977.0	NA	0.0000	-SN BR	1800	0	0	0	3180
2016/11/23 11:18:01	BASE	19.87	8	22.48	4	3.2	86	1.1	97	387	977.1	NA	0.2540	-SN BR	1700	0	0	0	3280
2016/11/23 11:19:01	BASE	18.46	7	22.48	4	3.2	86	1.1	98	395	977.2	NA	0.0000	-SN BR	1700	0	0	0	3610
2016/11/23 11:20:01	BASE	18.68	8	22.48	4	3.2	86	1.1	101	402	977.0	NA	0.0000	-SN BR	2000	360	22310	0	0
2016/11/23 11:21:01	BASE	19.54	11	22.48	4	3.2	86	1.1	103	412	976.9	NA	0.2540	-SN BR	1700	360	0	0	0
2016/11/23 11:22:01	BASE	18.96	10	22.48	4	3.2	86	1.1	106	421	977.0	NA	0.0000	-SN BR	2200	330	0	0	0
2016/11/23 11:23:01	BASE	18.25	9	22.17	8	3.2	86	1.0	108	428	977.1	NA	0.0000	-SN BR	2200	0	0	0	3180
2016/11/23 11:24:01	BASE	18.56	10	22.17	8	3.2	86	1.1	111	438	977.0	NA	0.2540	-SN BR	2100	0	0	0	3150
2016/11/23 11:25:01	BASE	19.02	11	21.61	15	3.1	86	1.0	113	444	977.1	NA	0.0000	-SN BR	2000	360	0	0	0
2016/11/23 11:26:01	BASE	18.47	10	21.40	6	3.1	86	1.0	112	445	977.0	NA	0.0000	-SN BR	2200	330	0	0	0
2016/11/23 11:27:01	BASE	18.21	7	21.40	6	3.1	86	1.0	113	443	977.0	NA	0.0000	-SN BR	2300	330	0	0	0
2016/11/23 11:28:01	BASE	18.37	8	21.40	6	3.1	86	1.0	113	444	976.9	NA	0.2540	-SN BR	2300	330	0	0	0
2016/11/23 11:29:01	BASE	18.58	10	21.40	6	3.1	86	1.0	112	442	976.5	NA	0.0000	-SN BR	2300	0	0	0	3540
2016/11/23 11:30:01	BASE	19.09	12	21.25	19	3.1	86	1.0	112	440	976.9	NA	0.2540	-SN BR	1800	330	0	0	0
2016/11/23 11:31:01	BASE	19.66	12	21.35	12	3.1	86	1.0	112	442	976.8	NA	0.0000	-SN BR	1900	300	0	0	0
2016/11/23 11:32:01	BASE	19.84	11	22.07	6	3.1	86	0.9	113	443	976.8	NA	0.0000	-SN BR	1800	300	0	0	0
2016/11/23 11:33:01	BASE	19.92	11	22.07	6	3.0	86	1.0	112	445	976.9	NA	0.2540	-SN BR	1900	330	0	0	0
2016/11/23 11:34:01	BASE	20.12	11	22.07	6	3.0	86	1.0	113	446	976.8	NA	0.0000	-SN BR	2100	330	0	0	0
2016/11/23 11:35:01	BASE	20.00	10	22.07	6	3.0	87	1.0	116	455	976.9	NA	0.0000	-SN BR	2100	330	0	0	0
2016/11/23 11:36:01	BASE	19.27	12	22.07	6	3.0	87	1.0	117	459	976.9	NA	0.2540	-SN BR	2200	330	0	0	0
2016/11/23 11:37:01	BASE	18.90	11	22.07	6	3.0	87	1.0	117	461	976.9	NA	0.0000	-SN BR	2200	300	0	0	0
2016/11/23 11:38:01	BASE	18.78	9	22.07	6	3.0	87	1.0	115	450	976.9	NA	0.0000	-SN BR	2000	330	0	0	0
2016/11/23 11:39:01	BASE	18.93	10	22.07	6	3.0	87	1.0	112	446	976.9	NA	0.2540	-SN BR	2000	330	0	0	0
2016/11/23 11:40:01	BASE	19.39	11	22.43	10	3.0	87	1.0	111	443	976.8	NA	0.0000	-SN BR	1900	330	0	0	0
2016/11/23 11:41:01	BASE	19.74	12	22.43	10	3.0	87	1.0	113	448	976.8	NA	0.0000	-SN BR	1800	330	0	0	0
2016/11/23 11:42:01	BASE	19.64	12	22.43	10	3.0	87	1.0	112	445	976.8	NA	0.2540	-SN BR	1900	330	0	0	0
2016/11/23 11:43:01	BASE	19.44	12	22.43	10	3.0	87	1.0	110	438	976.8	NA	0.0000	-SN BR	2100	0	0	0	3410
2016/11/23 11:44:01	BASE	19.54	12	22.43	10	3.0	87	1.0	108	431	976.7	NA	0.0000	-SN BR	1700	330	0	0	0
2016/11/23 11:45:01	BASE	19.60	11	22.43	10	3.0	87	1.0	106	427	976.8	NA	0.2540	-SN BR	2200	330	0	0	0
2016/11/23 11:46:01	BASE	18.99	10	22.43	10	3.0	87	1.0	105	423	976.9	NA	0.0000	-SN BR	1900	330	0	0	0
2016/11/23 11:47:01	BASE	18.27	9	22.43	10	3.0	87	1.0	105	422	976.9	NA	0.2540	-SN BR	2000	330	0	0	0
2016/11/23 11:48:01	BASE	18.45	10	22.43	10	3.0	87	1.0	105	426	976.8	NA	0.0000	-SN BR	1700	360	0	0	0
2016/11/23 11:49:01	BASE	18.90	12	22.43	10	2.9	87	1.0	105	425	976.7	NA	0.0000	-SN BR	1800	0	0	0	3310
2016/11/23 11:50:01	BASE	19.73	14	22.94	17	2.9	87	1.0	103	418	976.6	NA	0.0000	-SN BR	2300	0	0	0	3310
2016/11/23 11:51:01	BASE	19.82	12	22.94	17	3.0	87	1.0	103	416	976.8	NA	0.2540	-SN BR	2200	0	0	0	3020
2016/11/23 11:52:01	BASE	18.50	11	22.94	17	3.0	87	1.0	103	418	977.0	NA	0.0000	-SN BR	2900	0	0	0	2990
2016/11/23 11:53:01	BASE	17.17	10	22.94	17	3.0	87	1.0	103	417	977.0	NA	0.0000	-SN BR	2300	0	0	0	3050
2016/11/23 11:54:01	BASE	16.75	8	22.94	17	3.0	87	1.0	105	420	976.9	NA	0.2540	-SN BR	2000	0	0	0	3150
2016/11/23 11:55:01	BASE	16.95	6	22.94	17	3.0	87	1.0	106	424	976.8	NA	0.0000	-SN BR	2100	0	0	0	3410
2016/11/23 11:56:01	BASE	17.05	6	22.94	17	2.9	87	1.0	107	426	976.9	NA	0.0000	-SN BR	2000	0	0	0	3250
2016/11/23 11:57:01	BASE	18.07	8	22.94	17	2.9	87	1.0	108	431	976.7	NA	0.0000	-SN BR	2200	0	0	0	3280
2016/11/23 11:58:01	BASE	18.13	8	22.94	17	2.9	87	1.0	113	445	976.9	NA	0.2540	-SN BR	1900	0	0	0	3180
2016/11/23 11:59:01	BASE	16.98	8	22.94	17	2.9	87	1.0	118	462	976.9	NA	0.0000	-SN BR	2100	0	0	0	3250
2016/11/23 12:00:01	BASE	17.66	7	21.30	17	2.9	87	1.0	124	488	976.7	NA	0.2540	-SN BR	2300	0	0	0	3480
2016/11/23 12:01:01	BASE	19.25	8	21.30	17	3.0	87	1.0	130	507	976.6	NA	0.0000	-SN BR	2200	0	0	0	3380
2016/11/23 12:02:01	BASE	19.59	10	21.92	7	3.0	87	1.0	137	528	976.7	NA	0.0000	-SN BR	2200	0	0	0	3150
2016/11/23 12:03:01	BASE	17.86	6	21.92	7	3.0	87	1.0	141	539	976.8	NA	0.0000	-SN BR	2400	0	0	0	3380
2016/11/23 12:04:01	BASE	17.09	3	21.92	7	3.0	87	1.0	141	541	976.8	NA	0.0000	-SN BR	3200	0	0	0	3450
2016/11/23 12:05:01	BASE	18.07	6	21.92	7	3.0	87	1.0	141	542	976.7	NA	0.2540	-SN BR	2200	0	0	0	3450
2016/11/23 12:06:01	BASE	17.95	6	21.92	7	3.0	87	1.0	142	546	976.7	NA	0.0000	-SN BR	2500	0	0	0	3670
2016/11/23 12:07:01	BASE	17.14	6	21.92	7	2.9	87	1.0	145	553	976.7	NA	0.0000	-SN BR	2900	0	0	0	3510
2016/11/23 12:08:01	BASE	16.82	8	21.92	7	2.9	87	1.0	145	559	976.8	NA	0.0000	-SN BR	2300	22510	0	0	0
2016/11/23 12:09:01	BASE	17.28	6	21.92	7	2.9	87	1.0	149	566	976.7	NA	0.0000	-SN BR	3100	0	0	0	3350
2016/11/23 12:10:01	BASE	17.46	5	21.92	7	2.9	87	1.0	150	572	976.7	NA	0.0000	-SN BR	2300	0	0	0	3410
2016/11/23 12:11:01	BASE	17.36	5	21.92	7	2.9	87	1.0	152	579	976.7	NA	0.0000	-SN BR	2400	0	0	0	3450
2016/11/23 12:12:01	BASE	17.85	4	20.83	4	2.9	87	1.0	153	585	976.6	NA	0.2540	-SN BR	2200	0	0	0	3450
2016/11/23 12:13:01	BASE	18.38	3	20.83	4	2.9	87	1.0	158	595	976.6	NA	0.0000	-SN BR	2600	20340	0	0	0
2016/11/23 12:14:01	BASE	18.26	1	20.83	4	3.0	87	1.0	167	621	976.7	NA	0.0000	-SN BR	3600	18770	22410	0	0
2016/11/23 12:15:01	BASE	17.90	2	20.83	4	3.0	87	1.0	180	661	976.6	NA	0.0000	-SN BR	4000	0	0	0	3610
2016/11/23 12:16:01	BASE	17.65	4	20.83	4	3.0	87	1.0	191	704	976.6	NA	0.0000	-SN BR	3700	0	0	0	3670
2016/11/23 12:17:01	BASE	18.43	4	21.09	9	3.0	86	1.0	203	740	976.5	NA	0.0000	-SN BR	2900	0	0	0	3810
2016/11/23 12:18:01	BASE	19.35	3	21.09	9	3.1	86	1.0	215	773	976.5	NA	0.2540	-SN BR	2200	0	0	0	3870
2016/11/23 12:19:01	BASE	19.44	3	21.25	9	3.1	86	1.0	229	817	976.6	NA	0.0000	-SN BR	2300	0	0	0	4460
2016/11/23 12:20:01	BASE	19.82	5	21.66	4	3.1	86	1.0	230	826	976.5	NA	0.0000	-SN BR	2300	0	0	0	4200
2016/11/23 12:21:01	BASE	19.52	4	21.66	4	3.1	86	1.0	222	805	976.6	NA	0.0000	-SN BR	3700	0	0	0	4490
2016/11/23 12:22:01	BASE	18.48	0	21.66	4	3.1	86	1.0	209	770	976.7	NA	0.0000	-SN BR	2700	0	0	0	4300
2016/11/23 12:23:01	BASE	18.12	359	21.66	4	3.1	86	1.0	194	729	976.7	NA	0.0000	-SN BR	7000	0	0	0	4430
2016/11/23 12:24:01	BASE	18.24	359	21.66	4	3.1	86	1.0	183	693	976.6	NA	0.0000	-SN BR	3200	0	0	0	4630
2016/11/23 12:25:01	BASE	17.96	358	21.66	4	3.0	86	0.9	180	688	976.6	NA	0.0000	-SN BR	2400	21100	0	0	0
2016/11/23 12:26:01	BASE	18.22	0	21.66	4	3.0	86	0.9	179	684	976.5	NA	0.0000	-SN BR	7000	0	0	0	4300
2016/11/23 12:27:01	BASE	18.58	3	21.66	4	3.0	86	0.9	178	686	976.5	NA	0.0000	-SN BR	8000	0	0	0	4330
2016/11/23 12:28:01	BASE	18.26	359	21.66	4	3.0	86	0.9	177	683	976.6	NA	0.0000	-SN BR	4400	0	0	0	4000
2016/11/23 12:29:01	BASE	18.30	357	21.66	4	3.1	86	0.9	172	669	976.6	NA	0.2540	-SN BR	5000	0	0	0	5770
2016/11/23 12:30:01	BASE	18.01	356	20.78	3	3.1	86	1.0	164	645	976.6	NA	0.0000	-SN BR	6000	0	0	0	6000
2016/11/23 12:31:01	BASE	17.47	356	20.78	3	3.1	86	0.9	155	614	976.6	NA	0.0000	-SN BR	4700	22800	0	0	0
2016/11/23 12:32:01	BASE	17.67	1	20.78	3	3.1	86	1.0	150	598	976.4	NA	0.0000	-SN BR	9999	0	0	0	6330
2016/11/23 12:33:01	BASE	17.29	5	20.78	3	3.1	86	0.9	148	591	976.5	NA	0.0000	-SN BR	9999	0	0	0	6100
2016/11/23 12:34:01	BASE	17.39	8	20.78	3	3.1	86	0.9	146	585	976.4	NA	0.0000	-SN BR	9999	0	0	0	6370
2016/11/23 12:35:01	BASE	18.57	7	20.78	3	3.1	85	0.9	146	584	976.4	NA	0.0000	-SN BR	3400	0	0	0	5180
2016/11/23 12:36:01	BASE	18.78	2	20.68	3	3.2	85	0.9	146	589	976.4	NA	0.0000	-SN	6000	0	0	0	5090
2016/11/23 12:37:01	BASE	18.82	2	20.83	2	3.2	85	0.9	150	599	976.4	NA	0.0000	-SN	7000	0	0	0	4990
2016/11/23 12:38:01	BASE	19.20	4	20.83	2	3.2	85	0.9	154	609	976.4	NA	0.0000	-SN	9999	0	0	0	5220
2016/11/23 12:39:01	BASE	19.11	359	20.83	2	3.3	84	0.9	153	610	976.5	NA	0.0000	-SN	5000	0	0	0	5350
2016/11/23 12:40:01	BASE	18.01	354	20.83	2	3.3	84	0.9	150	602	976.6	NA	0.0000	-SN	8000	0	0	0	5510
2016/11/23 12:41:01	BASE	16.40	353	20.83	2	3.3	84	0.8	148	596	976.7	NA	0.0000	-SN	9000	0	0	0	5280
2016/11/23 12:42:01	BASE	15.79	357	20.83	2	3.2	84	0.8	148	595	976.6	NA	0.0000	-SN	9999	22740	0	0	0
2016/11/23 12:43:01	BASE	17.16	0	20.83	2	3.2	84	0.8	147	590	976.4	NA	0.0000	-SN	9999	0	0	0	5250
2016/11/23 12:44:01	BASE	18.56	1	20.83	2	3.2	84	0.8	146	588	976.4	NA	0.0000	-SN	8000	0	0	0	4920
2016/11/23 12:45:01	BASE	18.85	1	20.83	2	3.3	84	0.8	143	581	976.4	NA	0.0000	-SN	4300	0	0	0	4860
2016/11/23 12:46:01	BASE	18.41	1	20.83	2	3.3	84	0.8	140	573	976.5	NA	0.0000	-SN	9999	4330	0	0	0
2016/11/23 12:47:01	BASE	17.79	0	20.78	5	3.3	84	0.8	135	557	976.6	NA	0.0000	-SN	9999	4270	0	0	0
2016/11/23 12:48:01	BASE	17.43	353	20.68	1	3.3	84	0.8	133	549	976.6	NA	0.0000	-SN	6000	4200	0	0	0
2016/11/23 12:49:01	BASE	16.71	352	20.68	1	3.3	84	0.8	133	551	976.6	NA	0.0000	-SN	9999	4170	0	0	0
2016/11/23 12:50:01	BASE	16.96	2	20.68	1	3.2	84	0.7	133	550	976.5	NA	0.0000	-SN	9999	4230	0	0	0
2016/11/23 12:51:01	BASE	17.53	2	20.68	1	3.2	84	0.7	132	545	976.5	NA	0.0000	-SN	9999	4270	0	0	0
2016/11/23 12:52:01	BASE	17.84	3	20.68	360	3.2	84	0.8	129	534	976.4	NA	0.0000	-SN	9999	4130	0	0	0
2016/11/23 12:53:01	BASE	18.59	4	20.94	360	3.2	84	0.8	127	527	976.3	NA	0.0000	-SN	9999	0	0	0	4820
2016/11/23 12:54:01	BASE	18.58	5	20.94	360	3.3	84	0.8	126	524	976.4	NA	0.0000	-SN	9999	4000	0	0	0
2016/11/23 12:55:01	BASE	18.95	4	21.35	360	3.3	84	0.8	125	522	976.3	NA	0.0000	-SN	9999	4000	0	0	0
2016/11/23 12:56:01	BASE	19.33	2	21.35	360	3.3	84	0.8	125	525	976.3	NA	0.0000	-SN	6000	4270	0	0	0
2016/11/23 12:57:01	BASE	18.56	1	21.35	360	3.3	83	0.8	128	534	976.4	NA	0.0000	-SN	9999	2430	4200	0	0
2016/11/23 12:58:01	BASE	18.08	360	21.35	360	3.3	83	0.8	131	543	976.5	NA	0.0000	-SN	9999	0	0	0	4720
2016/11/23 12:59:01	BASE	18.05	1	21.35	360	3.3	83	0.7	134	553	976.4	NA	0.0000	-SN	9999	2070	2950	0	0
2016/11/23 13:00:01	BASE	18.87	3	21.35	360	3.3	83	0.7	137	563	976.3	NA	0.0000	-SN	9999	1900	2990	0	0
2016/11/23 13:01:01	BASE	19.14	3	21.35	360	3.3	83	0.7	139	570	976.4	NA	0.0000	-SN	7000	3080	3970	0	0
2016/11/23 13:02:01	BASE	18.47	3	21.35	360	3.3	83	0.7	143	583	976.3	NA	0.0000	-SN	9999	3080	0	0	0
2016/11/23 13:03:01	BASE	18.93	2	21.35	360	3.3	83	0.7	152	611	976.3	NA	0.0000	-SN	9999	2950	3810	0	0
2016/11/23 13:04:01	BASE	19.65	2	21.35	360	3.3	83	0.7	163	645	976.3	NA	0.0000	-SN	9999	3970	0	0	0
2016/11/23 13:05:01	BASE	19.39	360	21.14	2	3.3	83	0.7	171	672	976.3	NA	0.0000	-SN	9999	4590	0	0	0
2016/11/23 13:06:01	BASE	18.95	359	21.14	2	3.3	83	0.7	176	688	976.3	NA	0.0000	-SN	9999	4630	0	0	0
2016/11/23 13:07:01	BASE	18.63	1	21.14	2	3.3	83	0.7	174	684	976.3	NA	0.0000	-SN	7000	4490	0	0	0
2016/11/23 13:08:01	BASE	18.50	2	21.14	2	3.3	83	0.7	173	688	976.3	NA	0.0000	-SN	9999	1870	3050	0	0
2016/11/23 13:09:01	BASE	18.53	2	21.14	2	3.4	83	0.7	182	715	976.3	NA	0.0000	-SN	9999	1970	3080	0	0
2016/11/23 13:10:01	BASE	18.69	2	21.14	2	3.4	83	0.8	189	736	976.3	NA	0.0000	-SN	9999	3080	4070	0	0
2016/11/23 13:11:01	BASE	18.20	4	21.14	2	3.4	83	0.8	196	764	976.4	NA	0.0000	-SN	9999	3080	0	0	0
2016/11/23 13:12:01	BASE	17.89	2	21.14	2	3.4	83	0.8	204	793	976.4	NA	0.0000	-SN	9999	3120	3940	0	0
2016/11/23 13:13:01	BASE	17.97	353	20.89	5	3.4	83	0.8	213	817	976.4	NA	0.0000	-SN	9999	1940	3120	0	0
2016/11/23 13:14:01	BASE	17.82	352	20.53	2	3.4	83	0.8	216	829	976.4	NA	0.0000	-SN	9999	3940	0	0	0
2016/11/23 13:15:00	BASE	17.69	359	20.53	2	3.4	83	0.7	213	821	976.5	NA	0.0000		9999	3350	0	0	0
2016/11/23 13:16:00	BASE	17.55	358	20.53	2	3.4	83	0.7	215	828	976.4	NA	0.0000		9999	3810	0	0	0
2016/11/23 13:17:00	BASE	17.18	356	20.53	2	3.4	82	0.7	222	852	976.5	NA	0.0000		9999	3740	0	0	0
2016/11/23 13:18:00	BASE	17.03	358	20.32	354	3.4	82	0.7	230	875	976.4	NA	0.0000		9999	3840	0	0	0
2016/11/23 13:19:00	BASE	17.12	360	20.32	354	3.4	82	0.6	227	871	976.5	NA	0.0000		9999	3810	0	0	0
2016/11/23 13:20:00	BASE	16.98	355	19.81	3	3.4	82	0.7	234	897	976.4	NA	0.0000		9999	1800	3020	0	0
2016/11/23 13:21:00	BASE	17.40	350	19.81	3	3.4	82	0.7	242	916	976.4	NA	0.0000		9999	1710	3870	0	0
2016/11/23 13:22:00	BASE	17.92	354	19.65	354	3.4	82	0.7	246	930	976.3	NA	0.0000		9999	1670	3810	0	0
2016/11/23 13:23:00	BASE	17.86	358	19.65	354	3.4	82	0.7	249	939	976.4	NA	0.0000		9999	3540	16900	0	0
2016/11/23 13:24:00	BASE	17.67	355	19.65	354	3.4	82	0.7	242	915	976.3	NA	0.0000		9999	3540	0	0	0
2016/11/23 13:25:00	BASE	18.11	353	19.96	349	3.5	82	0.7	229	876	976.3	NA	0.0000		9999	1740	3480	0	0
2016/11/23 13:26:00	BASE	17.32	351	19.96	349	3.5	82	0.7	216	834	976.5	NA	0.0000		9999	1670	3410	0	0
2016/11/23 13:27:00	BASE	16.39	350	19.96	349	3.5	81	0.6	200	781	976.5	NA	0.0000		9999	3220	0	0	0
2016/11/23 13:28:00	BASE	16.82	348	19.96	349	3.5	81	0.6	183	725	976.5	NA	0.0000		9999	3180	0	0	0
2016/11/23 13:29:00	BASE	16.76	344	19.96	349	3.5	81	0.6	168	673	976.6	NA	0.0000		9999	3150	0	0	0
2016/11/23 13:30:00	BASE	17.20	343	19.96	349	3.5	81	0.6	156	637	976.6	NA	0.0000		9999	1970	2790	0	0
2016/11/23 13:31:00	BASE	16.93	342	19.96	349	3.5	81	0.6	163	660	976.7	NA	0.0000		9999	2260	0	0	0
2016/11/23 13:32:00	BASE	15.55	337	19.96	349	3.6	81	0.7	169	677	976.6	NA	0.0000		9999	1800	2690	0	0
2016/11/23 13:33:00	BASE	15.29	332	19.96	349	3.6	81	0.7	178	702	976.7	NA	0.0000		9999	720	0	0	0
2016/11/23 13:34:00	BASE	14.68	334	19.96	349	3.7	81	0.7	184	722	976.8	NA	0.0000		9999	2590	0	0	0
2016/11/23 13:35:00	BASE	15.00	340	19.34	349	3.7	81	0.8	191	747	976.6	NA	0.0000		9999	2260	0	0	0
2016/11/23 13:36:00	BASE	16.58	342	19.34	349	3.6	82	0.8	196	766	976.6	NA	0.0000		9999	620	0	0	0
2016/11/23 13:37:00	BASE	16.54	344	19.34	349	3.6	82	0.8	203	784	976.6	NA	0.0000		9999	460	2260	0	0
2016/11/23 13:38:00	BASE	15.84	347	19.19	341	3.6	82	0.8	198	766	976.6	NA	0.0000		9999	460	2130	0	0
2016/11/23 13:39:00	BASE	16.26	350	19.19	341	3.5	83	0.9	177	698	976.5	NA	0.0000		9999	590	0	0	0
2016/11/23 13:40:00	BASE	16.00	353	18.88	337	3.5	83	0.9	162	648	976.6	NA	0.0000		9999	430	0	0	0
2016/11/23 13:41:00	BASE	15.92	352	18.88	337	3.4	84	0.9	156	623	976.5	NA	0.0000		9999	690	0	0	0
2016/11/23 13:42:00	BASE	17.11	350	18.88	337	3.4	84	1.0	157	628	976.4	NA	0.0000		9999	660	0	0	0
2016/11/23 13:43:00	BASE	17.46	347	19.03	348	3.3	85	1.0	170	671	976.4	NA	0.0000		9999	590	0	0	0
2016/11/23 13:44:00	BASE	17.52	349	19.03	348	3.3	85	1.0	168	668	976.4	NA	0.0000		9999	460	0	0	0
2016/11/23 13:45:00	BASE	17.66	352	19.03	348	3.3	85	1.0	167	667	976.4	NA	0.0000		9999	1410	0	0	0
2016/11/23 13:46:00	BASE	17.51	357	19.75	353	3.3	85	1.0	161	646	976.4	NA	0.0000		9999	560	0	0	0
2016/11/23 13:47:00	BASE	17.31	1	19.81	350	3.3	85	1.0	152	615	976.4	NA	0.0000		9999	430	1350	0	0
2016/11/23 13:48:00	BASE	17.23	357	19.81	350	3.4	85	1.1	152	613	976.4	NA	0.0000		9999	430	0	0	0
2016/11/23 13:49:00	BASE	17.50	355	19.81	350	3.4	85	1.1	143	581	976.3	NA	0.0000		9999	430	0	0	0
2016/11/23 13:50:00	BASE	17.55	350	19.81	350	3.5	85	1.1	133	551	976.4	NA	0.0000		9999	430	0	0	0
2016/11/23 13:51:00	BASE	17.16	342	19.81	350	3.5	84	1.2	128	535	976.4	NA	0.0000		9999	460	0	0	0
2016/11/23 13:52:00	BASE	16.81	351	19.81	350	3.6	84	1.2	128	535	976.4	NA	0.0000		9999	620	0	0	0
2016/11/23 13:53:00	BASE	16.54	356	19.81	350	3.6	84	1.2	127	530	976.5	NA	0.0000		9999	430	0	0	0
2016/11/23 13:54:00	BASE	15.58	350	19.81	350	3.6	84	1.2	129	533	976.6	NA	0.0000		9999	390	0	0	0
2016/11/23 13:55:00	BASE	15.61	352	19.81	350	3.6	84	1.1	135	557	976.5	NA	0.0000		9999	520	0	0	0
2016/11/23 13:56:00	BASE	16.62	350	19.81	350	3.5	84	1.1	139	569	976.5	NA	0.0000		9999	1480	0	0	0
2016/11/23 13:57:00	BASE	16.73	349	19.50	354	3.5	84	1.1	138	565	976.4	NA	0.0000		9999	1250	0	0	0
2016/11/23 13:58:00	BASE	16.18	348	19.50	354	3.5	84	1.1	128	527	976.5	NA	0.0000		9999	490	0	0	0
2016/11/23 13:59:00	BASE	16.18	350	19.50	354	3.5	84	1.0	122	507	976.4	NA	0.0000		9999	560	0	0	0
2016/11/23 14:00:00	BASE	15.66	352	19.09	352	3.5	84	1.0	119	499	976.6	NA	0.0000		9999	430	0	0	0
2016/11/23 14:01:00	BASE	15.40	352	19.09	352	3.4	84	1.0	117	492	976.6	NA	0.0000		9999	490	0	0	0
2016/11/23 14:02:00	BASE	16.60	353	18.26	348	3.4	84	1.0	112	479	976.5	NA	0.0000		9999	390	0	0	0
2016/11/23 14:03:00	BASE	16.37	350	18.26	348	3.4	85	1.0	113	482	976.5	NA	0.0000		9999	390	0	0	0
2016/11/23 14:04:00	BASE	15.04	346	18.26	348	3.4	85	1.1	115	485	976.6	NA	0.0000		9999	430	0	0	0
2016/11/23 14:05:00	BASE	15.11	349	18.26	348	3.3	85	1.0	108	460	976.5	NA	0.0000		9999	430	0	0	0
2016/11/23 14:06:00	BASE	15.27	347	18.26	348	3.3	85	1.0	108	460	976.6	NA	0.0000		9999	390	0	0	0
2016/11/23 14:07:00	BASE	15.00	343	18.26	348	3.3	85	1.0	110	465	976.5	NA	0.0000		9999	460	0	0	0
2016/11/23 14:08:00	BASE	15.10	346	18.26	348	3.3	85	1.0	114	479	976.6	NA	0.0000		9999	430	0	0	0
2016/11/23 14:09:00	BASE	14.87	345	17.95	354	3.3	85	1.0	114	480	976.6	NA	0.0000		9999	430	1440	0	0
2016/11/23 14:10:00	BASE	14.86	342	17.95	354	3.3	85	1.0	116	484	976.7	NA	0.0000		9999	360	0	0	0
2016/11/23 14:11:00	BASE	14.67	340	17.95	354	3.2	85	1.0	117	485	976.7	NA	0.0000		9999	430	1380	0	0
2016/11/23 14:12:00	BASE	13.94	339	17.49	345	3.2	85	1.0	119	487	976.8	NA	0.0000		9999	430	0	0	0
2016/11/23 14:13:00	BASE	12.73	341	17.49	345	3.2	86	1.0	127	514	976.9	NA	0.0000		9999	430	0	0	0
2016/11/23 14:14:00	BASE	11.78	340	17.49	345	3.1	86	1.0	145	572	977.0	NA	0.0000		9999	390	0	0	0
2016/11/23 14:15:00	BASE	11.53	341	17.49	345	3.1	86	1.0	151	595	977.0	NA	0.0000		9999	390	0	0	0
2016/11/23 14:16:00	BASE	12.00	343	17.49	345	3.0	87	1.0	152	601	976.9	NA	0.0000		9999	390	0	0	0
2016/11/23 14:17:00	BASE	13.26	344	16.41	344	3.0	87	1.0	156	615	976.7	NA	0.0000		9999	360	0	0	0
2016/11/23 14:18:00	BASE	14.61	346	16.41	344	3.0	87	1.1	162	637	976.6	NA	0.0000		9999	430	0	0	0
2016/11/23 14:19:00	BASE	14.48	347	16.41	344	3.0	88	1.2	157	620	976.7	NA	0.0000		9999	390	0	0	0
2016/11/23 14:20:00	BASE	13.70	346	16.41	344	3.0	88	1.2	153	612	976.7	NA	0.0000		9999	390	0	0	0
2016/11/23 14:21:00	BASE	14.34	348	17.23	350	3.0	88	1.2	148	593	976.6	NA	0.0000		9999	360	0	0	0
2016/11/23 14:22:00	BASE	15.41	349	17.23	350	3.0	88	1.2	145	583	976.5	NA	0.0000		9999	390	0	0	0
2016/11/23 14:23:00	BASE	15.19	346	17.23	350	3.0	88	1.2	148	595	976.6	NA	0.0000		9999	390	0	0	0
2016/11/23 14:24:00	BASE	14.38	347	17.23	350	3.0	88	1.2	150	600	976.6	NA	0.0000		9999	430	0	0	0
2016/11/23 14:25:00	BASE	14.36	349	17.23	350	2.9	88	1.1	141	573	976.6	NA	0.0000		9999	390	0	0	0
2016/11/23 14:26:00	BASE	14.18	349	17.23	350	2.9	88	1.1	135	554	976.7	NA	0.0000		9999	590	0	0	0
2016/11/23 14:27:00	BASE	14.07	352	17.23	350	2.9	88	1.1	134	548	976.6	NA	0.0000		9999	430	0	0	0
2016/11/23 14:28:00	BASE	14.25	354	17.23	350	2.8	88	1.0	131	535	976.6	NA	0.0000		9999	330	0	0	0
2016/11/23 14:29:00	BASE	14.73	352	17.23	350	2.8	88	1.0	132	541	976.6	NA	0.0000	UP	9999	1440	0	0	0
2016/11/23 14:30:00	BASE	15.01	350	17.23	350	2.8	88	1.1	138	559	976.6	NA	0.0000	UP	9999	790	22670	0	0
2016/11/23 14:31:00	BASE	14.48	350	16.98	344	2.8	88	1.1	134	544	976.6	NA	0.0000	UP	9999	430	0	0	0
2016/11/23 14:32:00	BASE	14.92	352	16.98	1	2.8	88	1.1	134	547	976.6	NA	0.0000	UP	9999	390	1540	0	0
2016/11/23 14:33:00	BASE	14.42	351	16.98	1	2.9	88	1.1	141	572	976.8	NA	0.0000	UP	9999	820	0	0	0
2016/11/23 14:34:00	BASE	13.50	347	16.98	1	2.9	88	1.1	141	573	976.7	NA	0.0000	UP	9999	390	0	0	0
2016/11/23 14:35:00	BASE	13.12	347	16.98	1	2.9	88	1.1	142	575	976.8	NA	0.0000	UP	9999	360	1640	0	0
2016/11/23 14:36:00	BASE	12.90	348	16.98	1	2.9	88	1.1	139	566	976.8	NA	0.0000	UP	9999	360	0	0	0
2016/11/23 14:37:00	BASE	13.03	347	16.98	1	3.0	88	1.1	132	544	976.8	NA	0.0000	-SN	5000	360	0	0	0
2016/11/23 14:38:00	BASE	13.17	347	16.98	1	3.0	87	1.1	134	546	976.8	NA	0.0000	-SN	8000	330	1540	0	0
2016/11/23 14:39:00	BASE	13.29	345	16.98	1	3.0	87	1.1	134	548	976.8	NA	0.0000	-SN BR	7000	330	0	0	0
2016/11/23 14:40:00	BASE	12.68	344	16.98	1	3.0	87	1.0	139	563	976.9	NA	0.0000	-SN BR	9999	360	0	0	0
2016/11/23 14:41:00	BASE	12.42	345	16.98	1	3.0	87	1.1	143	574	976.9	NA	0.0000	-SN	9999	360	1670	0	0
2016/11/23 14:42:00	BASE	12.94	344	15.33	342	3.0	87	1.2	140	564	976.8	NA	0.0000	-SN BR	9999	360	1640	0	0
2016/11/23 14:43:00	BASE	13.27	345	15.38	345	3.1	88	1.2	137	560	976.9	NA	0.0000	-SN BR	9999	390	0	0	0
2016/11/23 14:44:00	BASE	13.13	347	15.38	345	3.1	88	1.2	136	553	976.9	NA	0.0000	-SN BR	9999	430	0	0	0
2016/11/23 14:45:00	BASE	12.90	349	15.38	345	3.0	88	1.2	131	536	976.9	NA	0.0000	-SN BR	9999	1180	0	0	0
2016/11/23 14:46:00	BASE	12.94	348	15.38	345	3.0	88	1.2	131	537	977.0	NA	0.0000	-SN	9999	560	0	0	0
2016/11/23 14:47:00	BASE	12.65	347	15.38	345	3.0	88	1.1	129	530	977.0	NA	0.0000	-SN	9999	750	0	0	0
2016/11/23 14:48:00	BASE	12.31	347	15.38	345	3.0	88	1.1	124	514	977.0	NA	0.0000	-SN	9999	750	0	0	0
2016/11/23 14:49:00	BASE	12.81	344	15.38	345	3.0	88	1.1	119	498	977.0	NA	0.0000	-SN	9999	430	0	0	0
2016/11/23 14:50:00	BASE	12.97	342	15.38	345	3.0	88	1.1	116	488	977.0	NA	0.0000	-SN	9999	430	0	0	0
2016/11/23 14:51:00	BASE	12.73	343	15.38	345	3.1	87	1.2	117	493	977.0	NA	0.0000	-SN	9999	430	0	0	0
2016/11/23 14:52:00	BASE	12.16	343	15.38	345	3.1	87	1.2	114	482	977.0	NA	0.0000		9999	390	0	0	0
2016/11/23 14:53:00	BASE	12.04	342	14.71	343	3.1	87	1.2	112	476	977.0	NA	0.0000		9999	390	0	0	0
2016/11/23 14:54:00	BASE	12.38	340	14.51	350	3.1	87	1.2	112	477	977.0	NA	0.0000		9999	390	0	0	0
2016/11/23 14:55:00	BASE	11.83	340	14.35	344	3.1	87	1.1	113	481	977.1	NA	0.0000		9999	360	0	0	0
2016/11/23 14:56:00	BASE	11.76	341	14.35	344	3.1	87	1.1	114	485	977.1	NA	0.0000		9999	330	0	0	0
2016/11/23 14:57:00	BASE	11.65	341	14.35	344	3.0	87	1.1	115	488	977.1	NA	0.0000		9999	330	0	0	0
2016/11/23 14:58:00	BASE	11.55	340	14.35	344	3.0	88	1.1	111	473	977.1	NA	0.0000		9999	330	1610	0	0
2016/11/23 14:59:00	BASE	11.56	339	14.04	335	2.9	88	1.1	112	476	977.1	NA	0.0000		9999	330	0	0	0
2016/11/23 15:00:00	BASE	10.65	337	14.04	335	2.9	88	1.1	112	476	977.2	NA	0.0000		9999	360	0	0	0
2016/11/23 15:01:00	BASE	10.47	339	14.04	335	2.9	88	1.1	111	471	977.2	NA	0.0000		9999	390	0	0	0
2016/11/23 15:02:00	BASE	10.31	339	14.04	335	2.9	88	1.1	108	459	977.3	NA	0.0000		9999	590	0	0	0
2016/11/23 15:03:00	BASE	10.06	339	14.04	335	2.9	89	1.2	105	449	977.3	NA	0.0000		9999	590	0	0	0
2016/11/23 15:04:00	BASE	10.84	340	14.04	335	2.8	89	1.1	105	450	977.3	NA	0.2540		9999	490	0	0	0
2016/11/23 15:05:00	BASE	11.68	336	14.04	335	2.8	89	1.2	104	446	977.3	NA	0.0000		9999	460	0	0	0
2016/11/23 15:06:00	BASE	11.84	336	13.17	334	2.8	89	1.2	102	442	977.3	NA	0.0000		9999	430	0	0	0
2016/11/23 15:07:00	BASE	12.56	341	14.10	347	2.8	89	1.2	99	434	977.2	NA	0.0000		9999	430	0	0	0
2016/11/23 15:08:00	BASE	13.14	344	14.15	347	2.8	89	1.1	100	438	977.2	NA	0.0000		9999	360	0	0	0
2016/11/23 15:09:00	BASE	12.31	342	14.15	347	2.9	88	1.1	103	447	977.3	NA	0.0000		9999	390	0	0	0
2016/11/23 15:10:00	BASE	11.68	337	14.15	347	2.9	88	1.1	102	444	977.3	NA	0.0000		9999	430	0	0	0
2016/11/23 15:11:00	BASE	11.00	336	14.15	347	2.9	88	1.1	101	439	977.4	NA	0.0000		9999	390	0	0	0
2016/11/23 15:12:00	BASE	11.32	340	14.15	347	2.8	88	1.1	102	442	977.3	NA	0.0000		9999	390	0	0	0
2016/11/23 15:13:00	BASE	12.22	341	14.15	347	2.8	89	1.1	106	456	977.3	NA	0.0000		9999	360	0	0	0
2016/11/23 15:14:00	BASE	11.90	340	14.15	347	2.8	89	1.2	101	438	977.3	NA	0.0000		9999	390	0	0	0
2016/11/23 15:15:00	BASE	12.12	341	14.15	347	2.8	89	1.2	103	442	977.3	NA	0.0000		9999	390	0	0	0
2016/11/23 15:16:00	BASE	13.00	343	14.71	345	2.8	90	1.3	109	465	977.3	NA	0.0000		9999	390	0	0	0
2016/11/23 15:17:00	BASE	13.02	343	14.71	345	2.8	90	1.3	108	464	977.3	NA	0.0000		9999	390	0	0	0
2016/11/23 15:18:00	BASE	12.60	342	14.71	345	2.8	90	1.3	103	448	977.3	NA	0.0000		9999	390	0	0	0
2016/11/23 15:19:00	BASE	12.18	341	14.71	345	2.8	90	1.3	103	447	977.3	NA	0.0000		9999	360	0	0	0
2016/11/23 15:20:00	BASE	11.83	340	14.71	345	2.8	90	1.3	107	461	977.3	NA	0.0000		9999	360	0	0	0
2016/11/23 15:21:00	BASE	11.52	339	14.71	345	2.8	90	1.3	110	472	977.3	NA	0.0000		9999	360	0	0	0
2016/11/23 15:22:00	BASE	11.45	338	14.71	345	2.8	90	1.3	109	471	977.3	NA	0.0000	UP	9999	360	0	0	0
2016/11/23 15:23:00	BASE	11.96	341	14.71	345	2.7	91	1.3	109	468	977.3	NA	0.0000	UP	9999	330	0	0	0
2016/11/23 15:24:00	BASE	11.72	341	14.71	345	2.7	91	1.4	112	478	977.4	NA	0.0000	UP	9999	360	0	0	0
2016/11/23 15:25:00	BASE	10.98	341	14.71	345	2.7	91	1.4	116	489	977.4	NA	0.0000	UP	9999	390	0	0	0
2016/11/23 15:26:00	BASE	11.08	339	14.15	332	2.7	91	1.4	117	496	977.4	NA	0.0000	UP	9999	1020	0	0	0
2016/11/23 15:27:00	BASE	11.48	338	14.15	332	2.7	91	1.4	117	490	977.4	NA	0.0000	UP	9999	850	0	0	0
2016/11/23 15:28:00	BASE	11.58	338	14.15	332	2.7	91	1.3	114	480	977.3	NA	0.0000	UP	9999	390	0	0	0
2016/11/23 15:29:00	BASE	11.87	340	14.15	332	2.7	91	1.3	111	471	977.4	NA	0.0000	UP	9999	1310	0	0	0
2016/11/23 15:30:00	BASE	11.82	339	14.15	332	2.7	90	1.2	110	468	977.4	NA	0.0000	UP	9999	360	21100	0	0
2016/11/23 15:31:00	BASE	11.59	335	14.15	332	2.7	90	1.2	110	467	977.4	NA	0.0000	UP	9999	390	0	0	0
2016/11/23 15:32:00	BASE	11.37	335	14.15	332	2.7	89	1.1	113	479	977.4	NA	0.0000	UP	9999	430	0	0	0
2016/11/23 15:33:00	BASE	11.44	337	13.43	345	2.7	89	1.1	112	472	977.4	NA	0.0000	UP	9999	430	0	0	0
2016/11/23 15:34:00	BASE	12.35	340	14.71	337	2.7	89	1.1	112	473	977.4	NA	0.2540	UP	9999	460	0	0	0
2016/11/23 15:35:00	BASE	12.92	340	14.71	337	2.8	89	1.2	115	481	977.3	NA	0.0000	UP	9999	390	0	0	0
2016/11/23 15:36:00	BASE	12.50	337	14.71	337	2.8	89	1.2	115	486	977.4	NA	0.0000	UP	9999	360	0	0	0
2016/11/23 15:37:00	BASE	11.69	337	14.71	337	2.8	89	1.2	113	478	977.4	NA	0.0000	UP	9999	360	0	0	0
2016/11/23 15:38:00	BASE	11.38	341	14.71	337	2.8	89	1.2	110	469	977.4	NA	0.0000	UP	9999	330	0	0	0
2016/11/23 15:39:00	BASE	11.83	340	14.71	337	2.8	89	1.2	111	469	977.4	NA	0.0000	UP	9999	300	1210	0	0
2016/11/23 15:40:00	BASE	12.31	340	14.71	337	2.7	89	1.1	108	462	977.4	NA	0.0000	UP	9999	300	0	0	0
2016/11/23 15:41:00	BASE	12.22	341	14.71	337	2.7	90	1.2	106	454	977.4	NA	0.0000	UP	9999	260	0	0	0
2016/11/23 15:42:00	BASE	11.39	340	14.71	337	2.6	90	1.2	100	433	977.5	NA	0.0000	UP	9999	260	1250	0	0
2016/11/23 15:43:00	BASE	11.48	339	14.71	337	2.6	91	1.2	91	401	977.4	NA	0.0000	UP	9999	330	0	0	0
2016/11/23 15:44:00	BASE	11.60	337	14.51	338	2.6	91	1.2	88	388	977.5	NA	0.0000	UP	9999	430	0	0	0
2016/11/23 15:45:00	BASE	11.23	335	14.35	336	2.5	91	1.3	87	383	977.5	NA	0.0000	UP	9999	460	0	0	0
2016/11/23 15:46:00	BASE	11.35	336	13.94	339	2.5	92	1.3	87	383	977.5	NA	0.0000	UP	9999	460	0	0	0
2016/11/23 15:47:00	BASE	11.19	339	13.94	339	2.5	92	1.3	84	374	977.6	NA	0.0000	UP	9999	390	0	0	0
2016/11/23 15:48:00	BASE	11.50	340	13.94	339	2.5	92	1.3	84	373	977.5	NA	0.0000	UP	9999	360	0	0	0
2016/11/23 15:49:00	BASE	11.81	338	13.74	341	2.5	92	1.3	85	376	977.6	NA	0.0000	UP	9999	390	0	0	0
2016/11/23 15:50:00	BASE	11.45	337	13.74	341	2.5	92	1.3	87	385	977.6	NA	0.0000	UP	9999	360	0	0	0
2016/11/23 15:51:00	BASE	10.93	339	13.27	334	2.5	92	1.3	91	398	977.7	NA	0.0000		9999	330	0	0	0
2016/11/23 15:52:00	BASE	10.40	335	13.27	334	2.5	92	1.3	93	406	977.6	NA	0.0000		9999	300	0	0	0
2016/11/23 15:53:00	BASE	10.47	333	13.17	332	2.5	92	1.3	100	433	977.7	NA	0.0000		9999	330	0	0	0
2016/11/23 15:54:00	BASE	10.49	338	13.17	332	2.5	92	1.3	103	445	977.7	NA	0.0000		9999	300	0	0	0
2016/11/23 15:55:00	BASE	10.59	339	13.17	332	2.4	92	1.2	103	447	977.7	NA	0.0000		9999	260	0	0	0
2016/11/23 15:56:00	BASE	10.86	340	13.17	332	2.4	92	1.2	102	445	977.7	NA	0.0000		9999	260	0	0	0
2016/11/23 15:57:00	BASE	10.29	338	13.17	332	2.3	92	1.2	96	421	977.7	NA	0.0000		9999	260	0	0	0
2016/11/23 15:58:00	BASE	9.80	335	13.17	332	2.3	92	1.2	92	409	977.8	NA	0.2540		9999	300	0	0	0
2016/11/23 15:59:00	BASE	9.46	335	13.17	332	2.3	93	1.2	89	394	977.8	NA	0.0000		9999	300	0	0	0
2016/11/23 16:00:00	BASE	10.06	335	12.55	324	2.3	93	1.2	89	394	977.8	NA	0.0000		9999	300	0	0	0
2016/11/23 16:01:00	BASE	10.42	334	12.55	324	2.2	93	1.2	90	396	977.8	NA	0.0000		9999	300	0	0	0
2016/11/23 16:02:00	BASE	9.88	333	12.55	324	2.2	93	1.2	91	400	977.8	NA	0.0000		9999	330	0	0	0
2016/11/23 16:03:00	BASE	9.25	334	12.55	324	2.2	94	1.3	93	404	977.9	NA	0.0000		9999	330	0	0	0
2016/11/23 16:04:00	BASE	9.05	333	12.55	324	2.2	94	1.3	95	413	977.8	NA	0.0000		9999	330	0	0	0
2016/11/23 16:05:00	BASE	9.86	333	12.55	324	2.1	94	1.3	94	409	977.7	NA	0.0000		9999	330	0	0	0
2016/11/23 16:06:00	BASE	9.78	336	12.55	324	2.1	94	1.3	97	421	977.9	NA	0.0000		9999	330	0	0	0
2016/11/23 16:07:00	BASE	9.11	337	12.55	324	2.1	94	1.3	100	428	977.9	NA	0.0000		9999	360	0	0	0
2016/11/23 16:08:00	BASE	9.71	337	12.55	324	2.1	94	1.3	102	436	977.9	NA	0.0000		9999	300	0	0	0
2016/11/23 16:09:00	BASE	10.05	336	12.55	324	2.1	94	1.3	103	441	977.9	NA	0.0000		9999	330	0	0	0
2016/11/23 16:10:00	BASE	8.99	334	11.52	338	2.2	94	1.3	103	440	977.9	NA	0.0000		9999	300	0	0	0
2016/11/23 16:11:00	BASE	8.75	334	11.52	338	2.2	94	1.3	104	444	978.0	NA	0.0000		9999	300	0	0	0
2016/11/23 16:12:00	BASE	9.42	336	11.52	338	2.2	94	1.3	102	435	977.9	NA	0.0000		9999	300	0	0	0
2016/11/23 16:13:00	BASE	9.59	336	11.52	338	2.2	94	1.3	100	427	978.0	NA	0.0000		9999	300	0	0	0
2016/11/23 16:14:00	BASE	9.69	335	11.52	338	2.2	94	1.3	100	428	978.0	NA	0.0000		9999	300	0	0	0
2016/11/23 16:15:00	BASE	9.93	335	11.52	338	2.2	94	1.3	99	426	978.0	NA	0.0000		9999	300	0	0	0
2016/11/23 16:16:00	BASE	9.71	335	11.52	338	2.2	94	1.3	97	419	978.1	NA	0.0000		9999	300	0	0	0
2016/11/23 16:17:00	BASE	8.65	335	11.52	338	2.1	94	1.3	99	424	978.1	NA	0.0000		9999	330	0	0	0
2016/11/23 16:18:00	BASE	8.14	333	11.06	332	2.1	94	1.3	102	436	978.2	NA	0.0000		9999	330	0	0	0
2016/11/23 16:19:00	BASE	8.50	335	10.91	327	2.1	94	1.3	105	449	978.2	NA	0.0000		9999	330	0	0	0
2016/11/23 16:20:00	BASE	8.57	335	10.91	327	2.0	95	1.2	109	463	978.2	NA	0.0000		9999	300	0	0	0
2016/11/23 16:21:00	BASE	8.50	330	10.91	327	2.0	95	1.2	111	468	978.2	NA	0.0000		9999	300	0	0	0
2016/11/23 16:22:00	BASE	8.34	330	10.91	327	1.9	95	1.2	112	473	978.2	NA	0.0000		9999	300	0	0	0
2016/11/23 16:23:00	BASE	8.26	332	10.91	327	1.9	95	1.2	110	466	978.2	NA	0.0000		9999	300	0	0	0
2016/11/23 16:24:00	BASE	8.32	335	10.75	332	1.8	96	1.2	110	462	978.3	NA	0.0000		9999	300	0	0	0
2016/11/23 16:25:00	BASE	8.60	337	10.34	329	1.8	96	1.2	107	450	978.2	NA	0.0000		9999	360	0	0	0
2016/11/23 16:26:00	BASE	8.83	333	9.88	345	1.8	96	1.2	103	431	978.2	NA	0.0000		9999	360	0	0	0
2016/11/23 16:27:00	BASE	8.52	332	9.88	345	1.8	96	1.2	96	405	978.3	NA	0.0000		9999	360	0	0	0
2016/11/23 16:28:00	BASE	8.87	334	10.91	334	1.8	96	1.3	96	402	978.3	NA	0.0000		9999	360	0	0	0
2016/11/23 16:29:00	BASE	9.27	331	11.01	325	1.8	96	1.3	96	404	978.3	NA	0.0000		9999	330	0	0	0
2016/11/23 16:30:00	BASE	9.19	330	11.01	325	1.8	97	1.3	98	409	978.3	NA	0.0000		9999	330	0	0	0
2016/11/23 16:31:00	BASE	9.28	332	11.01	325	1.8	97	1.3	99	415	978.3	NA	0.0000		9999	300	0	0	0
2016/11/23 16:32:00	BASE	9.36	331	11.01	325	1.8	97	1.3	117	475	978.3	NA	0.0000		9999	300	0	0	0
2016/11/23 16:33:00	BASE	8.81	333	11.01	325	1.7	97	1.3	104	427	978.4	NA	0.0000		9999	330	0	0	0
2016/11/23 16:34:00	BASE	8.34	334	11.01	325	1.7	97	1.3	106	437	978.3	NA	0.0000		9999	330	0	0	0
2016/11/23 16:35:00	BASE	8.66	332	11.01	325	1.7	97	1.3	110	456	978.3	NA	0.0000		9999	330	0	0	0
2016/11/23 16:36:00	BASE	9.40	331	11.01	325	1.7	97	1.3	111	457	978.3	NA	0.0000		9999	300	0	0	0
2016/11/23 16:37:00	BASE	9.77	327	11.01	325	1.7	97	1.2	122	491	978.3	NA	0.0000		9999	330	0	0	0
2016/11/23 16:38:00	BASE	9.16	325	11.01	325	1.6	97	1.2	130	516	978.3	NA	0.0000		9999	330	0	0	0
2016/11/23 16:39:00	BASE	8.35	328	11.01	325	1.6	97	1.2	129	512	978.4	NA	0.0000		9999	390	0	0	0
2016/11/23 16:40:00	BASE	8.53	329	11.01	325	1.6	97	1.2	126	498	978.4	NA	0.0000		9999	390	0	0	0
2016/11/23 16:41:00	BASE	9.37	329	11.01	325	1.6	97	1.1	129	509	978.3	NA	0.0000		9999	430	0	0	0
2016/11/23 16:42:00	BASE	9.22	334	11.01	325	1.5	97	1.2	128	506	978.4	NA	0.0000		9999	390	0	0	0
2016/11/23 16:43:00	BASE	9.59	333	11.16	325	1.6	97	1.2	126	498	978.3	NA	0.0000		9999	360	0	0	0
2016/11/23 16:44:00	BASE	10.23	330	11.16	325	1.6	98	1.3	120	479	978.3	NA	0.0000		9999	390	0	0	0
2016/11/23 16:45:00	BASE	9.80	331	11.16	325	1.6	98	1.3	117	467	978.4	NA	0.0000		9999	430	0	0	0
2016/11/23 16:46:00	BASE	9.08	335	11.16	325	1.6	98	1.4	120	478	978.5	NA	0.0000		9999	490	0	0	0
2016/11/23 16:47:00	BASE	8.69	337	11.16	325	1.6	98	1.4	123	488	978.4	NA	0.0000		9999	460	0	0	0
2016/11/23 16:48:00	BASE	8.39	335	11.16	325	1.6	98	1.4	122	485	978.5	NA	0.0000		9999	520	0	0	0
2016/11/23 16:49:00	BASE	8.27	336	11.16	325	1.6	98	1.3	127	500	978.5	NA	0.0000		9999	660	0	0	0
2016/11/23 16:50:00	BASE	8.15	334	11.16	325	1.6	98	1.3	122	482	978.5	NA	0.0000		9999	620	0	0	0
2016/11/23 16:51:00	BASE	8.38	328	11.16	325	1.6	98	1.3	123	485	978.5	NA	0.0000		9999	620	0	0	0
2016/11/23 16:52:00	BASE	8.70	328	11.16	325	1.6	98	1.3	121	478	978.5	NA	0.0000		9999	620	0	0	0
2016/11/23 16:53:00	BASE	8.58	332	10.91	335	1.6	98	1.3	112	446	978.5	NA	0.0000		9999	620	0	0	0
2016/11/23 16:54:00	BASE	8.45	334	10.65	332	1.6	98	1.3	117	467	978.6	NA	0.0000		9999	720	0	0	0
2016/11/23 16:55:00	BASE	8.06	333	10.55	329	1.6	98	1.3	111	442	978.6	NA	0.0000		9999	850	0	0	0
2016/11/23 16:56:00	BASE	8.23	333	10.29	328	1.6	98	1.3	113	449	978.6	NA	0.0000		9999	690	0	0	0
2016/11/23 16:57:00	BASE	9.04	332	10.29	328	1.6	98	1.3	112	444	978.6	NA	0.0000		9999	660	0	0	0
2016/11/23 16:58:00	BASE	9.45	331	10.29	333	1.6	98	1.3	106	423	978.6	NA	0.0000		9999	750	0	0	0
2016/11/23 16:59:00	BASE	9.35	330	10.29	333	1.6	98	1.3	115	455	978.6	NA	0.0000		9999	720	0	0	0
2016/11/23 17:00:00	BASE	9.14	331	10.29	333	1.6	98	1.3	108	432	978.7	NA	0.0000		9999	690	0	0	0
2016/11/23 17:01:00	BASE	8.87	332	10.34	334	1.6	98	1.3	100	406	978.7	NA	0.0000		9999	790	0	0	0
2016/11/23 17:02:00	BASE	8.03	335	10.34	334	1.6	98	1.3	98	402	978.7	NA	0.0000		9999	690	0	0	0
2016/11/23 17:03:00	BASE	7.42	334	10.34	334	1.7	97	1.3	116	461	978.7	NA	0.0000		9999	690	0	0	0
2016/11/23 17:04:00	BASE	7.31	328	10.34	334	1.7	97	1.3	121	478	978.7	NA	0.0000		9999	720	0	0	0
2016/11/23 17:05:00	BASE	7.61	327	10.34	334	1.7	97	1.3	128	504	978.7	NA	0.0000		9999	690	0	0	0
2016/11/23 17:06:00	BASE	8.03	330	10.34	334	1.7	97	1.2	131	518	978.7	NA	0.0000		9999	720	0	0	0
2016/11/23 17:07:00	BASE	7.80	330	10.34	334	1.6	97	1.2	129	511	978.8	NA	0.0000		9999	790	0	0	0
2016/11/23 17:08:00	BASE	7.89	328	10.34	334	1.6	97	1.2	123	491	978.8	NA	0.0000		9999	750	0	0	0
2016/11/23 17:09:00	BASE	7.69	331	10.34	334	1.6	97	1.2	119	474	978.8	NA	0.0000		9999	750	0	0	0
2016/11/23 17:10:00	BASE	7.56	331	10.34	334	1.6	97	1.2	116	464	978.9	NA	0.0000		9999	820	0	0	0
2016/11/23 17:11:00	BASE	7.70	329	9.62	331	1.6	97	1.2	120	478	978.9	NA	0.0000		9999	820	0	0	0
2016/11/23 17:12:00	BASE	7.86	330	9.62	331	1.6	97	1.2	118	470	978.9	NA	0.0000		9999	820	0	0	0
2016/11/23 17:13:00	BASE	7.98	328	9.62	331	1.6	97	1.1	115	456	978.9	NA	0.0000		9999	920	0	0	0
2016/11/23 17:14:00	BASE	7.97	325	9.62	325	1.5	97	1.1	110	439	978.9	NA	0.0000		9999	820	0	0	0
2016/11/23 17:15:00	BASE	8.94	324	10.55	319	1.5	97	1.1	109	435	978.9	NA	0.0000		9999	750	0	0	0
2016/11/23 17:16:00	BASE	8.82	326	10.55	319	1.5	97	1.1	110	440	978.9	NA	0.0000		9999	750	0	0	0
2016/11/23 17:17:00	BASE	8.46	326	10.55	319	1.5	97	1.1	108	431	978.9	NA	0.0000		9999	750	0	0	0
2016/11/23 17:18:00	BASE	8.63	321	10.55	319	1.5	97	1.0	99	402	979.0	NA	0.0000		9999	790	0	0	0
2016/11/23 17:19:00	BASE	8.49	320	10.55	319	1.5	96	1.0	99	399	979.0	NA	0.0000		9999	720	0	0	0
2016/11/23 17:20:00	BASE	8.69	321	10.55	319	1.5	96	1.0	99	398	979.0	NA	0.0000		9999	750	0	0	0
2016/11/23 17:21:00	BASE	8.62	318	10.55	319	1.5	96	0.9	98	395	979.0	NA	0.0000		9999	750	0	0	0
2016/11/23 17:22:00	BASE	8.70	317	10.55	319	1.5	96	0.9	107	429	979.0	NA	0.0000		9999	750	0	0	0
2016/11/23 17:23:00	BASE	8.20	320	10.55	319	1.5	96	0.9	117	461	979.0	NA	0.0000		9999	750	0	0	0
2016/11/23 17:24:00	BASE	7.88	322	10.55	319	1.4	96	0.9	128	501	979.0	NA	0.0000		9999	720	0	0	0
2016/11/23 17:25:00	BASE	8.27	321	10.29	320	1.4	96	0.8	118	467	979.0	NA	0.0000		9999	790	0	0	0
2016/11/23 17:26:00	BASE	8.40	320	10.29	320	1.4	96	0.8	111	445	979.1	NA	0.0000		9999	750	0	0	0
2016/11/23 17:27:00	BASE	7.90	316	9.98	313	1.4	96	0.8	115	461	979.1	NA	0.0000		9999	790	0	0	0
2016/11/23 17:28:00	BASE	7.50	318	9.98	313	1.4	96	0.8	119	475	979.1	NA	0.0000		9999	790	0	0	0
2016/11/23 17:29:00	BASE	8.36	322	9.98	313	1.4	96	0.9	118	468	979.1	NA	0.0000		9999	720	0	0	0
2016/11/23 17:30:00	BASE	9.12	325	9.98	313	1.4	96	0.9	131	511	979.1	NA	0.0000		9999	750	0	0	0
2016/11/23 17:31:00	BASE	9.42	325	10.24	326	1.4	96	0.9	143	546	979.1	NA	0.0000		9999	790	0	0	0
2016/11/23 17:32:00	BASE	9.40	322	10.24	326	1.4	96	0.9	146	555	979.1	NA	0.0000		9999	980	0	0	0
2016/11/23 17:33:00	BASE	8.59	320	10.24	326	1.4	96	0.8	142	542	979.1	NA	0.0000		9999	750	0	0	0
2016/11/23 17:34:00	BASE	8.49	318	10.24	326	1.4	96	0.8	144	547	979.1	NA	0.0000		9999	690	0	0	0
2016/11/23 17:35:00	BASE	8.74	317	10.24	326	1.4	96	0.8	159	593	979.1	NA	0.0000		9999	720	0	0	0
2016/11/23 17:36:00	BASE	8.79	318	10.24	320	1.4	96	0.8	160	602	979.1	NA	0.0000		9999	750	0	0	0
2016/11/23 17:37:00	BASE	8.98	317	10.24	320	1.4	96	0.8	170	635	979.1	NA	0.0000		9999	720	1380	0	0
2016/11/23 17:38:00	BASE	8.76	318	10.24	320	1.4	96	0.8	171	636	979.1	NA	0.0000		9999	720	1380	0	0
2016/11/23 17:39:00	BASE	8.22	321	10.24	320	1.4	96	0.8	175	649	979.2	NA	0.0000		9999	850	20380	0	0
2016/11/23 17:40:00	BASE	8.16	323	10.24	320	1.4	96	0.8	161	604	979.2	NA	0.0000		9999	1250	1940	0	0
2016/11/23 17:41:00	BASE	8.41	324	10.24	320	1.4	96	0.8	161	603	979.2	NA	0.0000		9999	890	0	0	0
2016/11/23 17:42:00	BASE	8.43	323	10.24	320	1.4	96	0.8	154	583	979.2	NA	0.0000		9999	890	1570	0	0
2016/11/23 17:43:00	BASE	8.63	325	10.24	320	1.3	96	0.8	151	576	979.2	NA	0.0000		9999	1020	0	0	0
2016/11/23 17:44:00	BASE	8.39	324	10.24	320	1.3	96	0.7	145	558	979.2	NA	0.0000		9999	980	0	0	0
2016/11/23 17:45:00	BASE	8.15	321	10.24	320	1.3	96	0.7	149	568	979.2	NA	0.0000		9999	950	0	0	0
2016/11/23 17:46:00	BASE	8.35	320	9.93	308	1.3	96	0.7	146	558	979.1	NA	0.0000		9999	980	0	0	0
2016/11/23 17:47:00	BASE	8.46	319	9.88	329	1.3	96	0.7	149	571	979.2	NA	0.0000		9999	950	0	0	0
2016/11/23 17:48:00	BASE	8.64	320	9.88	329	1.3	96	0.8	159	605	979.2	NA	0.0000		9999	920	0	0	0
2016/11/23 17:49:00	BASE	8.84	321	10.24	319	1.4	96	0.8	176	658	979.2	NA	0.0000		9999	890	0	0	0
2016/11/23 17:50:00	BASE	8.84	322	10.24	319	1.4	96	0.8	173	643	979.2	NA	0.0000		9999	890	0	0	0
2016/11/23 17:51:00	BASE	9.04	323	10.24	321	1.4	96	0.8	181	664	979.1	NA	0.0000		9999	980	23130	0	0
2016/11/23 17:52:00	BASE	8.86	322	10.24	321	1.4	95	0.8	183	670	979.2	NA	0.0000		9999	1050	2170	0	0
2016/11/23 17:53:00	BASE	8.31	321	10.24	321	1.4	95	0.7	185	674	979.2	NA	0.0000		9999	1050	2200	0	0
2016/11/23 17:54:00	BASE	8.48	322	10.24	321	1.4	95	0.7	182	666	979.2	NA	0.0000		9999	850	1310	0	0
2016/11/23 17:55:00	BASE	8.63	324	10.24	321	1.4	95	0.7	182	662	979.2	NA	0.0000		9999	1080	2230	0	0
2016/11/23 17:56:00	BASE	8.42	323	10.24	321	1.4	95	0.7	172	633	979.2	NA	0.0000		9999	980	2230	0	0
2016/11/23 17:57:00	BASE	8.07	322	10.24	321	1.4	95	0.7	172	636	979.2	NA	0.0000		9999	750	2260	0	0
2016/11/23 17:58:00	BASE	7.89	323	10.24	321	1.4	95	0.7	171	636	979.2	NA	0.0000		9999	890	2300	0	0
2016/11/23 17:59:00	BASE	8.09	324	10.24	321	1.4	95	0.7	169	629	979.2	NA	0.0000		9999	720	1310	0	0
2016/11/23 18:00:00	BASE	8.16	321	10.24	321	1.4	95	0.7	165	616	979.3	NA	0.0000		9999	950	0	0	0
2016/11/23 18:01:00	BASE	8.00	318	9.41	318	1.4	95	0.7	158	595	979.3	NA	0.0000		9999	890	0	0	0
2016/11/23 18:02:00	BASE	8.00	319	9.41	318	1.4	95	0.6	139	537	979.3	NA	0.0000		9999	750	0	0	0
2016/11/23 18:03:00	BASE	8.28	319	9.41	318	1.3	95	0.6	129	502	979.3	NA	0.0000		9999	790	0	0	0
2016/11/23 18:04:00	BASE	8.50	320	9.41	318	1.3	95	0.6	120	471	979.3	NA	0.0000		9999	850	0	0	0
2016/11/23 18:05:00	BASE	8.26	322	9.21	320	1.3	95	0.6	120	471	979.3	NA	0.0000		9999	750	0	0	0
2016/11/23 18:06:00	BASE	8.14	322	9.21	320	1.4	95	0.6	123	481	979.3	NA	0.0000		9999	790	0	0	0
2016/11/23 18:07:00	BASE	8.31	321	9.21	321	1.4	95	0.7	124	484	979.3	NA	0.0000		9999	790	0	0	0
2016/11/23 18:08:00	BASE	8.63	318	9.52	311	1.4	95	0.7	128	495	979.3	NA	0.0000		9999	750	0	0	0
2016/11/23 18:09:00	BASE	8.57	317	9.52	311	1.4	95	0.6	141	534	979.3	NA	0.0000		9999	720	0	0	0
2016/11/23 18:10:00	BASE	8.28	318	9.52	311	1.3	95	0.6	160	594	979.3	NA	0.0000		9999	850	0	0	0
2016/11/23 18:11:00	BASE	8.06	321	9.52	311	1.3	95	0.6	169	622	979.3	NA	0.0000		9999	790	2460	0	0
2016/11/23 18:12:00	BASE	7.85	323	9.52	311	1.3	95	0.6	189	684	979.3	NA	0.0000		9999	750	0	0	0
2016/11/23 18:13:00	BASE	7.79	321	9.52	311	1.3	95	0.6	190	686	979.4	NA	0.0000		9999	720	2360	0	0
2016/11/23 18:14:00	BASE	7.72	317	9.52	311	1.3	95	0.5	188	681	979.5	NA	0.0000		9999	720	0	0	0
2016/11/23 18:15:00	BASE	7.75	315	9.52	311	1.2	95	0.5	194	702	979.5	NA	0.0000		9999	720	0	0	0
2016/11/23 18:16:00	BASE	7.73	314	9.52	311	1.2	95	0.5	198	716	979.5	NA	0.0000		9999	690	0	0	0
2016/11/23 18:17:00	BASE	7.96	314	9.52	311	1.2	95	0.5	187	692	979.5	NA	0.0000		9999	720	0	0	0
2016/11/23 18:18:00	BASE	8.10	315	9.11	316	1.2	95	0.5	178	672	979.4	NA	0.0000		9999	750	0	0	0
2016/11/23 18:19:00	BASE	8.21	317	9.41	315	1.2	95	0.5	211	777	979.4	NA	0.0000		9999	660	0	0	0
2016/11/23 18:20:00	BASE	8.20	317	9.52	327	1.2	95	0.5	246	874	979.4	NA	0.0000		9999	660	0	0	0
2016/11/23 18:21:00	BASE	8.35	316	9.57	319	1.2	95	0.5	250	872	979.4	NA	0.0000		9999	690	0	0	0
2016/11/23 18:22:00	BASE	8.97	318	10.08	328	1.2	95	0.5	223	790	979.3	NA	0.0000		9999	690	1180	0	0
2016/11/23 18:23:00	BASE	9.70	320	10.70	314	1.2	95	0.5	219	784	979.3	NA	0.0000		9999	920	3310	0	0
2016/11/23 18:24:00	BASE	9.62	321	10.70	314	1.3	95	0.5	251	883	979.4	NA	0.0000		9999	920	2360	0	0
2016/11/23 18:25:00	BASE	9.00	321	10.70	314	1.3	95	0.6	274	957	979.4	NA	0.0000		9999	2360	3310	0	0
2016/11/23 18:26:00	BASE	8.76	322	10.70	314	1.3	95	0.6	280	980	979.4	NA	0.0000		9999	890	2400	0	0
2016/11/23 18:27:00	BASE	9.06	324	10.70	314	1.3	95	0.5	276	965	979.3	NA	0.0000		9999	750	1210	0	0
2016/11/23 18:28:00	BASE	9.22	324	10.70	314	1.3	94	0.5	269	945	979.3	NA	0.0000		9999	980	2360	0	0
2016/11/23 18:29:00	BASE	8.88	323	10.70	314	1.3	94	0.5	258	911	979.3	NA	0.0000		9999	1080	2360	0	0
2016/11/23 18:30:00	BASE	9.20	324	10.70	314	1.3	94	0.4	261	919	979.3	NA	0.0000		9999	1180	2400	0	0
2016/11/23 18:31:00	BASE	9.14	324	10.70	314	1.3	94	0.4	270	947	979.3	NA	0.0000		9999	1180	2430	0	0
2016/11/23 18:32:00	BASE	8.80	324	10.70	314	1.3	94	0.4	282	981	979.3	NA	0.0000		9999	2460	3410	0	0
2016/11/23 18:33:00	BASE	9.07	324	10.44	322	1.3	94	0.4	266	931	979.3	NA	0.0000		9999	2460	3180	0	0
2016/11/23 18:34:00	BASE	9.05	322	10.44	322	1.3	94	0.5	237	843	979.4	NA	0.0000		9999	1280	2490	0	0
2016/11/23 18:35:00	BASE	8.63	321	10.44	322	1.3	94	0.5	229	823	979.4	NA	0.0000		9999	2460	3410	0	0
2016/11/23 18:36:00	BASE	8.31	322	10.44	322	1.3	94	0.5	226	818	979.5	NA	0.0000		9999	1280	2530	0	0
2016/11/23 18:37:00	BASE	8.02	321	10.19	330	1.3	94	0.4	212	777	979.5	NA	0.0000		9999	1280	2530	0	0
2016/11/23 18:38:00	BASE	8.00	321	10.08	325	1.3	94	0.4	205	752	979.5	NA	0.0000		9999	890	0	0	0
2016/11/23 18:39:00	BASE	8.06	320	10.08	325	1.3	93	0.3	201	739	979.5	NA	0.0000		9999	1250	2490	0	0
2016/11/23 18:40:00	BASE	8.10	319	10.08	325	1.3	93	0.3	200	734	979.5	NA	0.0000		9999	920	0	0	0
2016/11/23 18:41:00	BASE	8.64	320	10.08	325	1.3	93	0.3	174	651	979.5	NA	0.0000		9999	1250	2530	0	0
2016/11/23 18:42:00	BASE	8.58	321	10.08	325	1.3	93	0.3	161	608	979.5	NA	0.0000		9999	1180	0	0	0
2016/11/23 18:43:00	BASE	7.69	319	9.67	320	1.3	93	0.3	166	622	979.5	NA	0.0000		9999	1050	0	0	0
2016/11/23 18:44:00	BASE	7.58	320	9.67	320	1.3	93	0.3	177	660	979.5	NA	0.0000		9999	1080	2560	0	0
2016/11/23 18:45:00	BASE	7.59	320	9.67	320	1.3	93	0.3	198	729	979.5	NA	0.0000		9999	1020	2560	0	0
2016/11/23 18:46:00	BASE	7.43	320	9.67	320	1.3	93	0.3	205	756	979.5	NA	0.0000		9999	1020	0	0	0
2016/11/23 18:47:00	BASE	7.31	321	9.67	320	1.3	93	0.3	200	745	979.5	NA	0.0000		9999	1020	0	0	0
2016/11/23 18:48:00	BASE	7.20	322	9.67	320	1.3	93	0.2	193	722	979.6	NA	0.0000		9999	1050	0	0	0
2016/11/23 18:49:00	BASE	7.57	322	9.67	320	1.3	92	0.2	185	700	979.5	NA	0.0000		9999	1050	0	0	0
2016/11/23 18:50:00	BASE	8.03	322	9.67	320	1.3	92	0.2	184	693	979.5	NA	0.0000		9999	1020	0	0	0
2016/11/23 18:51:00	BASE	8.10	323	9.16	322	1.3	92	0.1	179	677	979.6	NA	0.0000		9999	1150	2620	0	0
2016/11/23 18:52:00	BASE	7.94	322	9.16	322	1.3	92	0.1	182	683	979.6	NA	0.0000		9999	1180	0	0	0
2016/11/23 18:53:00	BASE	7.83	323	9.16	322	1.3	92	0.1	196	723	979.6	NA	0.0000		9999	1250	0	0	0
2016/11/23 18:54:00	BASE	7.72	326	9.16	322	1.3	92	0.1	198	729	979.6	NA	0.0000		9999	1280	2000	0	0
2016/11/23 18:55:00	BASE	7.59	326	9.16	322	1.3	92	0.1	199	729	979.6	NA	0.0000		9999	1250	0	0	0
2016/11/23 18:56:00	BASE	7.66	325	9.16	322	1.3	92	0.1	194	714	979.6	NA	0.0000		9999	1280	2100	0	0
2016/11/23 18:57:00	BASE	7.95	325	9.16	322	1.3	92	0.1	195	718	979.6	NA	0.0000		9999	2560	3410	0	0
2016/11/23 18:58:00	BASE	8.02	325	9.16	322	1.3	92	0.1	203	741	979.6	NA	0.0000		9999	1250	0	0	0
2016/11/23 18:59:00	BASE	8.17	326	9.16	322	1.3	92	0.1	205	747	979.6	NA	0.0000		9999	1250	0	0	0
2016/11/23 19:00:00	BASE	8.27	326	8.85	322	1.3	92	0.1	201	734	979.6	NA	0.0000		9999	1280	2300	0	0
2016/11/23 19:01:00	BASE	7.91	324	8.85	322	1.3	92	0.2	192	708	979.6	NA	0.0000		9999	1210	2560	0	0
2016/11/23 19:02:00	BASE	7.78	320	8.85	322	1.3	92	0.2	189	696	979.7	NA	0.0000		9999	1210	2460	0	0
2016/11/23 19:03:00	BASE	7.78	319	8.85	322	1.3	92	0.1	179	668	979.7	NA	0.0000		9999	1250	2460	0	0
2016/11/23 19:04:00	BASE	7.81	321	9.21	317	1.4	91	0.1	178	664	979.7	NA	0.0000		9999	1120	0	0	0
2016/11/23 19:05:00	BASE	8.09	321	9.21	317	1.4	91	0.1	181	672	979.7	NA	0.0000		9999	1250	0	0	0
2016/11/23 19:06:00	BASE	8.24	321	9.21	317	1.4	91	0.1	181	670	979.7	NA	0.0000		9999	1280	2260	0	0
2016/11/23 19:07:00	BASE	8.47	321	9.31	311	1.4	91	0.1	182	674	979.7	NA	0.0000		9999	1210	2260	0	0
2016/11/23 19:08:00	BASE	8.64	322	9.47	320	1.4	91	0.1	181	672	979.7	NA	0.0000		9999	1210	0	0	0
2016/11/23 19:09:00	BASE	8.42	322	9.47	320	1.4	91	0.1	183	679	979.7	NA	0.0000		9999	1280	2260	0	0
2016/11/23 19:10:00	BASE	8.10	322	9.47	320	1.4	91	0.1	188	694	979.7	NA	0.0000		9999	1310	2260	0	0
2016/11/23 19:11:00	BASE	8.29	323	9.47	320	1.4	91	0.1	195	712	979.7	NA	0.0000		9999	1440	2330	0	0
2016/11/23 19:12:00	BASE	8.28	322	9.47	320	1.4	90	0.0	199	728	979.7	NA	0.0000		9999	1540	0	0	0
2016/11/23 19:13:00	BASE	8.16	323	9.47	320	1.4	90	0.0	211	766	979.7	NA	0.0000		9999	1210	0	0	0
2016/11/23 19:14:00	BASE	8.22	324	9.47	320	1.4	90	-0.0	213	771	979.7	NA	0.0000		9999	2330	0	0	0
2016/11/23 19:15:00	BASE	7.99	322	9.47	320	1.4	90	-0.0	212	768	979.8	NA	0.0000		9999	1210	2300	0	0
2016/11/23 19:16:00	BASE	8.26	322	9.47	320	1.4	90	-0.0	214	772	979.7	NA	0.0000		9999	1250	2130	0	0
2016/11/23 19:17:00	BASE	8.96	324	9.98	324	1.4	90	-0.0	205	742	979.7	NA	0.0000		9999	1020	0	0	0
2016/11/23 19:18:00	BASE	9.04	322	9.98	324	1.4	90	-0.0	204	741	979.7	NA	0.0000		9999	2400	0	0	0
2016/11/23 19:19:00	BASE	8.87	321	9.98	324	1.4	90	-0.0	209	758	979.6	NA	0.0000		9999	2460	0	0	0
2016/11/23 19:20:00	BASE	8.94	321	9.98	324	1.5	90	-0.0	219	789	979.6	NA	0.0000		9999	1250	1900	0	0
2016/11/23 19:21:00	BASE	8.89	320	9.98	324	1.5	90	-0.0	234	837	979.7	NA	0.0000		9999	1310	1940	0	0
2016/11/23 19:22:00	BASE	8.69	320	9.98	324	1.4	90	-0.0	246	869	979.7	NA	0.0000		9999	1970	0	0	0
2016/11/23 19:23:00	BASE	8.36	320	9.98	324	1.4	90	-0.0	244	863	979.7	NA	0.0000		9999	2660	0	0	0
2016/11/23 19:24:00	BASE	8.20	321	9.98	324	1.4	90	-0.0	237	838	979.8	NA	0.0000		9999	2620	0	0	0
2016/11/23 19:25:00	BASE	8.54	320	9.98	324	1.4	90	-0.1	226	807	979.8	NA	0.0000		9999	2560	0	0	0
2016/11/23 19:26:00	BASE	8.65	320	9.98	324	1.4	90	-0.1	218	786	979.8	NA	0.0000		9999	2070	2590	0	0
2016/11/23 19:27:00	BASE	8.28	321	9.52	320	1.4	90	-0.1	216	781	979.8	NA	0.0000		9999	1410	2360	0	0
2016/11/23 19:28:00	BASE	8.41	321	9.52	316	1.4	90	-0.1	219	788	979.8	NA	0.0000		9999	1210	2300	0	0
2016/11/23 19:29:00	BASE	8.71	321	9.72	320	1.4	90	-0.1	218	785	979.8	NA	0.0000		9999	1280	2330	0	0
2016/11/23 19:30:00	BASE	8.84	322	9.72	320	1.4	90	-0.0	223	802	979.8	NA	0.0000		9999	1250	2400	0	0
2016/11/23 19:31:00	BASE	8.63	322	9.72	320	1.4	90	-0.0	237	844	979.8	NA	0.0000		9999	1120	2300	0	0
2016/11/23 19:32:00	BASE	8.45	322	9.72	320	1.4	90	-0.0	242	860	979.8	NA	0.0000		9999	1120	0	0	0
2016/11/23 19:33:00	BASE	8.71	321	9.72	320	1.4	90	-0.0	242	863	979.8	NA	0.0000		9999	1180	2070	0	0
2016/11/23 19:34:00	BASE	8.77	320	9.88	319	1.4	90	-0.0	256	905	979.8	NA	0.0000		9999	1150	1670	0	0
2016/11/23 19:35:00	BASE	8.91	321	9.93	315	1.4	90	-0.1	280	979	979.8	NA	0.0000		9999	1180	2300	0	0
2016/11/23 19:36:00	BASE	8.80	321	9.93	315	1.4	90	-0.1	304	1036	979.8	NA	0.0000		9999	1350	2200	0	0
2016/11/23 19:37:00	BASE	8.41	318	9.93	315	1.4	90	-0.0	302	1027	979.8	NA	0.0000		9999	1310	2070	0	0
2016/11/23 19:38:00	BASE	8.22	321	9.93	315	1.4	90	-0.1	296	1009	979.8	NA	0.0000		9999	2260	0	0	0
2016/11/23 19:39:00	BASE	8.22	324	9.93	315	1.4	90	-0.1	292	977	979.8	NA	0.0000		9999	2260	0	0	0
2016/11/23 19:40:00	BASE	8.37	323	9.93	315	1.4	90	-0.1	283	761	979.8	NA	0.0000		9999	1120	2130	0	0
2016/11/23 19:41:00	BASE	8.99	324	11.21	326	1.4	90	-0.1	266	726	979.8	NA	0.0000		9999	1380	2170	0	0
2016/11/23 19:42:00	BASE	9.64	325	11.21	326	1.4	90	-0.1	265	728	979.8	NA	0.0000		9999	2130	0	0	0
2016/11/23 19:43:00	BASE	9.34	325	11.21	326	1.4	90	-0.0	275	750	979.8	NA	0.0000		9999	1310	2100	0	0
2016/11/23 19:44:00	BASE	8.84	325	11.21	326	1.4	90	-0.0	291	789	979.8	NA	0.0000		9999	2130	0	0	0
2016/11/23 19:45:00	BASE	8.49	327	11.21	326	1.4	90	-0.0	311	825	979.8	NA	0.0000		9999	2620	0	0	0
2016/11/23 19:46:00	BASE	8.37	326	11.21	326	1.4	90	-0.0	319	840	979.8	NA	0.0000		9999	1020	2300	0	0
2016/11/23 19:47:00	BASE	8.75	326	11.21	326	1.4	90	-0.1	324	846	979.8	NA	0.0000		9999	1310	2200	0	0
2016/11/23 19:48:00	BASE	8.93	326	11.21	326	1.4	90	-0.1	322	841	979.8	NA	0.0000		9999	3380	0	0	0
2016/11/23 19:49:00	BASE	8.37	329	11.21	326	1.4	90	-0.0	311	818	979.8	NA	0.0000		9999	2200	3380	0	0
2016/11/23 19:50:00	BASE	8.03	332	11.21	326	1.4	90	-0.0	303	804	979.8	NA	0.0000		9999	2100	3480	0	0
2016/11/23 19:51:00	BASE	8.53	330	10.55	326	1.5	90	-0.1	298	790	979.8	NA	0.0000		9999	1280	2000	0	0
2016/11/23 19:52:00	BASE	9.60	325	11.27	316	1.5	89	-0.1	294	782	979.8	NA	0.0000		9999	2130	0	0	0
2016/11/23 19:53:00	BASE	9.78	325	11.27	316	1.5	89	-0.1	296	787	979.9	NA	0.0000		9999	2400	0	0	0
2016/11/23 19:54:00	BASE	8.86	324	11.27	316	1.5	89	-0.1	302	813	979.9	NA	0.0000		9999	1210	2170	0	0
2016/11/23 19:55:01	BASE	8.38	321	11.27	316	1.5	89	-0.2	307	813	979.9	NA	0.0000		9999	2100	0	0	0
2016/11/23 19:56:00	BASE	8.29	319	11.27	316	1.4	89	-0.2	289	772	979.9	NA	0.0000		9999	2100	0	0	0
2016/11/23 19:57:00	BASE	8.16	320	11.27	316	1.4	89	-0.2	276	744	979.9	NA	0.0000		9999	2130	3120	0	0
2016/11/23 19:58:00	BASE	8.04	321	11.27	316	1.4	89	-0.2	268	715	979.9	NA	0.0000		9999	2130	3540	0	0
2016/11/23 19:59:00	BASE	7.99	322	11.27	316	1.4	89	-0.2	257	696	979.9	NA	0.0000		9999	2100	3580	0	0
2016/11/23 20:00:00	BASE	8.10	321	11.27	316	1.4	89	-0.2	243	668	979.9	NA	0.0000		9999	2170	0	0	0
2016/11/23 20:01:00	BASE	8.63	323	11.27	316	1.4	89	-0.2	239	659	979.9	NA	0.0000		9999	2260	3280	0	0
2016/11/23 20:02:00	BASE	8.95	324	10.03	325	1.4	89	-0.2	240	679	979.9	NA	0.0000		9999	3350	4040	0	0
2016/11/23 20:03:00	BASE	9.03	324	10.13	322	1.4	89	-0.2	246	683	979.9	NA	0.0000		9999	2030	0	0	0
2016/11/23 20:04:00	BASE	9.02	322	10.13	322	1.4	89	-0.2	247	691	980.0	NA	0.0000		9999	2000	2620	0	0
2016/11/23 20:05:00	BASE	8.76	321	10.13	322	1.4	89	-0.2	248	688	980.0	NA	0.0000		9999	2000	2760	0	0
2016/11/23 20:06:00	BASE	8.75	320	10.13	322	1.4	89	-0.2	256	715	980.0	NA	0.0000		9999	1510	2100	0	0
2016/11/23 20:07:00	BASE	8.52	320	10.13	322	1.4	89	-0.2	264	733	980.0	NA	0.0000		9999	2070	2920	0	0
2016/11/23 20:08:00	BASE	8.27	321	10.13	322	1.4	89	-0.2	270	739	980.1	NA	0.0000		9999	3080	0	0	0
2016/11/23 20:09:00	BASE	8.14	322	10.13	322	1.4	89	-0.2	267	739	980.1	NA	0.0000		9999	3510	0	0	0
2016/11/23 20:10:00	BASE	7.98	323	10.13	322	1.4	89	-0.2	258	713	980.1	NA	0.0000		9999	3050	3970	0	0
2016/11/23 20:11:00	BASE	8.07	323	10.13	322	1.4	89	-0.2	256	707	980.0	NA	0.0000		9999	3020	3870	0	0
2016/11/23 20:12:00	BASE	8.10	322	10.13	322	1.4	89	-0.2	259	714	980.1	NA	0.0000		9999	3150	3970	0	0
2016/11/23 20:13:00	BASE	8.47	320	10.03	317	1.4	89	-0.2	264	724	980.1	NA	0.0000		9999	3480	0	0	0
2016/11/23 20:14:00	BASE	8.50	321	10.03	317	1.4	89	-0.2	280	762	980.1	NA	0.0000		9999	3050	18830	0	0
2016/11/23 20:15:00	BASE	8.67	324	10.03	317	1.4	89	-0.3	322	851	980.0	NA	0.0000		9999	3050	3670	0	0
2016/11/23 20:16:00	BASE	8.90	325	10.03	317	1.4	89	-0.3	315	841	980.1	NA	0.0000		9999	3310	0	0	0
2016/11/23 20:17:00	BASE	8.33	325	10.03	317	1.4	88	-0.3	353	925	980.1	NA	0.0000		9999	3250	0	0	0
2016/11/23 20:18:00	BASE	8.20	325	10.03	317	1.4	88	-0.3	309	820	980.1	NA	0.0000		9999	4040	0	0	0
2016/11/23 20:19:00	BASE	8.41	325	10.03	317	1.4	88	-0.4	299	795	980.1	NA	0.0000		9999	3940	0	0	0
2016/11/23 20:20:00	BASE	8.65	325	10.03	317	1.4	88	-0.4	288	768	980.1	NA	0.0000		9999	3970	0	0	0
2016/11/23 20:21:00	BASE	8.89	326	10.03	317	1.4	88	-0.4	288	777	980.1	NA	0.0000		9999	3940	21980	0	0
2016/11/23 20:22:00	BASE	8.82	324	10.03	317	1.4	88	-0.4	285	771	980.1	NA	0.0000		9999	3840	0	0	0
2016/11/23 20:23:00	BASE	8.43	322	9.77	327	1.4	88	-0.4	282	766	980.1	NA	0.0000		9999	3900	0	0	0
2016/11/23 20:24:00	BASE	8.11	322	9.77	327	1.4	88	-0.4	270	729	980.1	NA	0.0000		9999	3540	0	0	0
2016/11/23 20:25:00	BASE	8.12	323	9.77	327	1.4	88	-0.3	265	734	980.2	NA	0.0000		9999	2530	3940	0	0
2016/11/23 20:26:00	BASE	8.59	324	10.34	335	1.4	88	-0.3	265	729	980.1	NA	0.0000		9999	3180	0	0	0
2016/11/23 20:27:00	BASE	8.82	324	10.34	335	1.4	88	-0.4	252	699	980.1	NA	0.0000		9999	3770	0	0	0
2016/11/23 20:28:00	BASE	9.06	324	10.34	335	1.4	88	-0.4	245	682	980.1	NA	0.0000		9999	3840	0	0	0
2016/11/23 20:29:00	BASE	9.22	326	10.34	335	1.4	87	-0.4	243	678	980.1	NA	0.0000		9999	3350	3770	0	0
2016/11/23 20:30:00	BASE	8.98	326	10.34	335	1.4	87	-0.5	238	676	980.2	NA	0.0000		9999	3250	0	0	0
2016/11/23 20:31:00	BASE	8.77	324	10.34	335	1.4	87	-0.5	243	687	980.2	NA	0.0000		9999	3870	0	0	0
2016/11/23 20:32:00	BASE	8.52	324	10.34	335	1.4	87	-0.5	256	719	980.1	NA	0.0000		9999	3810	0	0	0
2016/11/23 20:33:00	BASE	8.58	325	10.34	335	1.4	87	-0.4	265	742	980.2	NA	0.0000		9999	3410	0	0	0
2016/11/23 20:34:00	BASE	8.68	326	10.34	335	1.4	88	-0.4	264	737	980.2	NA	0.0000		9999	3810	0	0	0
2016/11/23 20:35:00	BASE	8.47	325	11.32	318	1.4	88	-0.4	248	697	980.1	NA	0.0000		9999	3770	0	0	0
2016/11/23 20:36:00	BASE	8.46	323	11.32	318	1.4	88	-0.4	238	674	980.1	NA	0.0000		9999	3610	0	0	0
2016/11/23 20:37:00	BASE	8.43	322	11.32	318	1.4	88	-0.4	251	713	980.2	NA	0.0000		9999	3940	0	0	0
2016/11/23 20:38:00	BASE	8.58	319	11.32	318	1.4	88	-0.4	263	741	980.1	NA	0.0000		9999	3480	4230	0	0
2016/11/23 20:39:00	BASE	9.12	319	11.32	318	1.4	88	-0.4	255	734	980.1	NA	0.0000		9999	3670	4400	0	0
2016/11/23 20:40:00	BASE	9.13	323	11.32	318	1.4	88	-0.4	247	708	980.1	NA	0.0000		9999	4100	0	0	0
2016/11/23 20:41:00	BASE	9.13	321	11.32	318	1.5	87	-0.4	232	677	980.1	NA	0.0000		9999	2200	4100	0	0
2016/11/23 20:42:00	BASE	8.96	321	11.32	318	1.5	87	-0.4	221	652	980.1	NA	0.0000		9999	2230	3250	0	0
2016/11/23 20:43:00	BASE	8.25	322	11.32	318	1.5	87	-0.4	213	637	980.1	NA	0.0000		9999	2260	3150	0	0
2016/11/23 20:44:00	BASE	8.28	323	11.32	318	1.5	87	-0.4	222	665	980.1	NA	0.0000		9999	2330	0	0	0
2016/11/23 20:45:00	BASE	8.84	321	10.24	319	1.5	87	-0.4	229	678	980.1	NA	0.0000		9999	2330	0	0	0
2016/11/23 20:46:00	BASE	9.28	319	10.49	317	1.5	87	-0.4	208	627	980.1	NA	0.0000		9999	2300	0	0	0
2016/11/23 20:47:00	BASE	8.65	321	10.49	317	1.5	87	-0.4	185	567	980.2	NA	0.0000		9999	2400	0	0	0
2016/11/23 20:48:00	BASE	8.02	324	10.49	317	1.5	87	-0.4	167	522	980.2	NA	0.0000		9999	2430	0	0	0
2016/11/23 20:49:00	BASE	8.30	323	10.49	317	1.5	87	-0.4	157	498	980.2	NA	0.0000		9999	2430	0	0	0
2016/11/23 20:50:00	BASE	8.34	323	10.49	317	1.5	87	-0.4	154	484	980.2	NA	0.0000		9999	2430	0	0	0
2016/11/23 20:51:00	BASE	8.11	322	10.49	317	1.5	87	-0.4	152	481	980.2	NA	0.0000		9999	2490	0	0	0
2016/11/23 20:52:00	BASE	7.97	319	10.49	317	1.5	87	-0.4	145	461	980.2	NA	0.0000		9999	2460	0	0	0
2016/11/23 20:53:00	BASE	8.11	322	10.49	317	1.5	87	-0.4	140	447	980.2	NA	0.0000		9999	2460	0	0	0
2016/11/23 20:54:00	BASE	8.32	324	10.49	317	1.5	87	-0.4	144	459	980.2	NA	0.0000		9999	2490	0	0	0
2016/11/23 20:55:00	BASE	8.64	325	10.49	317	1.5	87	-0.4	149	472	980.2	NA	0.0000		9999	2620	0	0	0
2016/11/23 20:56:00	BASE	8.58	327	9.57	323	1.5	87	-0.4	151	480	980.3	NA	0.0000		9999	2850	0	0	0
2016/11/23 20:57:00	BASE	8.17	326	9.57	323	1.5	87	-0.5	164	516	980.3	NA	0.0000		9999	2820	0	0	0
2016/11/23 20:58:00	BASE	8.05	325	9.57	323	1.5	87	-0.5	172	534	980.3	NA	0.0000		9999	3120	0	0	0
2016/11/23 20:59:00	BASE	7.99	326	9.31	324	1.5	87	-0.5	170	531	980.3	NA	0.0000		9999	3120	21850	0	0
2016/11/23 21:00:00	BASE	7.68	322	9.31	324	1.5	87	-0.5	174	544	980.3	NA	0.0000		9999	3180	0	0	0
2016/11/23 21:01:00	BASE	7.41	322	9.31	324	1.5	87	-0.5	170	544	980.4	NA	0.0000		9999	3610	0	0	0
2016/11/23 21:02:00	BASE	7.52	326	9.31	324	1.5	87	-0.5	161	518	980.3	NA	0.0000		9999	3840	0	0	0
2016/11/23 21:03:00	BASE	7.44	328	9.31	324	1.5	87	-0.4	158	508	980.4	NA	0.0000		9999	3480	0	0	0
2016/11/23 21:04:00	BASE	7.14	329	9.31	324	1.5	87	-0.4	155	499	980.4	NA	0.0000		9999	3540	0	0	0
2016/11/23 21:05:00	BASE	7.85	328	9.16	327	1.5	87	-0.4	156	499	980.3	NA	0.0000		9999	3380	0	0	0
2016/11/23 21:06:00	BASE	8.20	329	9.11	321	1.5	87	-0.4	152	494	980.3	NA	0.0000		9999	3310	0	0	0
2016/11/23 21:07:00	BASE	8.39	329	9.67	326	1.5	88	-0.3	147	478	980.3	NA	0.0000		9999	3220	0	0	0
2016/11/23 21:08:00	BASE	8.95	329	9.83	328	1.5	88	-0.3	141	462	980.3	NA	0.0000		9999	3180	0	0	0
2016/11/23 21:09:00	BASE	8.75	329	9.83	328	1.5	88	-0.3	136	449	980.3	NA	0.0000		9999	3180	0	0	0
2016/11/23 21:10:00	BASE	9.10	327	10.75	321	1.5	88	-0.3	132	440	980.3	NA	0.0000		9999	1210	3020	0	0
2016/11/23 21:11:00	BASE	9.11	329	10.75	321	1.5	88	-0.3	134	444	980.3	NA	0.0000		9999	1150	3120	0	0
2016/11/23 21:12:00	BASE	8.96	330	10.75	321	1.5	88	-0.3	137	456	980.3	NA	0.0000		9999	1180	3020	0	0
2016/11/23 21:13:00	BASE	9.12	329	10.75	321	1.5	88	-0.3	141	468	980.4	NA	0.0000		9999	1150	3120	0	0
2016/11/23 21:14:00	BASE	8.39	330	10.75	321	1.5	88	-0.3	149	489	980.4	NA	0.0000		9999	1280	3120	0	0
2016/11/23 21:15:00	BASE	8.67	332	10.75	321	1.5	88	-0.3	163	523	980.3	NA	0.0000		9999	3080	0	0	0
2016/11/23 21:16:00	BASE	9.46	331	10.75	321	1.5	88	-0.3	173	552	980.3	NA	0.0000		9999	3150	0	0	0
2016/11/23 21:17:00	BASE	8.97	334	10.75	321	1.5	88	-0.3	173	548	980.4	NA	0.0000		9999	1150	3450	0	0
2016/11/23 21:18:00	BASE	8.88	340	10.75	321	1.5	88	-0.3	160	512	980.3	NA	0.0000		9999	1180	3220	0	0
2016/11/23 21:19:00	BASE	9.38	342	10.75	321	1.5	88	-0.2	149	482	980.3	NA	0.0000		9999	1150	4400	0	0
2016/11/23 21:20:00	BASE	9.55	344	10.55	328	1.6	88	-0.2	152	506	980.3	NA	0.0000		9999	3120	4070	0	0
2016/11/23 21:21:00	BASE	9.65	342	10.96	328	1.6	88	-0.2	166	538	980.2	NA	0.0000		9999	3020	0	0	0
2016/11/23 21:22:00	BASE	9.60	339	10.96	328	1.6	88	-0.2	176	573	980.3	NA	0.0000		9999	3580	0	0	0
2016/11/23 21:23:00	BASE	10.03	341	11.32	344	1.6	88	-0.2	182	587	980.2	NA	0.0000		9999	3020	4170	0	0
2016/11/23 21:24:00	BASE	10.45	341	11.32	344	1.6	88	-0.2	186	594	980.2	NA	0.0000		9999	4070	0	0	0
2016/11/23 21:25:00	BASE	9.93	341	11.32	344	1.6	88	-0.2	177	569	980.3	NA	0.0000		9999	3940	4400	0	0
2016/11/23 21:26:00	BASE	9.42	341	11.32	344	1.6	87	-0.3	167	540	980.3	NA	0.0000		9999	4040	0	0	0
2016/11/23 21:27:00	BASE	9.35	339	11.32	332	1.6	87	-0.3	161	527	980.3	NA	0.0000		9999	4070	0	0	0
2016/11/23 21:28:00	BASE	9.39	336	11.32	332	1.6	87	-0.3	158	517	980.3	NA	0.0000		9999	4000	0	0	0
2016/11/23 21:29:00	BASE	8.92	335	11.32	332	1.7	87	-0.3	153	501	980.3	NA	0.0000		9999	3670	4300	0	0
2016/11/23 21:30:00	BASE	8.26	337	11.32	332	1.7	87	-0.3	143	474	980.4	NA	0.0000		9999	3120	4170	0	0
2016/11/23 21:31:00	BASE	8.48	337	11.32	332	1.7	87	-0.3	133	447	980.3	NA	0.0000		9999	4040	0	0	0
2016/11/23 21:32:00	BASE	8.89	337	11.32	332	1.7	87	-0.2	128	436	980.4	NA	0.0000		9999	3050	3970	0	0
2016/11/23 21:33:00	BASE	8.76	339	11.32	332	1.7	87	-0.2	128	436	980.4	NA	0.0000		9999	2820	0	0	0
2016/11/23 21:34:00	BASE	8.92	338	11.32	332	1.7	87	-0.3	133	453	980.3	NA	0.0000		9999	2820	0	0	0
2016/11/23 21:35:00	BASE	9.45	337	11.32	332	1.8	86	-0.3	139	468	980.3	NA	0.0000		9999	2820	22150	0	0
2016/11/23 21:36:00	BASE	9.68	334	11.32	332	1.8	86	-0.3	139	466	980.3	NA	0.0000		9999	2890	0	0	0
2016/11/23 21:37:00	BASE	9.20	332	10.80	321	1.8	86	-0.3	141	471	980.4	NA	0.0000		9999	2990	0	0	0
2016/11/23 21:38:00	BASE	8.68	332	10.80	321	1.8	86	-0.3	150	495	980.4	NA	0.0000		9999	2820	0	0	0
2016/11/23 21:39:00	BASE	9.05	333	11.01	332	1.8	86	-0.3	158	517	980.3	NA	0.0000		9999	2990	20740	0	0
2016/11/23 21:40:00	BASE	9.19	335	11.01	332	1.8	86	-0.3	162	525	980.3	NA	0.0000		9999	3120	4000	0	0
2016/11/23 21:41:00	BASE	8.86	335	11.01	332	1.8	86	-0.3	165	531	980.4	NA	0.0000		9999	3870	0	0	0
2016/11/23 21:42:00	BASE	8.72	335	11.01	332	1.8	86	-0.3	167	535	980.4	NA	0.0000		9999	3940	0	0	0
2016/11/23 21:43:00	BASE	8.41	335	11.01	332	1.8	86	-0.3	165	528	980.4	NA	0.0000		9999	4040	0	0	0
2016/11/23 21:44:00	BASE	8.23	337	11.01	332	1.8	86	-0.3	158	508	980.4	NA	0.0000		9999	3870	0	0	0
2016/11/23 21:45:00	BASE	8.47	337	11.01	332	1.8	86	-0.3	153	497	980.4	NA	0.0000		9999	4200	0	0	0
2016/11/23 21:46:00	BASE	9.13	336	11.01	332	1.8	86	-0.3	154	500	980.3	NA	0.0000		9999	4130	0	0	0
2016/11/23 21:47:00	BASE	8.98	337	11.01	332	1.8	86	-0.3	162	522	980.4	NA	0.0000		9999	3970	0	0	0
2016/11/23 21:48:00	BASE	8.42	337	11.01	332	1.8	86	-0.3	154	497	980.3	NA	0.0000		9999	4100	0	0	0
2016/11/23 21:49:00	BASE	8.33	335	10.34	330	1.8	86	-0.3	135	444	980.4	NA	0.0000		9999	2400	3020	0	0
2016/11/23 21:50:00	BASE	8.81	335	10.91	341	1.8	86	-0.3	120	406	980.3	NA	0.0000		9999	3020	3940	0	0
2016/11/23 21:51:00	BASE	9.80	335	11.78	337	1.8	86	-0.3	120	407	980.3	NA	0.0000		9999	2330	22870	0	0
2016/11/23 21:52:00	BASE	9.86	336	11.78	337	1.8	86	-0.3	124	418	980.3	NA	0.0000		9999	1120	2260	0	0
2016/11/23 21:53:00	BASE	9.74	340	11.78	337	1.8	86	-0.3	133	441	980.3	NA	0.0000		9999	1120	2330	0	0
2016/11/23 21:54:00	BASE	9.80	340	11.78	337	1.9	86	-0.3	141	459	980.3	NA	0.0000		9999	1180	2490	0	0
2016/11/23 21:55:00	BASE	9.25	338	11.78	337	1.9	86	-0.3	134	438	980.3	NA	0.0000		9999	1150	2460	0	0
2016/11/23 21:56:00	BASE	8.95	336	11.78	337	1.9	85	-0.3	130	427	980.3	NA	0.0000		9999	4040	4760	0	0
2016/11/23 21:57:00	BASE	8.94	334	11.78	337	1.9	85	-0.3	132	433	980.3	NA	0.0000		9999	2330	3740	0	0
2016/11/23 21:58:00	BASE	9.09	333	11.78	337	1.9	85	-0.4	136	445	980.3	NA	0.0000		9999	2430	3810	0	0
2016/11/23 21:59:00	BASE	9.51	332	11.78	337	1.9	85	-0.3	132	432	980.3	NA	0.0000		9999	2330	3740	0	0
2016/11/23 22:00:00	BASE	9.17	333	11.78	337	1.8	86	-0.3	118	396	980.3	NA	0.0000		9999	2330	0	0	0
2016/11/23 22:01:00	BASE	8.35	336	11.21	334	1.8	86	-0.3	108	371	980.4	NA	0.0000		9999	2330	3770	0	0
2016/11/23 22:02:00	BASE	8.09	336	11.21	334	1.8	86	-0.3	104	355	980.3	NA	0.0000		9999	3710	4230	0	0
2016/11/23 22:03:00	BASE	8.22	334	11.21	334	1.8	86	-0.3	100	346	980.3	NA	0.0000		9999	4170	0	0	0
2016/11/23 22:04:00	BASE	8.78	335	11.21	334	1.8	86	-0.3	100	343	980.3	NA	0.0000		9999	3940	0	0	0
2016/11/23 22:05:00	BASE	9.28	334	11.21	334	1.8	86	-0.2	103	352	980.3	NA	0.0000		9999	2260	0	0	0
2016/11/23 22:06:00	BASE	9.12	335	11.21	334	1.8	86	-0.2	107	361	980.3	NA	0.0000		9999	2330	0	0	0
2016/11/23 22:07:00	BASE	8.91	337	11.21	334	1.8	87	-0.2	107	360	980.3	NA	0.0000		9999	2300	3710	0	0
2016/11/23 22:08:00	BASE	8.83	334	11.21	334	1.8	87	-0.2	102	349	980.4	NA	0.0000		9999	2400	0	0	0
2016/11/23 22:09:00	BASE	8.67	334	10.91	336	1.8	87	-0.2	96	332	980.4	NA	0.0000		9999	2690	3670	0	0
2016/11/23 22:10:00	BASE	8.87	334	10.91	336	1.8	87	-0.2	92	318	980.4	NA	0.0000		9999	2400	3710	0	0
2016/11/23 22:11:00	BASE	9.19	332	10.91	336	1.8	87	-0.2	85	299	980.4	NA	0.0000		9999	2200	3740	0	0
2016/11/23 22:12:00	BASE	8.54	334	10.91	336	1.8	87	-0.2	76	269	980.4	NA	0.0000		9999	2330	0	0	0
2016/11/23 22:13:00	BASE	8.34	331	10.91	336	1.8	86	-0.2	69	247	980.4	NA	0.0000		9999	1250	2030	0	0
2016/11/23 22:14:00	BASE	8.74	328	10.91	336	1.8	86	-0.3	68	243	980.4	NA	0.0000		9999	1280	1800	0	0
2016/11/23 22:15:00	BASE	8.96	330	10.65	333	1.8	86	-0.3	71	250	980.4	NA	0.0000		9999	2100	0	0	0
2016/11/23 22:16:00	BASE	8.22	333	10.65	333	1.7	86	-0.3	69	245	980.4	NA	0.0000		9999	2130	2990	0	0
2016/11/23 22:17:00	BASE	7.80	336	10.65	333	1.7	87	-0.3	66	237	980.4	NA	0.0000		9999	2000	3020	0	0
2016/11/23 22:18:00	BASE	8.18	336	10.65	333	1.7	87	-0.3	62	226	980.4	NA	0.0000		9999	1970	0	0	0
2016/11/23 22:19:00	BASE	8.38	335	10.65	333	1.7	87	-0.2	58	213	980.4	NA	0.0000		9999	2100	0	0	0
2016/11/23 22:20:00	BASE	8.57	335	10.34	333	1.7	87	-0.2	52	196	980.4	NA	0.0000		9999	2130	0	0	0
2016/11/23 22:21:00	BASE	8.71	339	10.29	342	1.8	87	-0.2	50	188	980.4	NA	0.0000		9999	1120	2100	0	0
2016/11/23 22:22:00	BASE	8.88	340	10.44	332	1.8	87	-0.1	49	185	980.4	NA	0.0000		9999	2200	3220	0	0
2016/11/23 22:23:00	BASE	8.90	337	10.44	332	1.8	87	-0.1	47	177	980.4	NA	0.0000		9999	2430	3450	0	0
2016/11/23 22:24:00	BASE	9.10	334	10.55	339	1.8	87	-0.1	44	173	980.4	NA	0.0000		9999	2260	0	0	0
2016/11/23 22:25:00	BASE	8.74	336	10.55	339	1.8	87	-0.1	43	169	980.4	NA	0.0000		9999	2360	0	0	0
2016/11/23 22:26:00	BASE	8.62	338	10.55	339	1.8	87	-0.1	42	166	980.4	NA	0.0000		9999	2990	0	0	0
2016/11/23 22:27:00	BASE	8.89	337	10.55	339	1.8	87	-0.1	41	162	980.4	NA	0.0000		9999	2950	0	0	0
2016/11/23 22:28:00	BASE	8.44	337	10.55	339	1.8	87	-0.1	40	160	980.4	NA	0.0000		9999	2660	0	0	0
2016/11/23 22:29:00	BASE	8.31	337	10.55	339	1.7	88	-0.1	39	157	980.4	NA	0.0000		9999	2530	0	0	0
2016/11/23 22:30:00	BASE	8.87	336	10.55	339	1.7	88	-0.1	38	154	980.4	NA	0.0000		9999	2330	0	0	0
2016/11/23 22:31:00	BASE	8.92	337	10.55	339	1.7	88	-0.1	37	150	980.4	NA	0.0000		9999	2590	0	0	0
2016/11/23 22:32:00	BASE	8.50	335	10.55	339	1.7	88	-0.1	36	146	980.4	NA	0.0000		9999	2330	0	0	0
2016/11/23 22:33:00	BASE	8.32	335	10.55	339	1.7	88	-0.1	35	143	980.4	NA	0.0000		9999	2620	0	0	0
2016/11/23 22:34:00	BASE	7.99	335	10.44	325	1.7	88	-0.0	34	141	980.5	NA	0.0000		9999	1150	2820	0	0
2016/11/23 22:35:00	BASE	7.54	336	10.44	325	1.7	88	-0.0	35	141	980.5	NA	0.0000		9999	1150	2820	0	0
2016/11/23 22:36:00	BASE	7.82	339	10.44	325	1.7	88	-0.1	36	146	980.5	NA	0.0000		9999	1180	2430	0	0
2016/11/23 22:37:00	BASE	8.32	340	10.44	325	1.7	88	-0.1	40	160	980.4	NA	0.0000		9999	460	2360	0	0
2016/11/23 22:38:00	BASE	8.33	337	10.44	325	1.7	88	-0.1	45	175	980.4	NA	0.0000		9999	1050	0	0	0
2016/11/23 22:39:00	BASE	7.96	335	10.08	347	1.7	88	-0.1	50	191	980.5	NA	0.0000		9999	1080	0	0	0
2016/11/23 22:40:00	BASE	7.81	334	10.08	347	1.7	88	-0.0	48	184	980.5	NA	0.0000		9999	1150	0	0	0
2016/11/23 22:41:00	BASE	7.41	332	9.62	340	1.7	88	-0.0	47	180	980.6	NA	0.0000		9999	1050	0	0	0
2016/11/23 22:42:00	BASE	7.45	330	9.62	340	1.7	88	-0.0	44	169	980.5	NA	0.0000		9999	980	0	0	0
2016/11/23 22:43:00	BASE	7.79	329	9.00	336	1.7	88	-0.1	39	154	980.5	NA	0.0000		9999	950	0	0	0
2016/11/23 22:44:00	BASE	8.19	328	9.41	326	1.7	88	-0.1	36	142	980.4	NA	0.0000		9999	1710	0	0	0
2016/11/23 22:45:00	BASE	8.18	330	9.41	326	1.6	88	-0.1	34	136	980.5	NA	0.0000		9999	1180	2130	0	0
2016/11/23 22:46:00	BASE	7.75	331	9.41	326	1.6	89	-0.1	35	141	980.5	NA	0.0000		9999	1080	0	0	0
2016/11/23 22:47:00	BASE	7.60	331	9.41	326	1.6	89	-0.0	33	135	980.5	NA	0.0000		9999	1050	0	0	0
2016/11/23 22:48:00	BASE	7.38	334	9.41	326	1.6	89	-0.0	30	124	980.4	NA	0.0000		9999	1080	0	0	0
2016/11/23 22:49:00	BASE	8.16	337	9.41	326	1.6	89	-0.0	28	117	980.4	NA	0.0000		9999	920	0	0	0
2016/11/23 22:50:00	BASE	8.67	337	10.19	335	1.6	89	0.0	27	112	980.4	NA	0.0000		9999	1120	0	0	0
2016/11/23 22:51:00	BASE	8.68	335	10.19	335	1.7	89	0.0	28	115	980.4	NA	0.0000		9999	690	0	0	0
2016/11/23 22:52:00	BASE	8.63	335	10.19	335	1.7	89	0.1	28	113	980.4	NA	0.0000		9999	430	0	0	0
2016/11/23 22:53:00	BASE	8.80	336	10.80	334	1.7	89	0.1	31	121	980.4	NA	0.0000		9999	360	0	0	0
2016/11/23 22:54:00	BASE	9.38	338	10.80	334	1.7	89	0.1	36	137	980.4	NA	0.0000		9999	360	0	0	0
2016/11/23 22:55:00	BASE	9.28	336	10.80	334	1.7	89	0.1	35	133	980.4	NA	0.0000		9999	360	0	0	0
2016/11/23 22:56:00	BASE	8.66	336	10.80	334	1.7	89	0.1	36	137	980.4	NA	0.0000		9999	330	0	0	0
2016/11/23 22:57:00	BASE	8.43	335	10.80	334	1.7	89	0.1	39	147	980.4	NA	0.0000		9999	330	0	0	0
2016/11/23 22:58:00	BASE	8.26	334	10.80	334	1.7	89	0.1	41	151	980.4	NA	0.0000		9999	430	0	0	0
2016/11/23 22:59:00	BASE	8.10	337	10.80	334	1.6	90	0.1	40	150	980.4	NA	0.0000		9999	430	0	0	0
2016/11/23 23:00:00	BASE	8.41	334	10.80	334	1.6	90	0.1	37	139	980.4	NA	0.0000		9999	620	0	0	0
2016/11/23 23:01:00	BASE	8.09	330	10.80	334	1.6	90	0.1	35	133	980.4	NA	0.0000		9999	1050	0	0	0
2016/11/23 23:02:00	BASE	7.55	333	10.80	334	1.6	90	0.2	32	124	980.5	NA	0.0000		9999	390	0	0	0
2016/11/23 23:03:00	BASE	7.04	336	10.24	337	1.6	90	0.2	30	119	980.6	NA	0.0000		9999	390	0	0	0
2016/11/23 23:04:00	BASE	6.71	335	10.08	333	1.6	91	0.2	33	129	980.5	NA	0.0000		9999	390	0	0	0
2016/11/23 23:05:00	BASE	7.28	332	9.52	326	1.5	91	0.2	34	131	980.5	NA	0.0000		9999	430	0	0	0
2016/11/23 23:06:00	BASE	7.96	332	9.52	326	1.5	91	0.2	36	136	980.5	NA	0.0000		9999	390	1900	0	0
2016/11/23 23:07:00	BASE	8.47	332	9.83	326	1.5	91	0.2	34	128	980.5	NA	0.0000		9999	430	0	0	0
2016/11/23 23:08:00	BASE	8.38	333	9.83	326	1.5	91	0.2	32	119	980.6	NA	0.0000		9999	430	0	0	0
2016/11/23 23:09:00	BASE	8.02	333	9.83	326	1.5	91	0.2	29	112	980.5	NA	0.0000		9999	360	24480	0	0
2016/11/23 23:10:00	BASE	8.09	332	9.83	326	1.5	91	0.2	31	118	980.6	NA	0.0000		9999	430	0	0	0
2016/11/23 23:11:00	BASE	8.29	333	9.83	326	1.5	91	0.2	31	117	980.5	NA	0.0000		9999	360	0	0	0
2016/11/23 23:12:00	BASE	8.36	334	9.83	326	1.5	91	0.3	29	111	980.5	NA	0.0000		9999	390	0	0	0
2016/11/23 23:13:00	BASE	8.21	331	9.83	326	1.5	91	0.3	27	104	980.5	NA	0.0000		9999	920	0	0	0
2016/11/23 23:14:00	BASE	8.19	329	9.83	326	1.5	91	0.2	26	102	980.5	NA	0.0000		9999	1020	0	0	0
2016/11/23 23:15:00	BASE	7.90	332	9.83	326	1.5	91	0.2	27	106	980.5	NA	0.0000		9999	1020	0	0	0
2016/11/23 23:16:00	BASE	8.05	332	10.08	331	1.5	91	0.2	27	105	980.5	NA	0.0000		9999	490	0	0	0
2016/11/23 23:17:00	BASE	8.50	329	10.08	331	1.5	91	0.2	27	103	980.4	NA	0.0000		9999	1120	0	0	0
2016/11/23 23:18:00	BASE	8.76	329	10.08	331	1.5	91	0.2	26	101	980.4	NA	0.0000		9999	590	1540	0	0
2016/11/23 23:19:00	BASE	8.62	331	10.08	331	1.5	91	0.2	26	101	980.4	NA	0.0000		9999	390	0	0	0
2016/11/23 23:20:00	BASE	8.63	334	10.75	331	1.5	91	0.2	29	107	980.4	NA	0.0000		9999	390	0	0	0
2016/11/23 23:21:00	BASE	8.73	332	10.75	331	1.5	91	0.2	32	118	980.4	NA	0.0000		9999	1120	2100	0	0
2016/11/23 23:22:00	BASE	8.51	332	10.75	331	1.5	91	0.2	35	127	980.4	NA	0.0000		9999	1020	0	0	0
2016/11/23 23:23:00	BASE	8.74	336	10.75	331	1.5	91	0.2	34	126	980.4	NA	0.0000		9999	1020	0	0	0
2016/11/23 23:24:00	BASE	9.37	338	11.06	331	1.5	91	0.2	31	117	980.4	NA	0.0000		9999	2130	3970	0	0
2016/11/23 23:25:00	BASE	9.23	338	11.06	331	1.5	91	0.2	28	107	980.4	NA	0.0000		9999	3770	0	0	0
2016/11/23 23:26:00	BASE	8.43	338	11.06	331	1.5	91	0.2	26	99	980.4	NA	0.0000		9999	1250	3810	0	0
2016/11/23 23:27:00	BASE	9.01	336	11.06	331	1.5	91	0.2	25	99	980.3	NA	0.0000		9999	1770	3940	0	0
2016/11/23 23:28:00	BASE	9.22	334	11.06	331	1.5	91	0.2	26	101	980.4	NA	0.0000		9999	1120	2000	0	0
2016/11/23 23:29:00	BASE	9.39	337	11.06	331	1.5	91	0.2	25	98	980.3	NA	0.0000		9999	2130	0	0	0
2016/11/23 23:30:00	BASE	9.10	338	11.06	331	1.5	91	0.2	27	100	980.4	NA	0.0000		9999	2170	2850	0	0
2016/11/23 23:31:00	BASE	8.47	337	11.06	331	1.5	91	0.2	28	102	980.4	NA	0.0000		9999	2230	0	0	0
2016/11/23 23:32:00	BASE	9.08	336	11.63	343	1.5	91	0.2	28	103	980.3	NA	0.0000		9999	1250	2300	0	0
2016/11/23 23:33:00	BASE	9.40	337	11.63	343	1.5	91	0.2	28	105	980.3	NA	0.0000		9999	1250	2850	0	0
2016/11/23 23:34:00	BASE	9.20	336	11.63	343	1.5	91	0.2	26	100	980.3	NA	0.0000		9999	1050	2990	0	0
2016/11/23 23:35:00	BASE	8.78	335	11.63	343	1.5	91	0.2	25	94	980.4	NA	0.0000		9999	980	0	0	0
2016/11/23 23:36:00	BASE	8.58	334	11.63	343	1.5	91	0.1	23	89	980.4	NA	0.0000		9999	950	0	0	0
2016/11/23 23:37:00	BASE	8.56	331	11.63	343	1.5	90	0.1	23	90	980.4	NA	0.0000		9999	920	0	0	0
2016/11/23 23:38:00	BASE	8.90	328	11.63	343	1.5	90	0.1	21	81	980.4	NA	0.0000		9999	920	0	0	0
2016/11/23 23:39:00	BASE	9.72	326	11.63	343	1.5	90	0.0	18	72	980.3	NA	0.0000		9999	980	0	0	0
2016/11/23 23:40:00	BASE	9.81	326	11.63	343	1.5	90	-0.0	17	67	980.4	NA	0.0000		9999	980	0	0	0
2016/11/23 23:41:00	BASE	9.61	326	11.63	343	1.4	90	-0.0	17	69	980.4	NA	0.0000		9999	950	0	0	0
2016/11/23 23:42:00	BASE	9.72	324	11.06	319	1.4	90	-0.0	17	69	980.4	NA	0.0000		9999	920	0	0	0
2016/11/23 23:43:00	BASE	9.23	319	11.06	319	1.4	90	-0.1	16	66	980.4	NA	0.0000		9999	920	0	0	0
2016/11/23 23:44:00	BASE	9.40	318	11.06	319	1.3	90	-0.1	16	63	980.4	NA	0.0000		9999	850	0	0	0
2016/11/23 23:45:00	BASE	10.03	322	11.06	319	1.3	91	-0.0	17	65	980.4	NA	0.0000		9999	820	0	0	0
2016/11/23 23:46:00	BASE	10.21	325	11.06	329	1.4	91	0.0	18	69	980.4	NA	0.0000		9999	920	0	0	0
2016/11/23 23:47:00	BASE	10.08	326	11.06	329	1.3	91	0.0	19	70	980.4	NA	0.0000		9999	1250	0	0	0
2016/11/23 23:48:00	BASE	9.70	328	11.06	329	1.3	91	0.0	18	69	980.4	NA	0.0000		9999	1080	1670	0	0
2016/11/23 23:49:00	BASE	9.37	331	11.06	329	1.3	91	0.0	18	68	980.5	NA	0.0000		9999	1080	0	0	0
2016/11/23 23:50:00	BASE	9.11	332	11.06	329	1.3	91	0.0	17	64	980.5	NA	0.0000		9999	1150	0	0	0
2016/11/23 23:51:00	BASE	8.68	331	11.06	329	1.3	91	0.0	16	61	980.6	NA	0.0000		9999	890	1610	0	0
2016/11/23 23:52:00	BASE	8.33	330	11.06	329	1.4	91	0.0	16	62	980.5	NA	0.0000		9999	980	1740	0	0
2016/11/23 23:53:00	BASE	8.47	330	11.06	329	1.4	91	0.1	14	57	980.5	NA	0.0000		9999	950	1770	0	0
2016/11/23 23:54:00	BASE	8.23	330	11.06	329	1.4	91	0.1	13	54	980.5	NA	0.0000		9999	890	0	0	0
2016/11/23 23:55:00	BASE	7.79	331	11.06	329	1.4	91	0.1	13	52	980.5	NA	0.0000		9999	890	0	0	0
2016/11/23 23:56:00	BASE	8.00	330	10.55	328	1.4	91	0.1	12	50	980.5	NA	0.0000		9999	890	0	0	0
2016/11/23 23:57:00	BASE	7.92	331	10.55	328	1.4	91	0.1	11	48	980.6	NA	0.0000		9999	920	0	0	0
2016/11/23 23:58:00	BASE	7.29	334	9.98	327	1.4	91	0.1	11	48	980.6	NA	0.0000		9999	890	0	0	0
2016/11/23 23:59:00	BASE	7.64	333	9.98	327	1.4	91	0.1	11	47	980.6	NA	0.0000		9999	920	0	0	0